<?xml version="1.0" encoding="UTF-8"?>
<gpx
  version="1.1"
  creator="RunKeeper - http://www.runkeeper.com"
  xmlns:xsi="http://www.w3.org/2001/XMLSchema-instance"
  xmlns="http://www.topografix.com/GPX/1/1"
  xsi:schemaLocation="http://www.topografix.com/GPX/1/1 http://www.topografix.com/GPX/1/1/gpx.xsd"
  xmlns:gpxtpx="http://www.garmin.com/xmlschemas/TrackPointExtension/v1">
<trk>
  <name><![CDATA[Hiking 29/8/10 9:55 am]]></name>
  <time>2010-08-29T09:55:46Z</time>
<trkseg>
<trkpt lat="55.417467000" lon="-3.287572000"><ele>233.0</ele><time>2010-08-29T09:55:46Z</time></trkpt>
<trkpt lat="55.417501000" lon="-3.287469000"><ele>233.0</ele><time>2010-08-29T09:55:51Z</time></trkpt>
<trkpt lat="55.417544000" lon="-3.287443000"><ele>233.0</ele><time>2010-08-29T09:55:58Z</time></trkpt>
<trkpt lat="55.417543000" lon="-3.287350000"><ele>233.0</ele><time>2010-08-29T09:56:18Z</time></trkpt>
<trkpt lat="55.417559000" lon="-3.287306000"><ele>233.0</ele><time>2010-08-29T09:56:33Z</time></trkpt>
<trkpt lat="55.417606000" lon="-3.287329000"><ele>233.0</ele><time>2010-08-29T09:56:44Z</time></trkpt>
<trkpt lat="55.417702000" lon="-3.287327000"><ele>233.0</ele><time>2010-08-29T09:57:02Z</time></trkpt>
<trkpt lat="55.417748000" lon="-3.287330000"><ele>233.0</ele><time>2010-08-29T09:57:06Z</time></trkpt>
<trkpt lat="55.417810000" lon="-3.287341000"><ele>233.6</ele><time>2010-08-29T09:57:33Z</time></trkpt>
<trkpt lat="55.417824000" lon="-3.287360000"><ele>234.3</ele><time>2010-08-29T09:57:35Z</time></trkpt>
<trkpt lat="55.417876000" lon="-3.287402000"><ele>234.9</ele><time>2010-08-29T09:57:39Z</time></trkpt>
<trkpt lat="55.417886000" lon="-3.287415000"><ele>235.5</ele><time>2010-08-29T09:57:40Z</time></trkpt>
<trkpt lat="55.417911000" lon="-3.287486000"><ele>236.2</ele><time>2010-08-29T09:57:44Z</time></trkpt>
<trkpt lat="55.417947000" lon="-3.287536000"><ele>236.8</ele><time>2010-08-29T09:57:48Z</time></trkpt>
<trkpt lat="55.417996000" lon="-3.287515000"><ele>237.5</ele><time>2010-08-29T09:57:53Z</time></trkpt>
<trkpt lat="55.418045000" lon="-3.287500000"><ele>238.1</ele><time>2010-08-29T09:57:57Z</time></trkpt>
<trkpt lat="55.418095000" lon="-3.287505000"><ele>238.7</ele><time>2010-08-29T09:58:01Z</time></trkpt>
<trkpt lat="55.418149000" lon="-3.287502000"><ele>239.4</ele><time>2010-08-29T09:58:05Z</time></trkpt>
<trkpt lat="55.418205000" lon="-3.287508000"><ele>240.0</ele><time>2010-08-29T09:58:09Z</time></trkpt>
<trkpt lat="55.418219000" lon="-3.287512000"><ele>240.0</ele><time>2010-08-29T09:58:10Z</time></trkpt>
<trkpt lat="55.418265000" lon="-3.287512000"><ele>240.0</ele><time>2010-08-29T09:58:13Z</time></trkpt>
<trkpt lat="55.418281000" lon="-3.287507000"><ele>240.0</ele><time>2010-08-29T09:58:14Z</time></trkpt>
<trkpt lat="55.418328000" lon="-3.287495000"><ele>240.0</ele><time>2010-08-29T09:58:17Z</time></trkpt>
<trkpt lat="55.418385000" lon="-3.287500000"><ele>240.0</ele><time>2010-08-29T09:58:21Z</time></trkpt>
<trkpt lat="55.418443000" lon="-3.287507000"><ele>240.0</ele><time>2010-08-29T09:58:25Z</time></trkpt>
<trkpt lat="55.418538000" lon="-3.287496000"><ele>241.1</ele><time>2010-08-29T09:58:32Z</time></trkpt>
<trkpt lat="55.418569000" lon="-3.287501000"><ele>242.2</ele><time>2010-08-29T09:58:34Z</time></trkpt>
<trkpt lat="55.418625000" lon="-3.287495000"><ele>243.3</ele><time>2010-08-29T09:58:38Z</time></trkpt>
<trkpt lat="55.418697000" lon="-3.287498000"><ele>244.4</ele><time>2010-08-29T09:58:43Z</time></trkpt>
<trkpt lat="55.418753000" lon="-3.287526000"><ele>245.5</ele><time>2010-08-29T09:58:47Z</time></trkpt>
<trkpt lat="55.418778000" lon="-3.287533000"><ele>246.5</ele><time>2010-08-29T09:58:49Z</time></trkpt>
<trkpt lat="55.418825000" lon="-3.287515000"><ele>247.6</ele><time>2010-08-29T09:58:53Z</time></trkpt>
<trkpt lat="55.418859000" lon="-3.287458000"><ele>248.7</ele><time>2010-08-29T09:58:57Z</time></trkpt>
<trkpt lat="55.418867000" lon="-3.287369000"><ele>249.6</ele><time>2010-08-29T09:59:01Z</time></trkpt>
<trkpt lat="55.418873000" lon="-3.287279000"><ele>250.5</ele><time>2010-08-29T09:59:05Z</time></trkpt>
<trkpt lat="55.418894000" lon="-3.287182000"><ele>251.5</ele><time>2010-08-29T09:59:09Z</time></trkpt>
<trkpt lat="55.418919000" lon="-3.287116000"><ele>251.3</ele><time>2010-08-29T09:59:12Z</time></trkpt>
<trkpt lat="55.418967000" lon="-3.287065000"><ele>251.1</ele><time>2010-08-29T09:59:16Z</time></trkpt>
<trkpt lat="55.419010000" lon="-3.287019000"><ele>250.9</ele><time>2010-08-29T09:59:24Z</time></trkpt>
<trkpt lat="55.419015000" lon="-3.286937000"><ele>250.7</ele><time>2010-08-29T09:59:29Z</time></trkpt>
<trkpt lat="55.418976000" lon="-3.286868000"><ele>250.5</ele><time>2010-08-29T09:59:41Z</time></trkpt>
<trkpt lat="55.418955000" lon="-3.286789000"><ele>250.4</ele><time>2010-08-29T09:59:50Z</time></trkpt>
<trkpt lat="55.418938000" lon="-3.286654000"><ele>250.2</ele><time>2010-08-29T10:00:07Z</time></trkpt>
<trkpt lat="55.418955000" lon="-3.286616000"><ele>250.0</ele><time>2010-08-29T10:00:10Z</time></trkpt>
<trkpt lat="55.419005000" lon="-3.286570000"><ele>250.0</ele><time>2010-08-29T10:00:14Z</time></trkpt>
<trkpt lat="55.419099000" lon="-3.286559000"><ele>250.0</ele><time>2010-08-29T10:00:23Z</time></trkpt>
<trkpt lat="55.419189000" lon="-3.286522000"><ele>250.0</ele><time>2010-08-29T10:00:34Z</time></trkpt>
<trkpt lat="55.419207000" lon="-3.286515000"><ele>250.0</ele><time>2010-08-29T10:00:37Z</time></trkpt>
<trkpt lat="55.419249000" lon="-3.286478000"><ele>250.0</ele><time>2010-08-29T10:00:43Z</time></trkpt>
<trkpt lat="55.419249000" lon="-3.286478000"><ele>250.0</ele><time>2010-08-29T10:00:46Z</time></trkpt>
<trkpt lat="55.419295000" lon="-3.286430000"><ele>249.8</ele><time>2010-08-29T10:00:49Z</time></trkpt>
<trkpt lat="55.419372000" lon="-3.286336000"><ele>249.6</ele><time>2010-08-29T10:00:59Z</time></trkpt>
<trkpt lat="55.419465000" lon="-3.286261000"><ele>252.5</ele><time>2010-08-29T10:01:22Z</time></trkpt>
<trkpt lat="55.419465000" lon="-3.286261000"><ele>255.3</ele><time>2010-08-29T10:01:30Z</time></trkpt>
<trkpt lat="55.419504000" lon="-3.286220000"><ele>258.1</ele><time>2010-08-29T10:01:34Z</time></trkpt>
<trkpt lat="55.419546000" lon="-3.286178000"><ele>260.9</ele><time>2010-08-29T10:01:50Z</time></trkpt>
<trkpt lat="55.419590000" lon="-3.286159000"><ele>263.7</ele><time>2010-08-29T10:01:51Z</time></trkpt>
<trkpt lat="55.419674000" lon="-3.286097000"><ele>266.5</ele><time>2010-08-29T10:02:07Z</time></trkpt>
<trkpt lat="55.419674000" lon="-3.286097000"><ele>269.6</ele><time>2010-08-29T10:02:08Z</time></trkpt>
<trkpt lat="55.419764000" lon="-3.286017000"><ele>272.7</ele><time>2010-08-29T10:02:16Z</time></trkpt>
<trkpt lat="55.419856000" lon="-3.285997000"><ele>275.8</ele><time>2010-08-29T10:02:28Z</time></trkpt>
<trkpt lat="55.419934000" lon="-3.286096000"><ele>279.1</ele><time>2010-08-29T10:02:41Z</time></trkpt>
<trkpt lat="55.419954000" lon="-3.286193000"><ele>282.4</ele><time>2010-08-29T10:02:50Z</time></trkpt>
<trkpt lat="55.419978000" lon="-3.286282000"><ele>282.6</ele><time>2010-08-29T10:02:56Z</time></trkpt>
<trkpt lat="55.419985000" lon="-3.286298000"><ele>282.9</ele><time>2010-08-29T10:02:57Z</time></trkpt>
<trkpt lat="55.419986000" lon="-3.286469000"><ele>283.2</ele><time>2010-08-29T10:03:23Z</time></trkpt>
<trkpt lat="55.419989000" lon="-3.286512000"><ele>283.5</ele><time>2010-08-29T10:03:26Z</time></trkpt>
<trkpt lat="55.419967000" lon="-3.286581000"><ele>282.9</ele><time>2010-08-29T10:03:29Z</time></trkpt>
<trkpt lat="55.419928000" lon="-3.286654000"><ele>282.4</ele><time>2010-08-29T10:03:32Z</time></trkpt>
<trkpt lat="55.419942000" lon="-3.286791000"><ele>281.5</ele><time>2010-08-29T10:03:50Z</time></trkpt>
<trkpt lat="55.420016000" lon="-3.286896000"><ele>280.7</ele><time>2010-08-29T10:04:07Z</time></trkpt>
<trkpt lat="55.420086000" lon="-3.287021000"><ele>279.9</ele><time>2010-08-29T10:04:19Z</time></trkpt>
<trkpt lat="55.420134000" lon="-3.287129000"><ele>279.1</ele><time>2010-08-29T10:04:38Z</time></trkpt>
<trkpt lat="55.420163000" lon="-3.287219000"><ele>278.3</ele><time>2010-08-29T10:04:50Z</time></trkpt>
<trkpt lat="55.420163000" lon="-3.287219000"><ele>277.5</ele><time>2010-08-29T10:04:57Z</time></trkpt>
<trkpt lat="55.420204000" lon="-3.287254000"><ele>276.6</ele><time>2010-08-29T10:05:37Z</time></trkpt>
<trkpt lat="55.420235000" lon="-3.287277000"><ele>275.8</ele><time>2010-08-29T10:05:41Z</time></trkpt>
<trkpt lat="55.420273000" lon="-3.287330000"><ele>279.5</ele><time>2010-08-29T10:05:49Z</time></trkpt>
<trkpt lat="55.420316000" lon="-3.287369000"><ele>284.1</ele><time>2010-08-29T10:05:52Z</time></trkpt>
<trkpt lat="55.420360000" lon="-3.287420000"><ele>288.6</ele><time>2010-08-29T10:05:58Z</time></trkpt>
<trkpt lat="55.420448000" lon="-3.287475000"><ele>293.2</ele><time>2010-08-29T10:06:10Z</time></trkpt>
<trkpt lat="55.420463000" lon="-3.287488000"><ele>297.7</ele><time>2010-08-29T10:06:12Z</time></trkpt>
<trkpt lat="55.420501000" lon="-3.287541000"><ele>301.4</ele><time>2010-08-29T10:06:18Z</time></trkpt>
<trkpt lat="55.420565000" lon="-3.287626000"><ele>305.0</ele><time>2010-08-29T10:06:29Z</time></trkpt>
<trkpt lat="55.420593000" lon="-3.287701000"><ele>308.6</ele><time>2010-08-29T10:06:38Z</time></trkpt>
<trkpt lat="55.420664000" lon="-3.287807000"><ele>312.3</ele><time>2010-08-29T10:06:56Z</time></trkpt>
<trkpt lat="55.420692000" lon="-3.287850000"><ele>315.9</ele><time>2010-08-29T10:07:00Z</time></trkpt>
<trkpt lat="55.420733000" lon="-3.287889000"><ele>319.5</ele><time>2010-08-29T10:07:10Z</time></trkpt>
<trkpt lat="55.420745000" lon="-3.287907000"><ele>318.6</ele><time>2010-08-29T10:07:14Z</time></trkpt>
<trkpt lat="55.420787000" lon="-3.287947000"><ele>317.7</ele><time>2010-08-29T10:07:23Z</time></trkpt>
<trkpt lat="55.420787000" lon="-3.287947000"><ele>316.8</ele><time>2010-08-29T10:07:29Z</time></trkpt>
<trkpt lat="55.420820000" lon="-3.288009000"><ele>315.9</ele><time>2010-08-29T10:07:34Z</time></trkpt>
<trkpt lat="55.420826000" lon="-3.288016000"><ele>315.0</ele><time>2010-08-29T10:07:35Z</time></trkpt>
<trkpt lat="55.420869000" lon="-3.288045000"><ele>315.0</ele><time>2010-08-29T10:07:43Z</time></trkpt>
<trkpt lat="55.420950000" lon="-3.288140000"><ele>315.0</ele><time>2010-08-29T10:07:54Z</time></trkpt>
<trkpt lat="55.420961000" lon="-3.288154000"><ele>315.0</ele><time>2010-08-29T10:07:56Z</time></trkpt>
<trkpt lat="55.420992000" lon="-3.288220000"><ele>315.0</ele><time>2010-08-29T10:08:09Z</time></trkpt>
<trkpt lat="55.420995000" lon="-3.288228000"><ele>315.0</ele><time>2010-08-29T10:08:12Z</time></trkpt>
<trkpt lat="55.421043000" lon="-3.288329000"><ele>315.0</ele><time>2010-08-29T10:08:41Z</time></trkpt>
<trkpt lat="55.421073000" lon="-3.288360000"><ele>315.0</ele><time>2010-08-29T10:08:46Z</time></trkpt>
<trkpt lat="55.421111000" lon="-3.288417000"><ele>318.6</ele><time>2010-08-29T10:08:52Z</time></trkpt>
<trkpt lat="55.421172000" lon="-3.288462000"><ele>321.0</ele><time>2010-08-29T10:09:10Z</time></trkpt>
<trkpt lat="55.421189000" lon="-3.288472000"><ele>323.4</ele><time>2010-08-29T10:09:13Z</time></trkpt>
<trkpt lat="55.421220000" lon="-3.288603000"><ele>325.7</ele><time>2010-08-29T10:10:57Z</time></trkpt>
<trkpt lat="55.421264000" lon="-3.288634000"><ele>328.1</ele><time>2010-08-29T10:11:07Z</time></trkpt>
<trkpt lat="55.421296000" lon="-3.288672000"><ele>330.5</ele><time>2010-08-29T10:11:14Z</time></trkpt>
<trkpt lat="55.421355000" lon="-3.288757000"><ele>332.8</ele><time>2010-08-29T10:11:26Z</time></trkpt>
<trkpt lat="55.421393000" lon="-3.288801000"><ele>335.2</ele><time>2010-08-29T10:11:31Z</time></trkpt>
<trkpt lat="55.421431000" lon="-3.288851000"><ele>337.5</ele><time>2010-08-29T10:11:36Z</time></trkpt>
<trkpt lat="55.421479000" lon="-3.288922000"><ele>339.9</ele><time>2010-08-29T10:11:43Z</time></trkpt>
<trkpt lat="55.421515000" lon="-3.288982000"><ele>342.3</ele><time>2010-08-29T10:11:58Z</time></trkpt>
<trkpt lat="55.421515000" lon="-3.288982000"><ele>341.0</ele><time>2010-08-29T10:12:01Z</time></trkpt>
<trkpt lat="55.421548000" lon="-3.289040000"><ele>341.0</ele><time>2010-08-29T10:12:06Z</time></trkpt>
<trkpt lat="55.421548000" lon="-3.289040000"><ele>341.0</ele><time>2010-08-29T10:12:11Z</time></trkpt>
<trkpt lat="55.421570000" lon="-3.289112000"><ele>341.0</ele><time>2010-08-29T10:12:16Z</time></trkpt>
<trkpt lat="55.421570000" lon="-3.289112000"><ele>341.0</ele><time>2010-08-29T10:12:17Z</time></trkpt>
<trkpt lat="55.421570000" lon="-3.289112000"><ele>341.0</ele><time>2010-08-29T10:12:18Z</time></trkpt>
<trkpt lat="55.421602000" lon="-3.289171000"><ele>341.0</ele><time>2010-08-29T10:12:20Z</time></trkpt>
<trkpt lat="55.421602000" lon="-3.289171000"><ele>341.0</ele><time>2010-08-29T10:12:27Z</time></trkpt>
<trkpt lat="55.421638000" lon="-3.289224000"><ele>341.0</ele><time>2010-08-29T10:12:28Z</time></trkpt>
<trkpt lat="55.421638000" lon="-3.289224000"><ele>341.0</ele><time>2010-08-29T10:12:33Z</time></trkpt>
<trkpt lat="55.421679000" lon="-3.289267000"><ele>339.8</ele><time>2010-08-29T10:12:38Z</time></trkpt>
<trkpt lat="55.421709000" lon="-3.289333000"><ele>338.6</ele><time>2010-08-29T10:12:48Z</time></trkpt>
<trkpt lat="55.421755000" lon="-3.289413000"><ele>337.5</ele><time>2010-08-29T10:13:03Z</time></trkpt>
<trkpt lat="55.421788000" lon="-3.289467000"><ele>336.3</ele><time>2010-08-29T10:13:09Z</time></trkpt>
<trkpt lat="55.421800000" lon="-3.289488000"><ele>335.1</ele><time>2010-08-29T10:13:11Z</time></trkpt>
<trkpt lat="55.421837000" lon="-3.289553000"><ele>333.9</ele><time>2010-08-29T10:13:18Z</time></trkpt>
<trkpt lat="55.421857000" lon="-3.289610000"><ele>332.7</ele><time>2010-08-29T10:13:25Z</time></trkpt>
<trkpt lat="55.421872000" lon="-3.289708000"><ele>331.5</ele><time>2010-08-29T10:13:38Z</time></trkpt>
<trkpt lat="55.421878000" lon="-3.289712000"><ele>330.4</ele><time>2010-08-29T10:13:39Z</time></trkpt>
<trkpt lat="55.421914000" lon="-3.289771000"><ele>329.2</ele><time>2010-08-29T10:13:46Z</time></trkpt>
<trkpt lat="55.421937000" lon="-3.289809000"><ele>328.0</ele><time>2010-08-29T10:13:51Z</time></trkpt>
<trkpt lat="55.421951000" lon="-3.289895000"><ele>328.0</ele><time>2010-08-29T10:14:26Z</time></trkpt>
<trkpt lat="55.421963000" lon="-3.289980000"><ele>329.7</ele><time>2010-08-29T10:14:32Z</time></trkpt>
<trkpt lat="55.421987000" lon="-3.290087000"><ele>331.5</ele><time>2010-08-29T10:14:40Z</time></trkpt>
<trkpt lat="55.422033000" lon="-3.290154000"><ele>333.2</ele><time>2010-08-29T10:14:55Z</time></trkpt>
<trkpt lat="55.422038000" lon="-3.290161000"><ele>334.9</ele><time>2010-08-29T10:14:56Z</time></trkpt>
<trkpt lat="55.422055000" lon="-3.290247000"><ele>337.7</ele><time>2010-08-29T10:15:05Z</time></trkpt>
<trkpt lat="55.422068000" lon="-3.290324000"><ele>340.5</ele><time>2010-08-29T10:15:12Z</time></trkpt>
<trkpt lat="55.422070000" lon="-3.290336000"><ele>343.4</ele><time>2010-08-29T10:15:13Z</time></trkpt>
<trkpt lat="55.422094000" lon="-3.290407000"><ele>346.2</ele><time>2010-08-29T10:15:22Z</time></trkpt>
<trkpt lat="55.422102000" lon="-3.290448000"><ele>349.0</ele><time>2010-08-29T10:15:26Z</time></trkpt>
<trkpt lat="55.422117000" lon="-3.290523000"><ele>351.8</ele><time>2010-08-29T10:15:34Z</time></trkpt>
<trkpt lat="55.422130000" lon="-3.290551000"><ele>354.6</ele><time>2010-08-29T10:15:39Z</time></trkpt>
<trkpt lat="55.422135000" lon="-3.290637000"><ele>355.7</ele><time>2010-08-29T10:15:54Z</time></trkpt>
<trkpt lat="55.422186000" lon="-3.290773000"><ele>356.8</ele><time>2010-08-29T10:16:05Z</time></trkpt>
<trkpt lat="55.422215000" lon="-3.290839000"><ele>357.9</ele><time>2010-08-29T10:16:11Z</time></trkpt>
<trkpt lat="55.422235000" lon="-3.290863000"><ele>359.0</ele><time>2010-08-29T10:16:14Z</time></trkpt>
<trkpt lat="55.422241000" lon="-3.290944000"><ele>359.0</ele><time>2010-08-29T10:16:23Z</time></trkpt>
<trkpt lat="55.422263000" lon="-3.291043000"><ele>359.0</ele><time>2010-08-29T10:16:30Z</time></trkpt>
<trkpt lat="55.422290000" lon="-3.291110000"><ele>359.0</ele><time>2010-08-29T10:16:35Z</time></trkpt>
<trkpt lat="55.422303000" lon="-3.291140000"><ele>359.0</ele><time>2010-08-29T10:16:41Z</time></trkpt>
<trkpt lat="55.422325000" lon="-3.291216000"><ele>367.4</ele><time>2010-08-29T10:16:47Z</time></trkpt>
<trkpt lat="55.422334000" lon="-3.291242000"><ele>375.7</ele><time>2010-08-29T10:16:49Z</time></trkpt>
<trkpt lat="55.422319000" lon="-3.291319000"><ele>384.1</ele><time>2010-08-29T10:17:04Z</time></trkpt>
<trkpt lat="55.422289000" lon="-3.291427000"><ele>392.5</ele><time>2010-08-29T10:17:13Z</time></trkpt>
<trkpt lat="55.422279000" lon="-3.291515000"><ele>398.9</ele><time>2010-08-29T10:17:19Z</time></trkpt>
<trkpt lat="55.422264000" lon="-3.291597000"><ele>405.4</ele><time>2010-08-29T10:17:25Z</time></trkpt>
<trkpt lat="55.422288000" lon="-3.291659000"><ele>411.8</ele><time>2010-08-29T10:17:35Z</time></trkpt>
<trkpt lat="55.422286000" lon="-3.291749000"><ele>418.3</ele><time>2010-08-29T10:17:41Z</time></trkpt>
<trkpt lat="55.422280000" lon="-3.291908000"><ele>424.7</ele><time>2010-08-29T10:17:50Z</time></trkpt>
<trkpt lat="55.422262000" lon="-3.291991000"><ele>431.2</ele><time>2010-08-29T10:17:56Z</time></trkpt>
<trkpt lat="55.422269000" lon="-3.292080000"><ele>437.6</ele><time>2010-08-29T10:18:02Z</time></trkpt>
<trkpt lat="55.422276000" lon="-3.292159000"><ele>435.7</ele><time>2010-08-29T10:18:07Z</time></trkpt>
<trkpt lat="55.422278000" lon="-3.292242000"><ele>433.8</ele><time>2010-08-29T10:18:12Z</time></trkpt>
<trkpt lat="55.422269000" lon="-3.292396000"><ele>431.9</ele><time>2010-08-29T10:18:25Z</time></trkpt>
<trkpt lat="55.422266000" lon="-3.292481000"><ele>430.0</ele><time>2010-08-29T10:18:30Z</time></trkpt>
<trkpt lat="55.422261000" lon="-3.292564000"><ele>430.0</ele><time>2010-08-29T10:18:34Z</time></trkpt>
<trkpt lat="55.422271000" lon="-3.292731000"><ele>430.0</ele><time>2010-08-29T10:18:42Z</time></trkpt>
<trkpt lat="55.422288000" lon="-3.292897000"><ele>430.0</ele><time>2010-08-29T10:18:51Z</time></trkpt>
<trkpt lat="55.422331000" lon="-3.293039000"><ele>430.0</ele><time>2010-08-29T10:18:59Z</time></trkpt>
<trkpt lat="55.422346000" lon="-3.293074000"><ele>430.0</ele><time>2010-08-29T10:19:01Z</time></trkpt>
<trkpt lat="55.422348000" lon="-3.293155000"><ele>430.1</ele><time>2010-08-29T10:19:06Z</time></trkpt>
<trkpt lat="55.422323000" lon="-3.293245000"><ele>430.2</ele><time>2010-08-29T10:19:12Z</time></trkpt>
<trkpt lat="55.422309000" lon="-3.293329000"><ele>430.3</ele><time>2010-08-29T10:19:17Z</time></trkpt>
<trkpt lat="55.422284000" lon="-3.293484000"><ele>430.4</ele><time>2010-08-29T10:19:28Z</time></trkpt>
<trkpt lat="55.422279000" lon="-3.293650000"><ele>430.5</ele><time>2010-08-29T10:19:39Z</time></trkpt>
<trkpt lat="55.422311000" lon="-3.293801000"><ele>430.5</ele><time>2010-08-29T10:19:49Z</time></trkpt>
<trkpt lat="55.422321000" lon="-3.293861000"><ele>430.6</ele><time>2010-08-29T10:19:53Z</time></trkpt>
<trkpt lat="55.422336000" lon="-3.293939000"><ele>430.7</ele><time>2010-08-29T10:19:58Z</time></trkpt>
<trkpt lat="55.422345000" lon="-3.293973000"><ele>430.8</ele><time>2010-08-29T10:20:01Z</time></trkpt>
<trkpt lat="55.422373000" lon="-3.294037000"><ele>430.9</ele><time>2010-08-29T10:20:30Z</time></trkpt>
<trkpt lat="55.422361000" lon="-3.294058000"><ele>431.0</ele><time>2010-08-29T10:20:38Z</time></trkpt>
<trkpt lat="55.422401000" lon="-3.294119000"><ele>431.0</ele><time>2010-08-29T10:20:50Z</time></trkpt>
<trkpt lat="55.422431000" lon="-3.294160000"><ele>431.0</ele><time>2010-08-29T10:20:53Z</time></trkpt>
<trkpt lat="55.422470000" lon="-3.294226000"><ele>431.0</ele><time>2010-08-29T10:20:58Z</time></trkpt>
<trkpt lat="55.422490000" lon="-3.294255000"><ele>431.0</ele><time>2010-08-29T10:21:01Z</time></trkpt>
<trkpt lat="55.422529000" lon="-3.294318000"><ele>431.0</ele><time>2010-08-29T10:21:08Z</time></trkpt>
<trkpt lat="55.422571000" lon="-3.294364000"><ele>431.0</ele><time>2010-08-29T10:21:12Z</time></trkpt>
<trkpt lat="55.422609000" lon="-3.294436000"><ele>431.0</ele><time>2010-08-29T10:21:20Z</time></trkpt>
<trkpt lat="55.422641000" lon="-3.294524000"><ele>431.0</ele><time>2010-08-29T10:21:27Z</time></trkpt>
<trkpt lat="55.422680000" lon="-3.294579000"><ele>431.0</ele><time>2010-08-29T10:21:38Z</time></trkpt>
<trkpt lat="55.422701000" lon="-3.294619000"><ele>431.0</ele><time>2010-08-29T10:21:42Z</time></trkpt>
<trkpt lat="55.422745000" lon="-3.294653000"><ele>431.0</ele><time>2010-08-29T10:21:49Z</time></trkpt>
<trkpt lat="55.422753000" lon="-3.294654000"><ele>431.0</ele><time>2010-08-29T10:21:50Z</time></trkpt>
<trkpt lat="55.422801000" lon="-3.294688000"><ele>432.7</ele><time>2010-08-29T10:21:59Z</time></trkpt>
<trkpt lat="55.422808000" lon="-3.294695000"><ele>434.5</ele><time>2010-08-29T10:22:00Z</time></trkpt>
<trkpt lat="55.422839000" lon="-3.294767000"><ele>436.2</ele><time>2010-08-29T10:22:07Z</time></trkpt>
<trkpt lat="55.422883000" lon="-3.294800000"><ele>437.9</ele><time>2010-08-29T10:22:13Z</time></trkpt>
<trkpt lat="55.422924000" lon="-3.294845000"><ele>439.6</ele><time>2010-08-29T10:22:21Z</time></trkpt>
<trkpt lat="55.422940000" lon="-3.294897000"><ele>441.4</ele><time>2010-08-29T10:22:26Z</time></trkpt>
<trkpt lat="55.422961000" lon="-3.294969000"><ele>443.1</ele><time>2010-08-29T10:22:30Z</time></trkpt>
<trkpt lat="55.422968000" lon="-3.294986000"><ele>444.8</ele><time>2010-08-29T10:22:31Z</time></trkpt>
<trkpt lat="55.422995000" lon="-3.295058000"><ele>446.5</ele><time>2010-08-29T10:22:39Z</time></trkpt>
<trkpt lat="55.423064000" lon="-3.295159000"><ele>448.3</ele><time>2010-08-29T10:22:51Z</time></trkpt>
<trkpt lat="55.423098000" lon="-3.295170000"><ele>450.2</ele><time>2010-08-29T10:22:54Z</time></trkpt>
<trkpt lat="55.423148000" lon="-3.295173000"><ele>450.4</ele><time>2010-08-29T10:22:59Z</time></trkpt>
<trkpt lat="55.423172000" lon="-3.295191000"><ele>450.5</ele><time>2010-08-29T10:23:04Z</time></trkpt>
<trkpt lat="55.423180000" lon="-3.295275000"><ele>450.7</ele><time>2010-08-29T10:23:13Z</time></trkpt>
<trkpt lat="55.423182000" lon="-3.295357000"><ele>450.9</ele><time>2010-08-29T10:23:19Z</time></trkpt>
<trkpt lat="55.423187000" lon="-3.295445000"><ele>451.1</ele><time>2010-08-29T10:23:25Z</time></trkpt>
<trkpt lat="55.423208000" lon="-3.295526000"><ele>451.3</ele><time>2010-08-29T10:23:30Z</time></trkpt>
<trkpt lat="55.423238000" lon="-3.295592000"><ele>451.5</ele><time>2010-08-29T10:23:36Z</time></trkpt>
<trkpt lat="55.423250000" lon="-3.295683000"><ele>451.6</ele><time>2010-08-29T10:23:42Z</time></trkpt>
<trkpt lat="55.423295000" lon="-3.295649000"><ele>451.8</ele><time>2010-08-29T10:24:00Z</time></trkpt>
<trkpt lat="55.423342000" lon="-3.295676000"><ele>452.0</ele><time>2010-08-29T10:24:06Z</time></trkpt>
<trkpt lat="55.423385000" lon="-3.295719000"><ele>452.0</ele><time>2010-08-29T10:24:13Z</time></trkpt>
<trkpt lat="55.423421000" lon="-3.295768000"><ele>452.0</ele><time>2010-08-29T10:24:20Z</time></trkpt>
<trkpt lat="55.423459000" lon="-3.295886000"><ele>452.0</ele><time>2010-08-29T10:24:35Z</time></trkpt>
<trkpt lat="55.423462000" lon="-3.295901000"><ele>452.1</ele><time>2010-08-29T10:24:36Z</time></trkpt>
<trkpt lat="55.423487000" lon="-3.295974000"><ele>452.2</ele><time>2010-08-29T10:24:41Z</time></trkpt>
<trkpt lat="55.423524000" lon="-3.296032000"><ele>452.3</ele><time>2010-08-29T10:24:46Z</time></trkpt>
<trkpt lat="55.423564000" lon="-3.296138000"><ele>452.4</ele><time>2010-08-29T10:25:01Z</time></trkpt>
<trkpt lat="55.423579000" lon="-3.296179000"><ele>452.5</ele><time>2010-08-29T10:25:04Z</time></trkpt>
<trkpt lat="55.423601000" lon="-3.296255000"><ele>453.5</ele><time>2010-08-29T10:25:08Z</time></trkpt>
<trkpt lat="55.423635000" lon="-3.296340000"><ele>454.6</ele><time>2010-08-29T10:25:12Z</time></trkpt>
<trkpt lat="55.423665000" lon="-3.296413000"><ele>455.7</ele><time>2010-08-29T10:25:16Z</time></trkpt>
<trkpt lat="55.423698000" lon="-3.296478000"><ele>456.8</ele><time>2010-08-29T10:25:21Z</time></trkpt>
<trkpt lat="55.423744000" lon="-3.296531000"><ele>457.9</ele><time>2010-08-29T10:25:26Z</time></trkpt>
<trkpt lat="55.423788000" lon="-3.296567000"><ele>459.0</ele><time>2010-08-29T10:25:31Z</time></trkpt>
<trkpt lat="55.423836000" lon="-3.296588000"><ele>460.0</ele><time>2010-08-29T10:25:36Z</time></trkpt>
<trkpt lat="55.423880000" lon="-3.296604000"><ele>461.0</ele><time>2010-08-29T10:25:41Z</time></trkpt>
<trkpt lat="55.423924000" lon="-3.296643000"><ele>462.0</ele><time>2010-08-29T10:25:47Z</time></trkpt>
<trkpt lat="55.423959000" lon="-3.296699000"><ele>463.0</ele><time>2010-08-29T10:25:54Z</time></trkpt>
<trkpt lat="55.423984000" lon="-3.296709000"><ele>464.0</ele><time>2010-08-29T10:26:11Z</time></trkpt>
<trkpt lat="55.424018000" lon="-3.296773000"><ele>464.0</ele><time>2010-08-29T10:26:16Z</time></trkpt>
<trkpt lat="55.424099000" lon="-3.296844000"><ele>464.2</ele><time>2010-08-29T10:26:28Z</time></trkpt>
<trkpt lat="55.424105000" lon="-3.296848000"><ele>464.4</ele><time>2010-08-29T10:26:29Z</time></trkpt>
<trkpt lat="55.424160000" lon="-3.296901000"><ele>464.5</ele><time>2010-08-29T10:26:40Z</time></trkpt>
<trkpt lat="55.424199000" lon="-3.296947000"><ele>464.7</ele><time>2010-08-29T10:26:43Z</time></trkpt>
<trkpt lat="55.424242000" lon="-3.297003000"><ele>464.9</ele><time>2010-08-29T10:26:48Z</time></trkpt>
<trkpt lat="55.424291000" lon="-3.297086000"><ele>465.1</ele><time>2010-08-29T10:26:56Z</time></trkpt>
<trkpt lat="55.424334000" lon="-3.297110000"><ele>465.3</ele><time>2010-08-29T10:27:02Z</time></trkpt>
<trkpt lat="55.424383000" lon="-3.297135000"><ele>465.5</ele><time>2010-08-29T10:27:09Z</time></trkpt>
<trkpt lat="55.424428000" lon="-3.297172000"><ele>465.6</ele><time>2010-08-29T10:27:16Z</time></trkpt>
<trkpt lat="55.424434000" lon="-3.297178000"><ele>465.8</ele><time>2010-08-29T10:27:17Z</time></trkpt>
<trkpt lat="55.424465000" lon="-3.297243000"><ele>467.2</ele><time>2010-08-29T10:27:25Z</time></trkpt>
<trkpt lat="55.424473000" lon="-3.297259000"><ele>468.4</ele><time>2010-08-29T10:27:27Z</time></trkpt>
<trkpt lat="55.424501000" lon="-3.297338000"><ele>469.5</ele><time>2010-08-29T10:27:34Z</time></trkpt>
<trkpt lat="55.424537000" lon="-3.297402000"><ele>470.7</ele><time>2010-08-29T10:27:40Z</time></trkpt>
<trkpt lat="55.424580000" lon="-3.297444000"><ele>471.9</ele><time>2010-08-29T10:27:46Z</time></trkpt>
<trkpt lat="55.424666000" lon="-3.297497000"><ele>473.1</ele><time>2010-08-29T10:27:57Z</time></trkpt>
<trkpt lat="55.424711000" lon="-3.297520000"><ele>474.3</ele><time>2010-08-29T10:28:02Z</time></trkpt>
<trkpt lat="55.424762000" lon="-3.297537000"><ele>475.5</ele><time>2010-08-29T10:28:08Z</time></trkpt>
<trkpt lat="55.424803000" lon="-3.297574000"><ele>476.6</ele><time>2010-08-29T10:28:14Z</time></trkpt>
<trkpt lat="55.424810000" lon="-3.297582000"><ele>477.8</ele><time>2010-08-29T10:28:15Z</time></trkpt>
<trkpt lat="55.424852000" lon="-3.297644000"><ele>479.0</ele><time>2010-08-29T10:28:20Z</time></trkpt>
<trkpt lat="55.424860000" lon="-3.297657000"><ele>478.2</ele><time>2010-08-29T10:28:21Z</time></trkpt>
<trkpt lat="55.424895000" lon="-3.297714000"><ele>477.4</ele><time>2010-08-29T10:28:26Z</time></trkpt>
<trkpt lat="55.424902000" lon="-3.297726000"><ele>476.5</ele><time>2010-08-29T10:28:27Z</time></trkpt>
<trkpt lat="55.424942000" lon="-3.297787000"><ele>475.7</ele><time>2010-08-29T10:28:33Z</time></trkpt>
<trkpt lat="55.424982000" lon="-3.297854000"><ele>474.9</ele><time>2010-08-29T10:28:38Z</time></trkpt>
<trkpt lat="55.425026000" lon="-3.297898000"><ele>474.1</ele><time>2010-08-29T10:28:43Z</time></trkpt>
<trkpt lat="55.425068000" lon="-3.297956000"><ele>473.3</ele><time>2010-08-29T10:28:48Z</time></trkpt>
<trkpt lat="55.425113000" lon="-3.298019000"><ele>472.5</ele><time>2010-08-29T10:28:53Z</time></trkpt>
<trkpt lat="55.425177000" lon="-3.298134000"><ele>471.6</ele><time>2010-08-29T10:29:01Z</time></trkpt>
<trkpt lat="55.425186000" lon="-3.298148000"><ele>470.8</ele><time>2010-08-29T10:29:02Z</time></trkpt>
<trkpt lat="55.425219000" lon="-3.298204000"><ele>470.0</ele><time>2010-08-29T10:29:07Z</time></trkpt>
<trkpt lat="55.425257000" lon="-3.298260000"><ele>470.4</ele><time>2010-08-29T10:29:12Z</time></trkpt>
<trkpt lat="55.425294000" lon="-3.298320000"><ele>470.7</ele><time>2010-08-29T10:29:17Z</time></trkpt>
<trkpt lat="55.425318000" lon="-3.298448000"><ele>471.1</ele><time>2010-08-29T10:29:24Z</time></trkpt>
<trkpt lat="55.425332000" lon="-3.298542000"><ele>471.5</ele><time>2010-08-29T10:29:28Z</time></trkpt>
<trkpt lat="55.425348000" lon="-3.298633000"><ele>471.8</ele><time>2010-08-29T10:29:33Z</time></trkpt>
<trkpt lat="55.425380000" lon="-3.298702000"><ele>472.2</ele><time>2010-08-29T10:29:40Z</time></trkpt>
<trkpt lat="55.425406000" lon="-3.298771000"><ele>473.0</ele><time>2010-08-29T10:29:47Z</time></trkpt>
<trkpt lat="55.425413000" lon="-3.298827000"><ele>473.8</ele><time>2010-08-29T10:29:52Z</time></trkpt>
<trkpt lat="55.425417000" lon="-3.298908000"><ele>474.6</ele><time>2010-08-29T10:29:58Z</time></trkpt>
<trkpt lat="55.425433000" lon="-3.298935000"><ele>475.5</ele><time>2010-08-29T10:30:01Z</time></trkpt>
<trkpt lat="55.425460000" lon="-3.299000000"><ele>476.3</ele><time>2010-08-29T10:30:06Z</time></trkpt>
<trkpt lat="55.425471000" lon="-3.299015000"><ele>476.7</ele><time>2010-08-29T10:30:07Z</time></trkpt>
<trkpt lat="55.425505000" lon="-3.299083000"><ele>477.2</ele><time>2010-08-29T10:30:11Z</time></trkpt>
<trkpt lat="55.425535000" lon="-3.299154000"><ele>477.6</ele><time>2010-08-29T10:30:15Z</time></trkpt>
<trkpt lat="55.425579000" lon="-3.299207000"><ele>477.9</ele><time>2010-08-29T10:30:21Z</time></trkpt>
<trkpt lat="55.425607000" lon="-3.299279000"><ele>478.2</ele><time>2010-08-29T10:30:27Z</time></trkpt>
<trkpt lat="55.425627000" lon="-3.299355000"><ele>478.5</ele><time>2010-08-29T10:30:31Z</time></trkpt>
<trkpt lat="55.425656000" lon="-3.299415000"><ele>478.3</ele><time>2010-08-29T10:30:36Z</time></trkpt>
<trkpt lat="55.425690000" lon="-3.299486000"><ele>478.1</ele><time>2010-08-29T10:30:41Z</time></trkpt>
<trkpt lat="55.425722000" lon="-3.299556000"><ele>477.9</ele><time>2010-08-29T10:30:46Z</time></trkpt>
<trkpt lat="55.425756000" lon="-3.299625000"><ele>477.7</ele><time>2010-08-29T10:30:52Z</time></trkpt>
<trkpt lat="55.425792000" lon="-3.299676000"><ele>477.5</ele><time>2010-08-29T10:30:57Z</time></trkpt>
<trkpt lat="55.425829000" lon="-3.299733000"><ele>477.4</ele><time>2010-08-29T10:31:03Z</time></trkpt>
<trkpt lat="55.425834000" lon="-3.299748000"><ele>477.2</ele><time>2010-08-29T10:31:04Z</time></trkpt>
<trkpt lat="55.425862000" lon="-3.299831000"><ele>477.0</ele><time>2010-08-29T10:31:09Z</time></trkpt>
<trkpt lat="55.425870000" lon="-3.299860000"><ele>477.0</ele><time>2010-08-29T10:31:11Z</time></trkpt>
<trkpt lat="55.425903000" lon="-3.299924000"><ele>477.0</ele><time>2010-08-29T10:31:16Z</time></trkpt>
<trkpt lat="55.425939000" lon="-3.299974000"><ele>477.0</ele><time>2010-08-29T10:31:23Z</time></trkpt>
<trkpt lat="55.425968000" lon="-3.300044000"><ele>477.0</ele><time>2010-08-29T10:31:30Z</time></trkpt>
<trkpt lat="55.425968000" lon="-3.300044000"><ele>477.0</ele><time>2010-08-29T10:31:32Z</time></trkpt>
<trkpt lat="55.425991000" lon="-3.300120000"><ele>477.0</ele><time>2010-08-29T10:31:38Z</time></trkpt>
<trkpt lat="55.425998000" lon="-3.300132000"><ele>477.4</ele><time>2010-08-29T10:31:39Z</time></trkpt>
<trkpt lat="55.426034000" lon="-3.300193000"><ele>477.7</ele><time>2010-08-29T10:31:44Z</time></trkpt>
<trkpt lat="55.426040000" lon="-3.300204000"><ele>478.1</ele><time>2010-08-29T10:31:45Z</time></trkpt>
<trkpt lat="55.426077000" lon="-3.300267000"><ele>478.5</ele><time>2010-08-29T10:31:50Z</time></trkpt>
<trkpt lat="55.426109000" lon="-3.300319000"><ele>479.3</ele><time>2010-08-29T10:31:54Z</time></trkpt>
<trkpt lat="55.426152000" lon="-3.300374000"><ele>480.1</ele><time>2010-08-29T10:32:00Z</time></trkpt>
<trkpt lat="55.426180000" lon="-3.300475000"><ele>480.9</ele><time>2010-08-29T10:32:06Z</time></trkpt>
<trkpt lat="55.426224000" lon="-3.300534000"><ele>481.7</ele><time>2010-08-29T10:32:10Z</time></trkpt>
<trkpt lat="55.426271000" lon="-3.300560000"><ele>482.5</ele><time>2010-08-29T10:32:13Z</time></trkpt>
<trkpt lat="55.426315000" lon="-3.300585000"><ele>483.4</ele><time>2010-08-29T10:32:18Z</time></trkpt>
<trkpt lat="55.426336000" lon="-3.300662000"><ele>484.2</ele><time>2010-08-29T10:32:23Z</time></trkpt>
<trkpt lat="55.426374000" lon="-3.300717000"><ele>484.6</ele><time>2010-08-29T10:32:29Z</time></trkpt>
<trkpt lat="55.426409000" lon="-3.300769000"><ele>484.9</ele><time>2010-08-29T10:32:34Z</time></trkpt>
<trkpt lat="55.426432000" lon="-3.300811000"><ele>485.2</ele><time>2010-08-29T10:32:38Z</time></trkpt>
<trkpt lat="55.426464000" lon="-3.300872000"><ele>485.5</ele><time>2010-08-29T10:32:43Z</time></trkpt>
<trkpt lat="55.426494000" lon="-3.300943000"><ele>485.3</ele><time>2010-08-29T10:32:48Z</time></trkpt>
<trkpt lat="55.426549000" lon="-3.301070000"><ele>485.1</ele><time>2010-08-29T10:32:55Z</time></trkpt>
<trkpt lat="55.426601000" lon="-3.301166000"><ele>484.9</ele><time>2010-08-29T10:33:01Z</time></trkpt>
<trkpt lat="55.426647000" lon="-3.301223000"><ele>484.7</ele><time>2010-08-29T10:33:05Z</time></trkpt>
<trkpt lat="55.426678000" lon="-3.301282000"><ele>484.5</ele><time>2010-08-29T10:33:09Z</time></trkpt>
<trkpt lat="55.426720000" lon="-3.301393000"><ele>484.4</ele><time>2010-08-29T10:33:21Z</time></trkpt>
<trkpt lat="55.426720000" lon="-3.301393000"><ele>484.2</ele><time>2010-08-29T10:33:24Z</time></trkpt>
<trkpt lat="55.426765000" lon="-3.301458000"><ele>484.0</ele><time>2010-08-29T10:33:26Z</time></trkpt>
<trkpt lat="55.426814000" lon="-3.301518000"><ele>484.0</ele><time>2010-08-29T10:33:29Z</time></trkpt>
<trkpt lat="55.426890000" lon="-3.301625000"><ele>484.0</ele><time>2010-08-29T10:33:35Z</time></trkpt>
<trkpt lat="55.426975000" lon="-3.301701000"><ele>484.5</ele><time>2010-08-29T10:33:43Z</time></trkpt>
<trkpt lat="55.427015000" lon="-3.301750000"><ele>484.9</ele><time>2010-08-29T10:33:48Z</time></trkpt>
<trkpt lat="55.427027000" lon="-3.301772000"><ele>485.7</ele><time>2010-08-29T10:33:50Z</time></trkpt>
<trkpt lat="55.427058000" lon="-3.301843000"><ele>486.5</ele><time>2010-08-29T10:33:55Z</time></trkpt>
<trkpt lat="55.427087000" lon="-3.301946000"><ele>487.4</ele><time>2010-08-29T10:34:01Z</time></trkpt>
<trkpt lat="55.427083000" lon="-3.302026000"><ele>488.2</ele><time>2010-08-29T10:34:09Z</time></trkpt>
<trkpt lat="55.427095000" lon="-3.302105000"><ele>489.0</ele><time>2010-08-29T10:34:15Z</time></trkpt>
<trkpt lat="55.427129000" lon="-3.302249000"><ele>489.8</ele><time>2010-08-29T10:34:24Z</time></trkpt>
<trkpt lat="55.427137000" lon="-3.302335000"><ele>490.6</ele><time>2010-08-29T10:34:28Z</time></trkpt>
<trkpt lat="55.427157000" lon="-3.302411000"><ele>491.5</ele><time>2010-08-29T10:34:33Z</time></trkpt>
<trkpt lat="55.427188000" lon="-3.302488000"><ele>492.2</ele><time>2010-08-29T10:34:39Z</time></trkpt>
<trkpt lat="55.427215000" lon="-3.302562000"><ele>492.5</ele><time>2010-08-29T10:34:45Z</time></trkpt>
<trkpt lat="55.427242000" lon="-3.302644000"><ele>492.7</ele><time>2010-08-29T10:34:51Z</time></trkpt>
<trkpt lat="55.427270000" lon="-3.302716000"><ele>492.6</ele><time>2010-08-29T10:34:56Z</time></trkpt>
<trkpt lat="55.427300000" lon="-3.302776000"><ele>492.5</ele><time>2010-08-29T10:35:00Z</time></trkpt>
<trkpt lat="55.427344000" lon="-3.302832000"><ele>492.5</ele><time>2010-08-29T10:35:05Z</time></trkpt>
<trkpt lat="55.427378000" lon="-3.302901000"><ele>492.4</ele><time>2010-08-29T10:35:10Z</time></trkpt>
<trkpt lat="55.427415000" lon="-3.302949000"><ele>492.3</ele><time>2010-08-29T10:35:14Z</time></trkpt>
<trkpt lat="55.427441000" lon="-3.303023000"><ele>492.2</ele><time>2010-08-29T10:35:19Z</time></trkpt>
<trkpt lat="55.427463000" lon="-3.303102000"><ele>492.1</ele><time>2010-08-29T10:35:24Z</time></trkpt>
<trkpt lat="55.427492000" lon="-3.303178000"><ele>492.0</ele><time>2010-08-29T10:35:29Z</time></trkpt>
<trkpt lat="55.427523000" lon="-3.303247000"><ele>492.0</ele><time>2010-08-29T10:35:34Z</time></trkpt>
<trkpt lat="55.427560000" lon="-3.303316000"><ele>492.0</ele><time>2010-08-29T10:35:39Z</time></trkpt>
<trkpt lat="55.427602000" lon="-3.303354000"><ele>492.0</ele><time>2010-08-29T10:35:48Z</time></trkpt>
<trkpt lat="55.427653000" lon="-3.303393000"><ele>492.0</ele><time>2010-08-29T10:35:53Z</time></trkpt>
<trkpt lat="55.427698000" lon="-3.303416000"><ele>492.0</ele><time>2010-08-29T10:35:57Z</time></trkpt>
<trkpt lat="55.427753000" lon="-3.303432000"><ele>492.0</ele><time>2010-08-29T10:36:02Z</time></trkpt>
<trkpt lat="55.427799000" lon="-3.303484000"><ele>492.6</ele><time>2010-08-29T10:36:06Z</time></trkpt>
<trkpt lat="55.427820000" lon="-3.303539000"><ele>493.3</ele><time>2010-08-29T10:36:09Z</time></trkpt>
<trkpt lat="55.427852000" lon="-3.303611000"><ele>494.1</ele><time>2010-08-29T10:36:13Z</time></trkpt>
<trkpt lat="55.427886000" lon="-3.303671000"><ele>494.9</ele><time>2010-08-29T10:36:17Z</time></trkpt>
<trkpt lat="55.427933000" lon="-3.303709000"><ele>495.7</ele><time>2010-08-29T10:36:22Z</time></trkpt>
<trkpt lat="55.427978000" lon="-3.303720000"><ele>496.5</ele><time>2010-08-29T10:36:27Z</time></trkpt>
<trkpt lat="55.428028000" lon="-3.303738000"><ele>497.4</ele><time>2010-08-29T10:36:32Z</time></trkpt>
<trkpt lat="55.428078000" lon="-3.303763000"><ele>498.2</ele><time>2010-08-29T10:36:37Z</time></trkpt>
<trkpt lat="55.428121000" lon="-3.303790000"><ele>499.0</ele><time>2010-08-29T10:36:41Z</time></trkpt>
<trkpt lat="55.428136000" lon="-3.303808000"><ele>499.8</ele><time>2010-08-29T10:36:45Z</time></trkpt>
<trkpt lat="55.428136000" lon="-3.303908000"><ele>500.6</ele><time>2010-08-29T10:36:51Z</time></trkpt>
<trkpt lat="55.428170000" lon="-3.303964000"><ele>500.8</ele><time>2010-08-29T10:36:55Z</time></trkpt>
<trkpt lat="55.428223000" lon="-3.303998000"><ele>501.0</ele><time>2010-08-29T10:36:59Z</time></trkpt>
<trkpt lat="55.428269000" lon="-3.304043000"><ele>501.0</ele><time>2010-08-29T10:37:04Z</time></trkpt>
<trkpt lat="55.428317000" lon="-3.304047000"><ele>501.0</ele><time>2010-08-29T10:37:09Z</time></trkpt>
<trkpt lat="55.428359000" lon="-3.304088000"><ele>501.0</ele><time>2010-08-29T10:37:15Z</time></trkpt>
<trkpt lat="55.428403000" lon="-3.304109000"><ele>501.0</ele><time>2010-08-29T10:37:19Z</time></trkpt>
<trkpt lat="55.428448000" lon="-3.304161000"><ele>501.0</ele><time>2010-08-29T10:37:24Z</time></trkpt>
<trkpt lat="55.428520000" lon="-3.304281000"><ele>501.0</ele><time>2010-08-29T10:37:33Z</time></trkpt>
<trkpt lat="55.428561000" lon="-3.304307000"><ele>501.0</ele><time>2010-08-29T10:37:41Z</time></trkpt>
<trkpt lat="55.428611000" lon="-3.304280000"><ele>501.5</ele><time>2010-08-29T10:37:47Z</time></trkpt>
<trkpt lat="55.428660000" lon="-3.304273000"><ele>502.1</ele><time>2010-08-29T10:37:51Z</time></trkpt>
<trkpt lat="55.428713000" lon="-3.304284000"><ele>502.6</ele><time>2010-08-29T10:37:56Z</time></trkpt>
<trkpt lat="55.428730000" lon="-3.304326000"><ele>503.0</ele><time>2010-08-29T10:37:58Z</time></trkpt>
<trkpt lat="55.428748000" lon="-3.304404000"><ele>503.4</ele><time>2010-08-29T10:38:09Z</time></trkpt>
<trkpt lat="55.428795000" lon="-3.304446000"><ele>503.7</ele><time>2010-08-29T10:38:14Z</time></trkpt>
<trkpt lat="55.428847000" lon="-3.304455000"><ele>504.1</ele><time>2010-08-29T10:38:19Z</time></trkpt>
<trkpt lat="55.428867000" lon="-3.304530000"><ele>504.5</ele><time>2010-08-29T10:38:29Z</time></trkpt>
<trkpt lat="55.428907000" lon="-3.304603000"><ele>504.8</ele><time>2010-08-29T10:38:36Z</time></trkpt>
<trkpt lat="55.428944000" lon="-3.304682000"><ele>505.2</ele><time>2010-08-29T10:38:41Z</time></trkpt>
<trkpt lat="55.428973000" lon="-3.304748000"><ele>505.5</ele><time>2010-08-29T10:38:45Z</time></trkpt>
<trkpt lat="55.428987000" lon="-3.304825000"><ele>505.4</ele><time>2010-08-29T10:38:50Z</time></trkpt>
<trkpt lat="55.428991000" lon="-3.304913000"><ele>505.2</ele><time>2010-08-29T10:38:55Z</time></trkpt>
<trkpt lat="55.428989000" lon="-3.304999000"><ele>505.0</ele><time>2010-08-29T10:39:00Z</time></trkpt>
<trkpt lat="55.428982000" lon="-3.305094000"><ele>505.2</ele><time>2010-08-29T10:39:05Z</time></trkpt>
<trkpt lat="55.428980000" lon="-3.305117000"><ele>505.4</ele><time>2010-08-29T10:39:06Z</time></trkpt>
<trkpt lat="55.428979000" lon="-3.305198000"><ele>505.5</ele><time>2010-08-29T10:39:09Z</time></trkpt>
<trkpt lat="55.428974000" lon="-3.305282000"><ele>505.7</ele><time>2010-08-29T10:39:13Z</time></trkpt>
<trkpt lat="55.428957000" lon="-3.305367000"><ele>505.9</ele><time>2010-08-29T10:39:20Z</time></trkpt>
<trkpt lat="55.428945000" lon="-3.305449000"><ele>506.1</ele><time>2010-08-29T10:39:25Z</time></trkpt>
<trkpt lat="55.428958000" lon="-3.305531000"><ele>506.3</ele><time>2010-08-29T10:39:30Z</time></trkpt>
<trkpt lat="55.428990000" lon="-3.305598000"><ele>506.5</ele><time>2010-08-29T10:39:35Z</time></trkpt>
<trkpt lat="55.429038000" lon="-3.305639000"><ele>506.6</ele><time>2010-08-29T10:39:40Z</time></trkpt>
<trkpt lat="55.429083000" lon="-3.305659000"><ele>506.8</ele><time>2010-08-29T10:39:44Z</time></trkpt>
<trkpt lat="55.429131000" lon="-3.305675000"><ele>507.0</ele><time>2010-08-29T10:39:49Z</time></trkpt>
<trkpt lat="55.429184000" lon="-3.305716000"><ele>507.0</ele><time>2010-08-29T10:39:55Z</time></trkpt>
<trkpt lat="55.429233000" lon="-3.305741000"><ele>507.0</ele><time>2010-08-29T10:40:01Z</time></trkpt>
<trkpt lat="55.429271000" lon="-3.305745000"><ele>507.0</ele><time>2010-08-29T10:40:05Z</time></trkpt>
<trkpt lat="55.429322000" lon="-3.305747000"><ele>507.0</ele><time>2010-08-29T10:40:10Z</time></trkpt>
<trkpt lat="55.429377000" lon="-3.305746000"><ele>507.0</ele><time>2010-08-29T10:40:14Z</time></trkpt>
<trkpt lat="55.429422000" lon="-3.305737000"><ele>507.4</ele><time>2010-08-29T10:40:18Z</time></trkpt>
<trkpt lat="55.429480000" lon="-3.305766000"><ele>507.7</ele><time>2010-08-29T10:40:23Z</time></trkpt>
<trkpt lat="55.429523000" lon="-3.305794000"><ele>508.1</ele><time>2010-08-29T10:40:27Z</time></trkpt>
<trkpt lat="55.429591000" lon="-3.305885000"><ele>508.5</ele><time>2010-08-29T10:40:35Z</time></trkpt>
<trkpt lat="55.429634000" lon="-3.305937000"><ele>508.8</ele><time>2010-08-29T10:40:39Z</time></trkpt>
<trkpt lat="55.429674000" lon="-3.305975000"><ele>509.2</ele><time>2010-08-29T10:40:43Z</time></trkpt>
<trkpt lat="55.429696000" lon="-3.305974000"><ele>509.5</ele><time>2010-08-29T10:40:45Z</time></trkpt>
<trkpt lat="55.429742000" lon="-3.306007000"><ele>509.9</ele><time>2010-08-29T10:40:49Z</time></trkpt>
<trkpt lat="55.429795000" lon="-3.306025000"><ele>510.3</ele><time>2010-08-29T10:40:54Z</time></trkpt>
<trkpt lat="55.429888000" lon="-3.306023000"><ele>510.6</ele><time>2010-08-29T10:41:04Z</time></trkpt>
<trkpt lat="55.429978000" lon="-3.306017000"><ele>511.0</ele><time>2010-08-29T10:41:14Z</time></trkpt>
<trkpt lat="55.430071000" lon="-3.306071000"><ele>511.0</ele><time>2010-08-29T10:41:25Z</time></trkpt>
<trkpt lat="55.430158000" lon="-3.306159000"><ele>511.4</ele><time>2010-08-29T10:41:35Z</time></trkpt>
<trkpt lat="55.430246000" lon="-3.306242000"><ele>511.5</ele><time>2010-08-29T10:41:42Z</time></trkpt>
<trkpt lat="55.430343000" lon="-3.306277000"><ele>511.7</ele><time>2010-08-29T10:41:49Z</time></trkpt>
<trkpt lat="55.430376000" lon="-3.306249000"><ele>511.9</ele><time>2010-08-29T10:41:52Z</time></trkpt>
<trkpt lat="55.430424000" lon="-3.306217000"><ele>512.1</ele><time>2010-08-29T10:41:56Z</time></trkpt>
<trkpt lat="55.430470000" lon="-3.306194000"><ele>512.3</ele><time>2010-08-29T10:42:00Z</time></trkpt>
<trkpt lat="55.430521000" lon="-3.306229000"><ele>512.5</ele><time>2010-08-29T10:42:05Z</time></trkpt>
<trkpt lat="55.430557000" lon="-3.306299000"><ele>512.6</ele><time>2010-08-29T10:42:10Z</time></trkpt>
<trkpt lat="55.430587000" lon="-3.306378000"><ele>512.8</ele><time>2010-08-29T10:42:16Z</time></trkpt>
<trkpt lat="55.430621000" lon="-3.306444000"><ele>513.0</ele><time>2010-08-29T10:42:21Z</time></trkpt>
<trkpt lat="55.430647000" lon="-3.306515000"><ele>513.2</ele><time>2010-08-29T10:42:26Z</time></trkpt>
<trkpt lat="55.430661000" lon="-3.306598000"><ele>513.0</ele><time>2010-08-29T10:42:32Z</time></trkpt>
<trkpt lat="55.430662000" lon="-3.306685000"><ele>513.0</ele><time>2010-08-29T10:42:38Z</time></trkpt>
<trkpt lat="55.430696000" lon="-3.306741000"><ele>513.0</ele><time>2010-08-29T10:42:50Z</time></trkpt>
<trkpt lat="55.430740000" lon="-3.306775000"><ele>513.1</ele><time>2010-08-29T10:43:16Z</time></trkpt>
<trkpt lat="55.430694000" lon="-3.306763000"><ele>513.2</ele><time>2010-08-29T10:43:36Z</time></trkpt>
<trkpt lat="55.430659000" lon="-3.306856000"><ele>513.3</ele><time>2010-08-29T10:46:51Z</time></trkpt>
<trkpt lat="55.430657000" lon="-3.306916000"><ele>513.4</ele><time>2010-08-29T10:46:56Z</time></trkpt>
<trkpt lat="55.430652000" lon="-3.307001000"><ele>513.5</ele><time>2010-08-29T10:47:00Z</time></trkpt>
<trkpt lat="55.430677000" lon="-3.307107000"><ele>513.5</ele><time>2010-08-29T10:47:42Z</time></trkpt>
<trkpt lat="55.430677000" lon="-3.307107000"><ele>513.6</ele><time>2010-08-29T10:47:45Z</time></trkpt>
<trkpt lat="55.430634000" lon="-3.307065000"><ele>513.7</ele><time>2010-08-29T10:48:03Z</time></trkpt>
<trkpt lat="55.430579000" lon="-3.307065000"><ele>513.8</ele><time>2010-08-29T10:48:16Z</time></trkpt>
<trkpt lat="55.430526000" lon="-3.307078000"><ele>513.9</ele><time>2010-08-29T10:48:21Z</time></trkpt>
<trkpt lat="55.430498000" lon="-3.307104000"><ele>514.0</ele><time>2010-08-29T10:48:25Z</time></trkpt>
<trkpt lat="55.430445000" lon="-3.307121000"><ele>514.0</ele><time>2010-08-29T10:48:31Z</time></trkpt>
<trkpt lat="55.430399000" lon="-3.307149000"><ele>514.0</ele><time>2010-08-29T10:48:36Z</time></trkpt>
<trkpt lat="55.430390000" lon="-3.307156000"><ele>514.0</ele><time>2010-08-29T10:48:37Z</time></trkpt>
<trkpt lat="55.430345000" lon="-3.307205000"><ele>514.0</ele><time>2010-08-29T10:48:43Z</time></trkpt>
<trkpt lat="55.430339000" lon="-3.307218000"><ele>514.0</ele><time>2010-08-29T10:48:44Z</time></trkpt>
<trkpt lat="55.430308000" lon="-3.307285000"><ele>514.0</ele><time>2010-08-29T10:48:48Z</time></trkpt>
<trkpt lat="55.430297000" lon="-3.307303000"><ele>514.0</ele><time>2010-08-29T10:48:49Z</time></trkpt>
<trkpt lat="55.430267000" lon="-3.307372000"><ele>514.0</ele><time>2010-08-29T10:48:53Z</time></trkpt>
<trkpt lat="55.430253000" lon="-3.307401000"><ele>514.0</ele><time>2010-08-29T10:48:55Z</time></trkpt>
<trkpt lat="55.430224000" lon="-3.307484000"><ele>514.0</ele><time>2010-08-29T10:49:00Z</time></trkpt>
<trkpt lat="55.430219000" lon="-3.307503000"><ele>514.0</ele><time>2010-08-29T10:49:01Z</time></trkpt>
<trkpt lat="55.430206000" lon="-3.307586000"><ele>514.2</ele><time>2010-08-29T10:49:06Z</time></trkpt>
<trkpt lat="55.430208000" lon="-3.307681000"><ele>514.4</ele><time>2010-08-29T10:49:11Z</time></trkpt>
<trkpt lat="55.430220000" lon="-3.307735000"><ele>514.5</ele><time>2010-08-29T10:49:14Z</time></trkpt>
<trkpt lat="55.430248000" lon="-3.307811000"><ele>514.7</ele><time>2010-08-29T10:49:20Z</time></trkpt>
<trkpt lat="55.430250000" lon="-3.307851000"><ele>514.9</ele><time>2010-08-29T10:49:23Z</time></trkpt>
<trkpt lat="55.430243000" lon="-3.307931000"><ele>515.1</ele><time>2010-08-29T10:49:28Z</time></trkpt>
<trkpt lat="55.430246000" lon="-3.307961000"><ele>515.3</ele><time>2010-08-29T10:49:30Z</time></trkpt>
<trkpt lat="55.430239000" lon="-3.308040000"><ele>515.5</ele><time>2010-08-29T10:49:35Z</time></trkpt>
<trkpt lat="55.430234000" lon="-3.308123000"><ele>515.6</ele><time>2010-08-29T10:49:40Z</time></trkpt>
<trkpt lat="55.430235000" lon="-3.308168000"><ele>515.8</ele><time>2010-08-29T10:49:43Z</time></trkpt>
<trkpt lat="55.430260000" lon="-3.308245000"><ele>516.0</ele><time>2010-08-29T10:49:48Z</time></trkpt>
<trkpt lat="55.430265000" lon="-3.308333000"><ele>516.5</ele><time>2010-08-29T10:49:53Z</time></trkpt>
<trkpt lat="55.430279000" lon="-3.308418000"><ele>517.1</ele><time>2010-08-29T10:49:58Z</time></trkpt>
<trkpt lat="55.430290000" lon="-3.308501000"><ele>517.6</ele><time>2010-08-29T10:50:03Z</time></trkpt>
<trkpt lat="55.430286000" lon="-3.308585000"><ele>518.2</ele><time>2010-08-29T10:50:08Z</time></trkpt>
<trkpt lat="55.430286000" lon="-3.308585000"><ele>518.7</ele><time>2010-08-29T10:50:09Z</time></trkpt>
<trkpt lat="55.430305000" lon="-3.308680000"><ele>519.3</ele><time>2010-08-29T10:50:28Z</time></trkpt>
<trkpt lat="55.430303000" lon="-3.308687000"><ele>519.8</ele><time>2010-08-29T10:50:29Z</time></trkpt>
<trkpt lat="55.430277000" lon="-3.308754000"><ele>520.4</ele><time>2010-08-29T10:50:38Z</time></trkpt>
<trkpt lat="55.430241000" lon="-3.308873000"><ele>520.9</ele><time>2010-08-29T10:50:48Z</time></trkpt>
<trkpt lat="55.430225000" lon="-3.308950000"><ele>521.5</ele><time>2010-08-29T10:50:53Z</time></trkpt>
<trkpt lat="55.430223000" lon="-3.308961000"><ele>522.0</ele><time>2010-08-29T10:50:54Z</time></trkpt>
<trkpt lat="55.430214000" lon="-3.309045000"><ele>522.0</ele><time>2010-08-29T10:51:01Z</time></trkpt>
<trkpt lat="55.430216000" lon="-3.309053000"><ele>522.0</ele><time>2010-08-29T10:51:02Z</time></trkpt>
<trkpt lat="55.430251000" lon="-3.309117000"><ele>522.5</ele><time>2010-08-29T10:51:12Z</time></trkpt>
<trkpt lat="55.430321000" lon="-3.309199000"><ele>522.9</ele><time>2010-08-29T10:51:21Z</time></trkpt>
<trkpt lat="55.430332000" lon="-3.309313000"><ele>523.4</ele><time>2010-08-29T10:51:37Z</time></trkpt>
<trkpt lat="55.430342000" lon="-3.309390000"><ele>523.8</ele><time>2010-08-29T10:51:45Z</time></trkpt>
<trkpt lat="55.430344000" lon="-3.309475000"><ele>524.3</ele><time>2010-08-29T10:51:53Z</time></trkpt>
<trkpt lat="55.430322000" lon="-3.309521000"><ele>524.7</ele><time>2010-08-29T10:51:57Z</time></trkpt>
<trkpt lat="55.430295000" lon="-3.309588000"><ele>525.2</ele><time>2010-08-29T10:52:03Z</time></trkpt>
<trkpt lat="55.430267000" lon="-3.309658000"><ele>525.6</ele><time>2010-08-29T10:52:09Z</time></trkpt>
<trkpt lat="55.430266000" lon="-3.309673000"><ele>526.1</ele><time>2010-08-29T10:52:10Z</time></trkpt>
<trkpt lat="55.430266000" lon="-3.309756000"><ele>526.5</ele><time>2010-08-29T10:52:16Z</time></trkpt>
<trkpt lat="55.430280000" lon="-3.309846000"><ele>527.0</ele><time>2010-08-29T10:52:22Z</time></trkpt>
<trkpt lat="55.430269000" lon="-3.309934000"><ele>527.0</ele><time>2010-08-29T10:52:27Z</time></trkpt>
<trkpt lat="55.430267000" lon="-3.310024000"><ele>527.0</ele><time>2010-08-29T10:52:33Z</time></trkpt>
<trkpt lat="55.430267000" lon="-3.310024000"><ele>527.9</ele><time>2010-08-29T10:52:37Z</time></trkpt>
<trkpt lat="55.430260000" lon="-3.310105000"><ele>528.8</ele><time>2010-08-29T10:52:44Z</time></trkpt>
<trkpt lat="55.430277000" lon="-3.310180000"><ele>529.7</ele><time>2010-08-29T10:52:50Z</time></trkpt>
<trkpt lat="55.430299000" lon="-3.310217000"><ele>530.6</ele><time>2010-08-29T10:52:54Z</time></trkpt>
<trkpt lat="55.430339000" lon="-3.310264000"><ele>531.5</ele><time>2010-08-29T10:53:01Z</time></trkpt>
<trkpt lat="55.430369000" lon="-3.310327000"><ele>532.5</ele><time>2010-08-29T10:53:08Z</time></trkpt>
<trkpt lat="55.430387000" lon="-3.310383000"><ele>533.4</ele><time>2010-08-29T10:53:15Z</time></trkpt>
<trkpt lat="55.430413000" lon="-3.310455000"><ele>534.0</ele><time>2010-08-29T10:53:21Z</time></trkpt>
<trkpt lat="55.430416000" lon="-3.310482000"><ele>534.6</ele><time>2010-08-29T10:53:23Z</time></trkpt>
<trkpt lat="55.430417000" lon="-3.310567000"><ele>535.3</ele><time>2010-08-29T10:53:29Z</time></trkpt>
<trkpt lat="55.430420000" lon="-3.310620000"><ele>535.9</ele><time>2010-08-29T10:53:33Z</time></trkpt>
<trkpt lat="55.430434000" lon="-3.310703000"><ele>535.6</ele><time>2010-08-29T10:53:39Z</time></trkpt>
<trkpt lat="55.430473000" lon="-3.310789000"><ele>536.5</ele><time>2010-08-29T10:53:46Z</time></trkpt>
<trkpt lat="55.430505000" lon="-3.310852000"><ele>537.3</ele><time>2010-08-29T10:53:51Z</time></trkpt>
<trkpt lat="55.430539000" lon="-3.310906000"><ele>538.1</ele><time>2010-08-29T10:54:03Z</time></trkpt>
<trkpt lat="55.430550000" lon="-3.310957000"><ele>538.9</ele><time>2010-08-29T10:54:07Z</time></trkpt>
<trkpt lat="55.430552000" lon="-3.311045000"><ele>539.7</ele><time>2010-08-29T10:54:13Z</time></trkpt>
<trkpt lat="55.430561000" lon="-3.311170000"><ele>540.5</ele><time>2010-08-29T10:54:27Z</time></trkpt>
<trkpt lat="55.430586000" lon="-3.311238000"><ele>541.6</ele><time>2010-08-29T10:54:38Z</time></trkpt>
<trkpt lat="55.430565000" lon="-3.311363000"><ele>542.7</ele><time>2010-08-29T10:54:53Z</time></trkpt>
<trkpt lat="55.430575000" lon="-3.311443000"><ele>543.8</ele><time>2010-08-29T10:54:58Z</time></trkpt>
<trkpt lat="55.430593000" lon="-3.311522000"><ele>544.9</ele><time>2010-08-29T10:55:06Z</time></trkpt>
<trkpt lat="55.430600000" lon="-3.311537000"><ele>546.0</ele><time>2010-08-29T10:55:08Z</time></trkpt>
<trkpt lat="55.430627000" lon="-3.311610000"><ele>546.0</ele><time>2010-08-29T10:55:16Z</time></trkpt>
<trkpt lat="55.430670000" lon="-3.311654000"><ele>546.0</ele><time>2010-08-29T10:55:48Z</time></trkpt>
<trkpt lat="55.430709000" lon="-3.311728000"><ele>547.2</ele><time>2010-08-29T10:55:55Z</time></trkpt>
<trkpt lat="55.430730000" lon="-3.311804000"><ele>548.4</ele><time>2010-08-29T10:56:00Z</time></trkpt>
<trkpt lat="55.430731000" lon="-3.311822000"><ele>549.5</ele><time>2010-08-29T10:56:01Z</time></trkpt>
<trkpt lat="55.430734000" lon="-3.311865000"><ele>550.7</ele><time>2010-08-29T10:56:03Z</time></trkpt>
<trkpt lat="55.430745000" lon="-3.311955000"><ele>551.9</ele><time>2010-08-29T10:56:08Z</time></trkpt>
<trkpt lat="55.430780000" lon="-3.312004000"><ele>553.1</ele><time>2010-08-29T10:56:19Z</time></trkpt>
<trkpt lat="55.430808000" lon="-3.312096000"><ele>554.3</ele><time>2010-08-29T10:56:25Z</time></trkpt>
<trkpt lat="55.430829000" lon="-3.312173000"><ele>555.5</ele><time>2010-08-29T10:56:32Z</time></trkpt>
<trkpt lat="55.430876000" lon="-3.312203000"><ele>556.6</ele><time>2010-08-29T10:56:35Z</time></trkpt>
<trkpt lat="55.430923000" lon="-3.312222000"><ele>557.8</ele><time>2010-08-29T10:56:43Z</time></trkpt>
<trkpt lat="55.430952000" lon="-3.312291000"><ele>559.0</ele><time>2010-08-29T10:56:51Z</time></trkpt>
<trkpt lat="55.430978000" lon="-3.312359000"><ele>559.0</ele><time>2010-08-29T10:57:01Z</time></trkpt>
<trkpt lat="55.430983000" lon="-3.312386000"><ele>559.0</ele><time>2010-08-29T10:57:05Z</time></trkpt>
<trkpt lat="55.431000000" lon="-3.312460000"><ele>560.1</ele><time>2010-08-29T10:57:12Z</time></trkpt>
<trkpt lat="55.431031000" lon="-3.312592000"><ele>561.2</ele><time>2010-08-29T10:57:23Z</time></trkpt>
<trkpt lat="55.431076000" lon="-3.312626000"><ele>562.3</ele><time>2010-08-29T10:57:30Z</time></trkpt>
<trkpt lat="55.431113000" lon="-3.312690000"><ele>563.4</ele><time>2010-08-29T10:57:38Z</time></trkpt>
<trkpt lat="55.431127000" lon="-3.312747000"><ele>564.5</ele><time>2010-08-29T10:57:43Z</time></trkpt>
<trkpt lat="55.431135000" lon="-3.312838000"><ele>565.5</ele><time>2010-08-29T10:57:58Z</time></trkpt>
<trkpt lat="55.431139000" lon="-3.312869000"><ele>566.6</ele><time>2010-08-29T10:58:00Z</time></trkpt>
<trkpt lat="55.431156000" lon="-3.312957000"><ele>567.7</ele><time>2010-08-29T10:59:18Z</time></trkpt>
<trkpt lat="55.431157000" lon="-3.312965000"><ele>570.5</ele><time>2010-08-29T10:59:19Z</time></trkpt>
<trkpt lat="55.431190000" lon="-3.313062000"><ele>573.2</ele><time>2010-08-29T10:59:34Z</time></trkpt>
<trkpt lat="55.431197000" lon="-3.313065000"><ele>575.9</ele><time>2010-08-29T10:59:39Z</time></trkpt>
<trkpt lat="55.431237000" lon="-3.313106000"><ele>577.5</ele><time>2010-08-29T10:59:50Z</time></trkpt>
<trkpt lat="55.431255000" lon="-3.313127000"><ele>579.2</ele><time>2010-08-29T10:59:54Z</time></trkpt>
<trkpt lat="55.431305000" lon="-3.313184000"><ele>580.8</ele><time>2010-08-29T11:00:11Z</time></trkpt>
<trkpt lat="55.431305000" lon="-3.313184000"><ele>582.5</ele><time>2010-08-29T11:00:17Z</time></trkpt>
<trkpt lat="55.431347000" lon="-3.313231000"><ele>584.1</ele><time>2010-08-29T11:00:19Z</time></trkpt>
<trkpt lat="55.431401000" lon="-3.313261000"><ele>585.7</ele><time>2010-08-29T11:00:33Z</time></trkpt>
<trkpt lat="55.431447000" lon="-3.313267000"><ele>587.4</ele><time>2010-08-29T11:00:40Z</time></trkpt>
<trkpt lat="55.431496000" lon="-3.313248000"><ele>589.0</ele><time>2010-08-29T11:00:47Z</time></trkpt>
<trkpt lat="55.431504000" lon="-3.313248000"><ele>589.0</ele><time>2010-08-29T11:00:48Z</time></trkpt>
<trkpt lat="55.431552000" lon="-3.313248000"><ele>589.0</ele><time>2010-08-29T11:00:54Z</time></trkpt>
<trkpt lat="55.431569000" lon="-3.313246000"><ele>589.0</ele><time>2010-08-29T11:00:56Z</time></trkpt>
<trkpt lat="55.431630000" lon="-3.313191000"><ele>589.0</ele><time>2010-08-29T11:01:13Z</time></trkpt>
<trkpt lat="55.431630000" lon="-3.313191000"><ele>589.0</ele><time>2010-08-29T11:01:15Z</time></trkpt>
<trkpt lat="55.431691000" lon="-3.313221000"><ele>589.0</ele><time>2010-08-29T11:01:33Z</time></trkpt>
<trkpt lat="55.431727000" lon="-3.313273000"><ele>589.0</ele><time>2010-08-29T11:01:53Z</time></trkpt>
<trkpt lat="55.431763000" lon="-3.313323000"><ele>589.0</ele><time>2010-08-29T11:02:27Z</time></trkpt>
<trkpt lat="55.431800000" lon="-3.313379000"><ele>590.3</ele><time>2010-08-29T11:02:38Z</time></trkpt>
<trkpt lat="55.431827000" lon="-3.313449000"><ele>591.5</ele><time>2010-08-29T11:02:48Z</time></trkpt>
<trkpt lat="55.431847000" lon="-3.313552000"><ele>592.8</ele><time>2010-08-29T11:03:08Z</time></trkpt>
<trkpt lat="55.431852000" lon="-3.313638000"><ele>594.1</ele><time>2010-08-29T11:03:17Z</time></trkpt>
<trkpt lat="55.431863000" lon="-3.313715000"><ele>595.4</ele><time>2010-08-29T11:03:24Z</time></trkpt>
<trkpt lat="55.431875000" lon="-3.313794000"><ele>596.6</ele><time>2010-08-29T11:03:34Z</time></trkpt>
<trkpt lat="55.431865000" lon="-3.313885000"><ele>597.9</ele><time>2010-08-29T11:03:41Z</time></trkpt>
<trkpt lat="55.431834000" lon="-3.313982000"><ele>599.2</ele><time>2010-08-29T11:03:58Z</time></trkpt>
<trkpt lat="55.431833000" lon="-3.314009000"><ele>600.5</ele><time>2010-08-29T11:04:01Z</time></trkpt>
<trkpt lat="55.431835000" lon="-3.314100000"><ele>601.7</ele><time>2010-08-29T11:04:17Z</time></trkpt>
<trkpt lat="55.431846000" lon="-3.314110000"><ele>603.0</ele><time>2010-08-29T11:04:22Z</time></trkpt>
<trkpt lat="55.431874000" lon="-3.314223000"><ele>603.0</ele><time>2010-08-29T11:04:47Z</time></trkpt>
<trkpt lat="55.431895000" lon="-3.314296000"><ele>603.0</ele><time>2010-08-29T11:04:59Z</time></trkpt>
<trkpt lat="55.431937000" lon="-3.314263000"><ele>603.0</ele><time>2010-08-29T11:05:05Z</time></trkpt>
<trkpt lat="55.431989000" lon="-3.314333000"><ele>603.7</ele><time>2010-08-29T11:05:33Z</time></trkpt>
<trkpt lat="55.431989000" lon="-3.314333000"><ele>604.5</ele><time>2010-08-29T11:05:35Z</time></trkpt>
<trkpt lat="55.432039000" lon="-3.314414000"><ele>605.2</ele><time>2010-08-29T11:07:42Z</time></trkpt>
<trkpt lat="55.432049000" lon="-3.314415000"><ele>608.5</ele><time>2010-08-29T11:07:44Z</time></trkpt>
<trkpt lat="55.432098000" lon="-3.314394000"><ele>611.9</ele><time>2010-08-29T11:07:56Z</time></trkpt>
<trkpt lat="55.432132000" lon="-3.314390000"><ele>615.3</ele><time>2010-08-29T11:08:03Z</time></trkpt>
<trkpt lat="55.432175000" lon="-3.314468000"><ele>618.6</ele><time>2010-08-29T11:08:10Z</time></trkpt>
<trkpt lat="55.432192000" lon="-3.314550000"><ele>622.0</ele><time>2010-08-29T11:08:13Z</time></trkpt>
<trkpt lat="55.432210000" lon="-3.314632000"><ele>625.4</ele><time>2010-08-29T11:08:19Z</time></trkpt>
<trkpt lat="55.432212000" lon="-3.314644000"><ele>628.7</ele><time>2010-08-29T11:08:20Z</time></trkpt>
<trkpt lat="55.432221000" lon="-3.314722000"><ele>632.1</ele><time>2010-08-29T11:08:29Z</time></trkpt>
<trkpt lat="55.432238000" lon="-3.314806000"><ele>634.7</ele><time>2010-08-29T11:08:35Z</time></trkpt>
<trkpt lat="55.432249000" lon="-3.314890000"><ele>637.4</ele><time>2010-08-29T11:08:41Z</time></trkpt>
<trkpt lat="55.432249000" lon="-3.314897000"><ele>640.0</ele><time>2010-08-29T11:08:42Z</time></trkpt>
<trkpt lat="55.432298000" lon="-3.314900000"><ele>640.0</ele><time>2010-08-29T11:08:55Z</time></trkpt>
<trkpt lat="55.432304000" lon="-3.314903000"><ele>640.0</ele><time>2010-08-29T11:08:56Z</time></trkpt>
<trkpt lat="55.432334000" lon="-3.314968000"><ele>640.0</ele><time>2010-08-29T11:09:04Z</time></trkpt>
<trkpt lat="55.432358000" lon="-3.315005000"><ele>640.0</ele><time>2010-08-29T11:09:08Z</time></trkpt>
<trkpt lat="55.432378000" lon="-3.315079000"><ele>640.0</ele><time>2010-08-29T11:09:15Z</time></trkpt>
<trkpt lat="55.432405000" lon="-3.315144000"><ele>640.0</ele><time>2010-08-29T11:09:22Z</time></trkpt>
<trkpt lat="55.432410000" lon="-3.315151000"><ele>640.0</ele><time>2010-08-29T11:09:26Z</time></trkpt>
<trkpt lat="55.432435000" lon="-3.315219000"><ele>640.5</ele><time>2010-08-29T11:09:35Z</time></trkpt>
<trkpt lat="55.432437000" lon="-3.315230000"><ele>641.1</ele><time>2010-08-29T11:09:36Z</time></trkpt>
<trkpt lat="55.432473000" lon="-3.315278000"><ele>641.6</ele><time>2010-08-29T11:09:44Z</time></trkpt>
<trkpt lat="55.432479000" lon="-3.315284000"><ele>642.2</ele><time>2010-08-29T11:09:45Z</time></trkpt>
<trkpt lat="55.432513000" lon="-3.315348000"><ele>642.7</ele><time>2010-08-29T11:09:51Z</time></trkpt>
<trkpt lat="55.432544000" lon="-3.315415000"><ele>643.3</ele><time>2010-08-29T11:09:57Z</time></trkpt>
<trkpt lat="55.432562000" lon="-3.315498000"><ele>643.8</ele><time>2010-08-29T11:10:10Z</time></trkpt>
<trkpt lat="55.432577000" lon="-3.315558000"><ele>644.4</ele><time>2010-08-29T11:10:14Z</time></trkpt>
<trkpt lat="55.432602000" lon="-3.315635000"><ele>644.9</ele><time>2010-08-29T11:10:20Z</time></trkpt>
<trkpt lat="55.432607000" lon="-3.315653000"><ele>645.5</ele><time>2010-08-29T11:10:22Z</time></trkpt>
<trkpt lat="55.432638000" lon="-3.315721000"><ele>646.0</ele><time>2010-08-29T11:10:35Z</time></trkpt>
<trkpt lat="55.432667000" lon="-3.315792000"><ele>646.0</ele><time>2010-08-29T11:10:42Z</time></trkpt>
<trkpt lat="55.432674000" lon="-3.315825000"><ele>646.5</ele><time>2010-08-29T11:10:44Z</time></trkpt>
<trkpt lat="55.432694000" lon="-3.315897000"><ele>647.1</ele><time>2010-08-29T11:10:52Z</time></trkpt>
<trkpt lat="55.432740000" lon="-3.315991000"><ele>647.6</ele><time>2010-08-29T11:11:01Z</time></trkpt>
<trkpt lat="55.432766000" lon="-3.316064000"><ele>648.2</ele><time>2010-08-29T11:11:06Z</time></trkpt>
<trkpt lat="55.432794000" lon="-3.316140000"><ele>648.7</ele><time>2010-08-29T11:11:12Z</time></trkpt>
<trkpt lat="55.432808000" lon="-3.316222000"><ele>649.3</ele><time>2010-08-29T11:11:19Z</time></trkpt>
<trkpt lat="55.432827000" lon="-3.316305000"><ele>649.8</ele><time>2010-08-29T11:11:26Z</time></trkpt>
<trkpt lat="55.432848000" lon="-3.316396000"><ele>650.4</ele><time>2010-08-29T11:11:36Z</time></trkpt>
<trkpt lat="55.432848000" lon="-3.316396000"><ele>650.9</ele><time>2010-08-29T11:11:40Z</time></trkpt>
<trkpt lat="55.432872000" lon="-3.316465000"><ele>651.5</ele><time>2010-08-29T11:11:42Z</time></trkpt>
<trkpt lat="55.432872000" lon="-3.316465000"><ele>652.0</ele><time>2010-08-29T11:11:46Z</time></trkpt>
<trkpt lat="55.432884000" lon="-3.316549000"><ele>652.0</ele><time>2010-08-29T11:12:00Z</time></trkpt>
<trkpt lat="55.432885000" lon="-3.316578000"><ele>651.6</ele><time>2010-08-29T11:12:02Z</time></trkpt>
<trkpt lat="55.432872000" lon="-3.316656000"><ele>652.4</ele><time>2010-08-29T11:12:20Z</time></trkpt>
<trkpt lat="55.432882000" lon="-3.316786000"><ele>653.1</ele><time>2010-08-29T11:12:26Z</time></trkpt>
<trkpt lat="55.432911000" lon="-3.316873000"><ele>653.8</ele><time>2010-08-29T11:12:30Z</time></trkpt>
<trkpt lat="55.432923000" lon="-3.316910000"><ele>654.5</ele><time>2010-08-29T11:12:32Z</time></trkpt>
<trkpt lat="55.432952000" lon="-3.316991000"><ele>655.3</ele><time>2010-08-29T11:12:37Z</time></trkpt>
<trkpt lat="55.432987000" lon="-3.317065000"><ele>656.0</ele><time>2010-08-29T11:12:42Z</time></trkpt>
<trkpt lat="55.433025000" lon="-3.317130000"><ele>656.7</ele><time>2010-08-29T11:12:48Z</time></trkpt>
<trkpt lat="55.433050000" lon="-3.317196000"><ele>657.5</ele><time>2010-08-29T11:12:54Z</time></trkpt>
<trkpt lat="55.433054000" lon="-3.317208000"><ele>658.2</ele><time>2010-08-29T11:12:55Z</time></trkpt>
<trkpt lat="55.433071000" lon="-3.317285000"><ele>658.9</ele><time>2010-08-29T11:13:03Z</time></trkpt>
<trkpt lat="55.433068000" lon="-3.317313000"><ele>660.0</ele><time>2010-08-29T11:13:05Z</time></trkpt>
<trkpt lat="55.433085000" lon="-3.317389000"><ele>660.0</ele><time>2010-08-29T11:13:14Z</time></trkpt>
<trkpt lat="55.433088000" lon="-3.317400000"><ele>660.0</ele><time>2010-08-29T11:13:15Z</time></trkpt>
<trkpt lat="55.433104000" lon="-3.317476000"><ele>661.1</ele><time>2010-08-29T11:13:20Z</time></trkpt>
<trkpt lat="55.433114000" lon="-3.317564000"><ele>662.2</ele><time>2010-08-29T11:13:27Z</time></trkpt>
<trkpt lat="55.433138000" lon="-3.317636000"><ele>663.3</ele><time>2010-08-29T11:13:33Z</time></trkpt>
<trkpt lat="55.433162000" lon="-3.317712000"><ele>664.4</ele><time>2010-08-29T11:13:40Z</time></trkpt>
<trkpt lat="55.433176000" lon="-3.317792000"><ele>665.5</ele><time>2010-08-29T11:13:46Z</time></trkpt>
<trkpt lat="55.433200000" lon="-3.317866000"><ele>666.5</ele><time>2010-08-29T11:13:52Z</time></trkpt>
<trkpt lat="55.433219000" lon="-3.317938000"><ele>667.6</ele><time>2010-08-29T11:13:58Z</time></trkpt>
<trkpt lat="55.433243000" lon="-3.318006000"><ele>668.7</ele><time>2010-08-29T11:14:05Z</time></trkpt>
<trkpt lat="55.433259000" lon="-3.318090000"><ele>669.8</ele><time>2010-08-29T11:14:12Z</time></trkpt>
<trkpt lat="55.433273000" lon="-3.318169000"><ele>670.9</ele><time>2010-08-29T11:14:17Z</time></trkpt>
<trkpt lat="55.433295000" lon="-3.318245000"><ele>672.0</ele><time>2010-08-29T11:14:22Z</time></trkpt>
<trkpt lat="55.433316000" lon="-3.318324000"><ele>672.0</ele><time>2010-08-29T11:14:28Z</time></trkpt>
<trkpt lat="55.433337000" lon="-3.318409000"><ele>672.4</ele><time>2010-08-29T11:14:35Z</time></trkpt>
<trkpt lat="55.433356000" lon="-3.318485000"><ele>672.7</ele><time>2010-08-29T11:14:41Z</time></trkpt>
<trkpt lat="55.433372000" lon="-3.318567000"><ele>673.1</ele><time>2010-08-29T11:14:47Z</time></trkpt>
<trkpt lat="55.433375000" lon="-3.318580000"><ele>673.5</ele><time>2010-08-29T11:14:48Z</time></trkpt>
<trkpt lat="55.433392000" lon="-3.318654000"><ele>673.8</ele><time>2010-08-29T11:14:53Z</time></trkpt>
<trkpt lat="55.433403000" lon="-3.318745000"><ele>674.2</ele><time>2010-08-29T11:14:59Z</time></trkpt>
<trkpt lat="55.433415000" lon="-3.318817000"><ele>674.5</ele><time>2010-08-29T11:15:04Z</time></trkpt>
<trkpt lat="55.433432000" lon="-3.318894000"><ele>674.9</ele><time>2010-08-29T11:15:09Z</time></trkpt>
<trkpt lat="55.433463000" lon="-3.318968000"><ele>675.3</ele><time>2010-08-29T11:15:15Z</time></trkpt>
<trkpt lat="55.433489000" lon="-3.319046000"><ele>675.6</ele><time>2010-08-29T11:15:20Z</time></trkpt>
<trkpt lat="55.433518000" lon="-3.319119000"><ele>676.0</ele><time>2010-08-29T11:15:24Z</time></trkpt>
<trkpt lat="55.433542000" lon="-3.319170000"><ele>676.4</ele><time>2010-08-29T11:15:27Z</time></trkpt>
<trkpt lat="55.433573000" lon="-3.319242000"><ele>676.7</ele><time>2010-08-29T11:15:32Z</time></trkpt>
<trkpt lat="55.433590000" lon="-3.319316000"><ele>677.1</ele><time>2010-08-29T11:15:36Z</time></trkpt>
<trkpt lat="55.433621000" lon="-3.319412000"><ele>677.5</ele><time>2010-08-29T11:15:42Z</time></trkpt>
<trkpt lat="55.433653000" lon="-3.319470000"><ele>677.5</ele><time>2010-08-29T11:15:48Z</time></trkpt>
<trkpt lat="55.433676000" lon="-3.319552000"><ele>677.6</ele><time>2010-08-29T11:15:54Z</time></trkpt>
<trkpt lat="55.433702000" lon="-3.319619000"><ele>677.7</ele><time>2010-08-29T11:15:59Z</time></trkpt>
<trkpt lat="55.433730000" lon="-3.319692000"><ele>677.8</ele><time>2010-08-29T11:16:04Z</time></trkpt>
<trkpt lat="55.433740000" lon="-3.319722000"><ele>677.9</ele><time>2010-08-29T11:16:06Z</time></trkpt>
<trkpt lat="55.433763000" lon="-3.319795000"><ele>678.0</ele><time>2010-08-29T11:16:10Z</time></trkpt>
<trkpt lat="55.433771000" lon="-3.319835000"><ele>678.1</ele><time>2010-08-29T11:16:12Z</time></trkpt>
<trkpt lat="55.433786000" lon="-3.319910000"><ele>677.8</ele><time>2010-08-29T11:16:16Z</time></trkpt>
<trkpt lat="55.433803000" lon="-3.319991000"><ele>677.5</ele><time>2010-08-29T11:16:22Z</time></trkpt>
<trkpt lat="55.433806000" lon="-3.320004000"><ele>678.6</ele><time>2010-08-29T11:16:23Z</time></trkpt>
<trkpt lat="55.433828000" lon="-3.320084000"><ele>679.7</ele><time>2010-08-29T11:16:29Z</time></trkpt>
<trkpt lat="55.433852000" lon="-3.320156000"><ele>681.1</ele><time>2010-08-29T11:16:34Z</time></trkpt>
<trkpt lat="55.433854000" lon="-3.320173000"><ele>682.5</ele><time>2010-08-29T11:16:35Z</time></trkpt>
<trkpt lat="55.433875000" lon="-3.320251000"><ele>683.8</ele><time>2010-08-29T11:16:40Z</time></trkpt>
<trkpt lat="55.433905000" lon="-3.320322000"><ele>685.2</ele><time>2010-08-29T11:16:45Z</time></trkpt>
<trkpt lat="55.433911000" lon="-3.320334000"><ele>686.5</ele><time>2010-08-29T11:16:46Z</time></trkpt>
<trkpt lat="55.433932000" lon="-3.320409000"><ele>687.9</ele><time>2010-08-29T11:16:52Z</time></trkpt>
<trkpt lat="55.433956000" lon="-3.320485000"><ele>689.3</ele><time>2010-08-29T11:17:04Z</time></trkpt>
<trkpt lat="55.433976000" lon="-3.320570000"><ele>690.6</ele><time>2010-08-29T11:17:12Z</time></trkpt>
<trkpt lat="55.434007000" lon="-3.320642000"><ele>692.0</ele><time>2010-08-29T11:17:19Z</time></trkpt>
<trkpt lat="55.434034000" lon="-3.320710000"><ele>692.0</ele><time>2010-08-29T11:17:25Z</time></trkpt>
<trkpt lat="55.434048000" lon="-3.320731000"><ele>692.0</ele><time>2010-08-29T11:17:27Z</time></trkpt>
<trkpt lat="55.434083000" lon="-3.320792000"><ele>692.0</ele><time>2010-08-29T11:17:33Z</time></trkpt>
<trkpt lat="55.434123000" lon="-3.320850000"><ele>692.0</ele><time>2010-08-29T11:17:39Z</time></trkpt>
<trkpt lat="55.434157000" lon="-3.320902000"><ele>693.3</ele><time>2010-08-29T11:17:45Z</time></trkpt>
<trkpt lat="55.434165000" lon="-3.320912000"><ele>694.5</ele><time>2010-08-29T11:17:46Z</time></trkpt>
<trkpt lat="55.434197000" lon="-3.320984000"><ele>695.8</ele><time>2010-08-29T11:17:52Z</time></trkpt>
<trkpt lat="55.434224000" lon="-3.321065000"><ele>697.1</ele><time>2010-08-29T11:17:58Z</time></trkpt>
<trkpt lat="55.434228000" lon="-3.321078000"><ele>698.4</ele><time>2010-08-29T11:17:59Z</time></trkpt>
<trkpt lat="55.434252000" lon="-3.321158000"><ele>699.6</ele><time>2010-08-29T11:18:05Z</time></trkpt>
<trkpt lat="55.434291000" lon="-3.321273000"><ele>700.9</ele><time>2010-08-29T11:18:14Z</time></trkpt>
<trkpt lat="55.434300000" lon="-3.321352000"><ele>702.2</ele><time>2010-08-29T11:18:19Z</time></trkpt>
<trkpt lat="55.434304000" lon="-3.321380000"><ele>703.5</ele><time>2010-08-29T11:18:21Z</time></trkpt>
<trkpt lat="55.434321000" lon="-3.321460000"><ele>704.7</ele><time>2010-08-29T11:18:27Z</time></trkpt>
<trkpt lat="55.434327000" lon="-3.321466000"><ele>706.0</ele><time>2010-08-29T11:18:28Z</time></trkpt>
<trkpt lat="55.434365000" lon="-3.321521000"><ele>706.0</ele><time>2010-08-29T11:18:35Z</time></trkpt>
<trkpt lat="55.434370000" lon="-3.321530000"><ele>706.0</ele><time>2010-08-29T11:18:36Z</time></trkpt>
<trkpt lat="55.434398000" lon="-3.321600000"><ele>706.0</ele><time>2010-08-29T11:18:43Z</time></trkpt>
<trkpt lat="55.434418000" lon="-3.321679000"><ele>706.5</ele><time>2010-08-29T11:18:51Z</time></trkpt>
<trkpt lat="55.434436000" lon="-3.321763000"><ele>706.9</ele><time>2010-08-29T11:18:57Z</time></trkpt>
<trkpt lat="55.434454000" lon="-3.321832000"><ele>707.4</ele><time>2010-08-29T11:19:02Z</time></trkpt>
<trkpt lat="55.434481000" lon="-3.321910000"><ele>707.8</ele><time>2010-08-29T11:19:09Z</time></trkpt>
<trkpt lat="55.434490000" lon="-3.321933000"><ele>708.3</ele><time>2010-08-29T11:19:11Z</time></trkpt>
<trkpt lat="55.434523000" lon="-3.321999000"><ele>708.7</ele><time>2010-08-29T11:19:18Z</time></trkpt>
<trkpt lat="55.434526000" lon="-3.322009000"><ele>709.2</ele><time>2010-08-29T11:19:19Z</time></trkpt>
<trkpt lat="55.434535000" lon="-3.322092000"><ele>709.6</ele><time>2010-08-29T11:19:26Z</time></trkpt>
<trkpt lat="55.434549000" lon="-3.322175000"><ele>710.1</ele><time>2010-08-29T11:19:30Z</time></trkpt>
<trkpt lat="55.434566000" lon="-3.322249000"><ele>708.7</ele><time>2010-08-29T11:19:34Z</time></trkpt>
<trkpt lat="55.434582000" lon="-3.322327000"><ele>707.4</ele><time>2010-08-29T11:19:39Z</time></trkpt>
<trkpt lat="55.434602000" lon="-3.322410000"><ele>707.7</ele><time>2010-08-29T11:19:45Z</time></trkpt>
<trkpt lat="55.434621000" lon="-3.322483000"><ele>708.1</ele><time>2010-08-29T11:19:55Z</time></trkpt>
<trkpt lat="55.434627000" lon="-3.322569000"><ele>708.5</ele><time>2010-08-29T11:20:02Z</time></trkpt>
<trkpt lat="55.434658000" lon="-3.322628000"><ele>708.8</ele><time>2010-08-29T11:20:09Z</time></trkpt>
<trkpt lat="55.434668000" lon="-3.322711000"><ele>709.2</ele><time>2010-08-29T11:20:15Z</time></trkpt>
<trkpt lat="55.434689000" lon="-3.322794000"><ele>709.5</ele><time>2010-08-29T11:20:21Z</time></trkpt>
<trkpt lat="55.434715000" lon="-3.322880000"><ele>709.9</ele><time>2010-08-29T11:20:26Z</time></trkpt>
<trkpt lat="55.434737000" lon="-3.322957000"><ele>710.3</ele><time>2010-08-29T11:20:30Z</time></trkpt>
<trkpt lat="55.434748000" lon="-3.323050000"><ele>710.6</ele><time>2010-08-29T11:20:35Z</time></trkpt>
<trkpt lat="55.434749000" lon="-3.323069000"><ele>712.8</ele><time>2010-08-29T11:20:36Z</time></trkpt>
<trkpt lat="55.434756000" lon="-3.323153000"><ele>715.0</ele><time>2010-08-29T11:20:41Z</time></trkpt>
<trkpt lat="55.434758000" lon="-3.323216000"><ele>715.0</ele><time>2010-08-29T11:20:44Z</time></trkpt>
<trkpt lat="55.434755000" lon="-3.323311000"><ele>715.0</ele><time>2010-08-29T11:20:49Z</time></trkpt>
<trkpt lat="55.434762000" lon="-3.323366000"><ele>715.3</ele><time>2010-08-29T11:20:52Z</time></trkpt>
<trkpt lat="55.434775000" lon="-3.323454000"><ele>715.5</ele><time>2010-08-29T11:20:56Z</time></trkpt>
<trkpt lat="55.434798000" lon="-3.323531000"><ele>715.8</ele><time>2010-08-29T11:21:00Z</time></trkpt>
<trkpt lat="55.434817000" lon="-3.323622000"><ele>716.1</ele><time>2010-08-29T11:21:04Z</time></trkpt>
<trkpt lat="55.434829000" lon="-3.323718000"><ele>716.4</ele><time>2010-08-29T11:21:08Z</time></trkpt>
<trkpt lat="55.434851000" lon="-3.323889000"><ele>716.6</ele><time>2010-08-29T11:21:17Z</time></trkpt>
<trkpt lat="55.434869000" lon="-3.323970000"><ele>716.9</ele><time>2010-08-29T11:21:21Z</time></trkpt>
<trkpt lat="55.434882000" lon="-3.324052000"><ele>717.2</ele><time>2010-08-29T11:21:25Z</time></trkpt>
<trkpt lat="55.434892000" lon="-3.324141000"><ele>717.5</ele><time>2010-08-29T11:21:29Z</time></trkpt>
<trkpt lat="55.434913000" lon="-3.324219000"><ele>718.0</ele><time>2010-08-29T11:21:33Z</time></trkpt>
<trkpt lat="55.434940000" lon="-3.324294000"><ele>718.5</ele><time>2010-08-29T11:21:37Z</time></trkpt>
<trkpt lat="55.434958000" lon="-3.324357000"><ele>718.8</ele><time>2010-08-29T11:21:40Z</time></trkpt>
<trkpt lat="55.434989000" lon="-3.324420000"><ele>719.1</ele><time>2010-08-29T11:21:44Z</time></trkpt>
<trkpt lat="55.435032000" lon="-3.324501000"><ele>719.4</ele><time>2010-08-29T11:21:49Z</time></trkpt>
<trkpt lat="55.435050000" lon="-3.324576000"><ele>719.6</ele><time>2010-08-29T11:21:52Z</time></trkpt>
<trkpt lat="55.435089000" lon="-3.324640000"><ele>719.9</ele><time>2010-08-29T11:21:56Z</time></trkpt>
<trkpt lat="55.435125000" lon="-3.324695000"><ele>720.2</ele><time>2010-08-29T11:22:00Z</time></trkpt>
<trkpt lat="55.435162000" lon="-3.324757000"><ele>720.5</ele><time>2010-08-29T11:22:04Z</time></trkpt>
<trkpt lat="55.435204000" lon="-3.324815000"><ele>720.7</ele><time>2010-08-29T11:22:08Z</time></trkpt>
<trkpt lat="55.435214000" lon="-3.324830000"><ele>721.0</ele><time>2010-08-29T11:22:09Z</time></trkpt>
<trkpt lat="55.435252000" lon="-3.324891000"><ele>721.0</ele><time>2010-08-29T11:22:13Z</time></trkpt>
<trkpt lat="55.435296000" lon="-3.324938000"><ele>721.0</ele><time>2010-08-29T11:22:17Z</time></trkpt>
<trkpt lat="55.435308000" lon="-3.324946000"><ele>721.0</ele><time>2010-08-29T11:22:18Z</time></trkpt>
<trkpt lat="55.435352000" lon="-3.325005000"><ele>719.3</ele><time>2010-08-29T11:22:22Z</time></trkpt>
<trkpt lat="55.435399000" lon="-3.325112000"><ele>717.9</ele><time>2010-08-29T11:22:27Z</time></trkpt>
<trkpt lat="55.435428000" lon="-3.325176000"><ele>716.5</ele><time>2010-08-29T11:22:31Z</time></trkpt>
<trkpt lat="55.435440000" lon="-3.325271000"><ele>715.2</ele><time>2010-08-29T11:22:36Z</time></trkpt>
<trkpt lat="55.435445000" lon="-3.325312000"><ele>713.8</ele><time>2010-08-29T11:22:39Z</time></trkpt>
<trkpt lat="55.435472000" lon="-3.325379000"><ele>712.5</ele><time>2010-08-29T11:23:14Z</time></trkpt>
<trkpt lat="55.435471000" lon="-3.325459000"><ele>711.1</ele><time>2010-08-29T11:23:20Z</time></trkpt>
<trkpt lat="55.435490000" lon="-3.325554000"><ele>709.7</ele><time>2010-08-29T11:23:25Z</time></trkpt>
<trkpt lat="55.435512000" lon="-3.325652000"><ele>708.4</ele><time>2010-08-29T11:23:28Z</time></trkpt>
<trkpt lat="55.435538000" lon="-3.325723000"><ele>707.3</ele><time>2010-08-29T11:23:31Z</time></trkpt>
<trkpt lat="55.435591000" lon="-3.325809000"><ele>706.2</ele><time>2010-08-29T11:23:36Z</time></trkpt>
<trkpt lat="55.435607000" lon="-3.325887000"><ele>706.8</ele><time>2010-08-29T11:23:39Z</time></trkpt>
<trkpt lat="55.435636000" lon="-3.326003000"><ele>707.1</ele><time>2010-08-29T11:23:44Z</time></trkpt>
<trkpt lat="55.435664000" lon="-3.326084000"><ele>707.4</ele><time>2010-08-29T11:23:49Z</time></trkpt>
<trkpt lat="55.435704000" lon="-3.326235000"><ele>707.6</ele><time>2010-08-29T11:23:57Z</time></trkpt>
<trkpt lat="55.435720000" lon="-3.326263000"><ele>707.9</ele><time>2010-08-29T11:23:59Z</time></trkpt>
<trkpt lat="55.435764000" lon="-3.326322000"><ele>708.2</ele><time>2010-08-29T11:24:05Z</time></trkpt>
<trkpt lat="55.435767000" lon="-3.326412000"><ele>708.5</ele><time>2010-08-29T11:24:10Z</time></trkpt>
<trkpt lat="55.435756000" lon="-3.326453000"><ele>708.7</ele><time>2010-08-29T11:24:12Z</time></trkpt>
<trkpt lat="55.435724000" lon="-3.326511000"><ele>709.0</ele><time>2010-08-29T11:24:17Z</time></trkpt>
<trkpt lat="55.435737000" lon="-3.326593000"><ele>709.0</ele><time>2010-08-29T11:24:21Z</time></trkpt>
<trkpt lat="55.435766000" lon="-3.326675000"><ele>709.0</ele><time>2010-08-29T11:24:25Z</time></trkpt>
<trkpt lat="55.435778000" lon="-3.326760000"><ele>709.3</ele><time>2010-08-29T11:24:29Z</time></trkpt>
<trkpt lat="55.435787000" lon="-3.326848000"><ele>709.5</ele><time>2010-08-29T11:24:33Z</time></trkpt>
<trkpt lat="55.435795000" lon="-3.326930000"><ele>709.8</ele><time>2010-08-29T11:24:37Z</time></trkpt>
<trkpt lat="55.435800000" lon="-3.326949000"><ele>710.1</ele><time>2010-08-29T11:24:38Z</time></trkpt>
<trkpt lat="55.435818000" lon="-3.327030000"><ele>710.4</ele><time>2010-08-29T11:24:42Z</time></trkpt>
<trkpt lat="55.435829000" lon="-3.327113000"><ele>710.6</ele><time>2010-08-29T11:24:46Z</time></trkpt>
<trkpt lat="55.435843000" lon="-3.327193000"><ele>710.9</ele><time>2010-08-29T11:24:50Z</time></trkpt>
<trkpt lat="55.435849000" lon="-3.327252000"><ele>711.2</ele><time>2010-08-29T11:24:53Z</time></trkpt>
<trkpt lat="55.435859000" lon="-3.327345000"><ele>711.5</ele><time>2010-08-29T11:24:58Z</time></trkpt>
<trkpt lat="55.435867000" lon="-3.327440000"><ele>711.7</ele><time>2010-08-29T11:25:03Z</time></trkpt>
<trkpt lat="55.435870000" lon="-3.327519000"><ele>712.0</ele><time>2010-08-29T11:25:07Z</time></trkpt>
<trkpt lat="55.435874000" lon="-3.327599000"><ele>712.2</ele><time>2010-08-29T11:25:11Z</time></trkpt>
<trkpt lat="55.435873000" lon="-3.327621000"><ele>712.4</ele><time>2010-08-29T11:25:12Z</time></trkpt>
<trkpt lat="55.435861000" lon="-3.327709000"><ele>712.5</ele><time>2010-08-29T11:25:16Z</time></trkpt>
<trkpt lat="55.435856000" lon="-3.327732000"><ele>712.7</ele><time>2010-08-29T11:25:17Z</time></trkpt>
<trkpt lat="55.435835000" lon="-3.327814000"><ele>712.9</ele><time>2010-08-29T11:25:21Z</time></trkpt>
<trkpt lat="55.435829000" lon="-3.327902000"><ele>713.1</ele><time>2010-08-29T11:25:26Z</time></trkpt>
<trkpt lat="55.435817000" lon="-3.327990000"><ele>713.3</ele><time>2010-08-29T11:25:31Z</time></trkpt>
<trkpt lat="55.435811000" lon="-3.328012000"><ele>713.5</ele><time>2010-08-29T11:25:32Z</time></trkpt>
<trkpt lat="55.435790000" lon="-3.328094000"><ele>713.6</ele><time>2010-08-29T11:25:36Z</time></trkpt>
<trkpt lat="55.435776000" lon="-3.328178000"><ele>713.8</ele><time>2010-08-29T11:25:40Z</time></trkpt>
<trkpt lat="55.435772000" lon="-3.328198000"><ele>714.0</ele><time>2010-08-29T11:25:41Z</time></trkpt>
<trkpt lat="55.435755000" lon="-3.328282000"><ele>714.0</ele><time>2010-08-29T11:25:45Z</time></trkpt>
<trkpt lat="55.435749000" lon="-3.328305000"><ele>714.0</ele><time>2010-08-29T11:25:46Z</time></trkpt>
<trkpt lat="55.435716000" lon="-3.328364000"><ele>714.0</ele><time>2010-08-29T11:25:50Z</time></trkpt>
<trkpt lat="55.435692000" lon="-3.328389000"><ele>714.0</ele><time>2010-08-29T11:25:52Z</time></trkpt>
<trkpt lat="55.435645000" lon="-3.328432000"><ele>714.0</ele><time>2010-08-29T11:25:56Z</time></trkpt>
<trkpt lat="55.435635000" lon="-3.328444000"><ele>713.7</ele><time>2010-08-29T11:25:57Z</time></trkpt>
<trkpt lat="55.435596000" lon="-3.328492000"><ele>713.9</ele><time>2010-08-29T11:26:01Z</time></trkpt>
<trkpt lat="55.435577000" lon="-3.328514000"><ele>714.1</ele><time>2010-08-29T11:26:03Z</time></trkpt>
<trkpt lat="55.435544000" lon="-3.328590000"><ele>714.3</ele><time>2010-08-29T11:26:10Z</time></trkpt>
<trkpt lat="55.435508000" lon="-3.328645000"><ele>714.5</ele><time>2010-08-29T11:26:14Z</time></trkpt>
<trkpt lat="55.435455000" lon="-3.328670000"><ele>714.6</ele><time>2010-08-29T11:26:18Z</time></trkpt>
<trkpt lat="55.435422000" lon="-3.328686000"><ele>715.4</ele><time>2010-08-29T11:26:26Z</time></trkpt>
<trkpt lat="55.435375000" lon="-3.328717000"><ele>716.1</ele><time>2010-08-29T11:26:32Z</time></trkpt>
<trkpt lat="55.435373000" lon="-3.328803000"><ele>716.8</ele><time>2010-08-29T11:26:37Z</time></trkpt>
<trkpt lat="55.435408000" lon="-3.328878000"><ele>717.5</ele><time>2010-08-29T11:26:42Z</time></trkpt>
<trkpt lat="55.435451000" lon="-3.328922000"><ele>718.3</ele><time>2010-08-29T11:26:46Z</time></trkpt>
<trkpt lat="55.435477000" lon="-3.329002000"><ele>719.3</ele><time>2010-08-29T11:26:51Z</time></trkpt>
<trkpt lat="55.435490000" lon="-3.329083000"><ele>719.3</ele><time>2010-08-29T11:26:56Z</time></trkpt>
<trkpt lat="55.435491000" lon="-3.329101000"><ele>719.3</ele><time>2010-08-29T11:26:57Z</time></trkpt>
<trkpt lat="55.435488000" lon="-3.329187000"><ele>719.7</ele><time>2010-08-29T11:27:02Z</time></trkpt>
<trkpt lat="55.435483000" lon="-3.329243000"><ele>720.2</ele><time>2010-08-29T11:27:05Z</time></trkpt>
<trkpt lat="55.435474000" lon="-3.329329000"><ele>720.6</ele><time>2010-08-29T11:27:10Z</time></trkpt>
<trkpt lat="55.435465000" lon="-3.329359000"><ele>720.5</ele><time>2010-08-29T11:27:12Z</time></trkpt>
<trkpt lat="55.435448000" lon="-3.329448000"><ele>720.5</ele><time>2010-08-29T11:27:18Z</time></trkpt>
<trkpt lat="55.435451000" lon="-3.329528000"><ele>720.4</ele><time>2010-08-29T11:27:23Z</time></trkpt>
<trkpt lat="55.435465000" lon="-3.329608000"><ele>720.3</ele><time>2010-08-29T11:27:29Z</time></trkpt>
<trkpt lat="55.435458000" lon="-3.329693000"><ele>720.2</ele><time>2010-08-29T11:27:35Z</time></trkpt>
<trkpt lat="55.435455000" lon="-3.329712000"><ele>720.1</ele><time>2010-08-29T11:27:36Z</time></trkpt>
<trkpt lat="55.435439000" lon="-3.329796000"><ele>720.5</ele><time>2010-08-29T11:27:43Z</time></trkpt>
<trkpt lat="55.435423000" lon="-3.329877000"><ele>721.0</ele><time>2010-08-29T11:27:48Z</time></trkpt>
<trkpt lat="55.435421000" lon="-3.329913000"><ele>721.0</ele><time>2010-08-29T11:27:50Z</time></trkpt>
<trkpt lat="55.435416000" lon="-3.329999000"><ele>721.0</ele><time>2010-08-29T11:27:55Z</time></trkpt>
<trkpt lat="55.435419000" lon="-3.330031000"><ele>721.9</ele><time>2010-08-29T11:27:58Z</time></trkpt>
<trkpt lat="55.435398000" lon="-3.330121000"><ele>722.8</ele><time>2010-08-29T11:28:06Z</time></trkpt>
<trkpt lat="55.435379000" lon="-3.330195000"><ele>723.7</ele><time>2010-08-29T11:28:13Z</time></trkpt>
<trkpt lat="55.435377000" lon="-3.330223000"><ele>724.6</ele><time>2010-08-29T11:28:15Z</time></trkpt>
<trkpt lat="55.435376000" lon="-3.330314000"><ele>725.5</ele><time>2010-08-29T11:28:21Z</time></trkpt>
<trkpt lat="55.435374000" lon="-3.330331000"><ele>726.5</ele><time>2010-08-29T11:28:22Z</time></trkpt>
<trkpt lat="55.435349000" lon="-3.330411000"><ele>727.4</ele><time>2010-08-29T11:28:29Z</time></trkpt>
<trkpt lat="55.435339000" lon="-3.330443000"><ele>728.3</ele><time>2010-08-29T11:28:32Z</time></trkpt>
<trkpt lat="55.435335000" lon="-3.330527000"><ele>729.2</ele><time>2010-08-29T11:28:40Z</time></trkpt>
<trkpt lat="55.435335000" lon="-3.330542000"><ele>730.1</ele><time>2010-08-29T11:28:41Z</time></trkpt>
<trkpt lat="55.435353000" lon="-3.330627000"><ele>731.0</ele><time>2010-08-29T11:28:47Z</time></trkpt>
<trkpt lat="55.435357000" lon="-3.330643000"><ele>731.0</ele><time>2010-08-29T11:28:48Z</time></trkpt>
<trkpt lat="55.435368000" lon="-3.330721000"><ele>731.8</ele><time>2010-08-29T11:28:53Z</time></trkpt>
<trkpt lat="55.435374000" lon="-3.330810000"><ele>732.6</ele><time>2010-08-29T11:28:59Z</time></trkpt>
<trkpt lat="55.435371000" lon="-3.330842000"><ele>733.5</ele><time>2010-08-29T11:29:01Z</time></trkpt>
<trkpt lat="55.435361000" lon="-3.330932000"><ele>734.3</ele><time>2010-08-29T11:29:07Z</time></trkpt>
<trkpt lat="55.435334000" lon="-3.331088000"><ele>735.1</ele><time>2010-08-29T11:29:21Z</time></trkpt>
<trkpt lat="55.435333000" lon="-3.331162000"><ele>735.9</ele><time>2010-08-29T11:29:27Z</time></trkpt>
<trkpt lat="55.435313000" lon="-3.331256000"><ele>736.7</ele><time>2010-08-29T11:29:36Z</time></trkpt>
<trkpt lat="55.435276000" lon="-3.331304000"><ele>737.5</ele><time>2010-08-29T11:29:42Z</time></trkpt>
<trkpt lat="55.435248000" lon="-3.331368000"><ele>738.4</ele><time>2010-08-29T11:29:48Z</time></trkpt>
<trkpt lat="55.435239000" lon="-3.331448000"><ele>739.2</ele><time>2010-08-29T11:29:54Z</time></trkpt>
<trkpt lat="55.435241000" lon="-3.331459000"><ele>740.0</ele><time>2010-08-29T11:29:55Z</time></trkpt>
<trkpt lat="55.435229000" lon="-3.331546000"><ele>740.0</ele><time>2010-08-29T11:30:06Z</time></trkpt>
<trkpt lat="55.435209000" lon="-3.331624000"><ele>740.6</ele><time>2010-08-29T11:30:12Z</time></trkpt>
<trkpt lat="55.435192000" lon="-3.331704000"><ele>741.3</ele><time>2010-08-29T11:30:17Z</time></trkpt>
<trkpt lat="55.435167000" lon="-3.331789000"><ele>741.9</ele><time>2010-08-29T11:30:22Z</time></trkpt>
<trkpt lat="55.435162000" lon="-3.331807000"><ele>742.5</ele><time>2010-08-29T11:30:23Z</time></trkpt>
<trkpt lat="55.435135000" lon="-3.331882000"><ele>743.2</ele><time>2010-08-29T11:30:28Z</time></trkpt>
<trkpt lat="55.435101000" lon="-3.332008000"><ele>743.8</ele><time>2010-08-29T11:30:37Z</time></trkpt>
<trkpt lat="55.435101000" lon="-3.332099000"><ele>744.5</ele><time>2010-08-29T11:30:44Z</time></trkpt>
<trkpt lat="55.435101000" lon="-3.332263000"><ele>745.1</ele><time>2010-08-29T11:30:56Z</time></trkpt>
<trkpt lat="55.435097000" lon="-3.332350000"><ele>745.7</ele><time>2010-08-29T11:31:02Z</time></trkpt>
<trkpt lat="55.435095000" lon="-3.332361000"><ele>747.0</ele><time>2010-08-29T11:31:03Z</time></trkpt>
<trkpt lat="55.435074000" lon="-3.332444000"><ele>748.3</ele><time>2010-08-29T11:31:09Z</time></trkpt>
<trkpt lat="55.435023000" lon="-3.332577000"><ele>748.9</ele><time>2010-08-29T11:31:19Z</time></trkpt>
<trkpt lat="55.435015000" lon="-3.332605000"><ele>749.5</ele><time>2010-08-29T11:31:21Z</time></trkpt>
<trkpt lat="55.434991000" lon="-3.332682000"><ele>750.2</ele><time>2010-08-29T11:31:26Z</time></trkpt>
<trkpt lat="55.434958000" lon="-3.332786000"><ele>750.8</ele><time>2010-08-29T11:31:35Z</time></trkpt>
<trkpt lat="55.434924000" lon="-3.332854000"><ele>751.5</ele><time>2010-08-29T11:31:40Z</time></trkpt>
<trkpt lat="55.434919000" lon="-3.332867000"><ele>752.1</ele><time>2010-08-29T11:31:41Z</time></trkpt>
<trkpt lat="55.434906000" lon="-3.332948000"><ele>752.7</ele><time>2010-08-29T11:31:47Z</time></trkpt>
<trkpt lat="55.434871000" lon="-3.333050000"><ele>753.4</ele><time>2010-08-29T11:31:56Z</time></trkpt>
<trkpt lat="55.434833000" lon="-3.333095000"><ele>754.2</ele><time>2010-08-29T11:32:02Z</time></trkpt>
<trkpt lat="55.434792000" lon="-3.333136000"><ele>754.4</ele><time>2010-08-29T11:32:10Z</time></trkpt>
<trkpt lat="55.434738000" lon="-3.333140000"><ele>754.5</ele><time>2010-08-29T11:32:17Z</time></trkpt>
<trkpt lat="55.434693000" lon="-3.333169000"><ele>754.7</ele><time>2010-08-29T11:32:22Z</time></trkpt>
<trkpt lat="55.434647000" lon="-3.333187000"><ele>754.9</ele><time>2010-08-29T11:32:27Z</time></trkpt>
<trkpt lat="55.434600000" lon="-3.333196000"><ele>755.1</ele><time>2010-08-29T11:32:32Z</time></trkpt>
<trkpt lat="55.434552000" lon="-3.333214000"><ele>755.3</ele><time>2010-08-29T11:32:51Z</time></trkpt>
<trkpt lat="55.434510000" lon="-3.333253000"><ele>755.5</ele><time>2010-08-29T11:32:56Z</time></trkpt>
<trkpt lat="55.434458000" lon="-3.333286000"><ele>755.6</ele><time>2010-08-29T11:33:01Z</time></trkpt>
<trkpt lat="55.434414000" lon="-3.333318000"><ele>755.8</ele><time>2010-08-29T11:33:05Z</time></trkpt>
<trkpt lat="55.434377000" lon="-3.333339000"><ele>756.0</ele><time>2010-08-29T11:33:08Z</time></trkpt>
<trkpt lat="55.434325000" lon="-3.333356000"><ele>756.0</ele><time>2010-08-29T11:33:13Z</time></trkpt>
<trkpt lat="55.434280000" lon="-3.333361000"><ele>756.0</ele><time>2010-08-29T11:33:17Z</time></trkpt>
<trkpt lat="55.434232000" lon="-3.333370000"><ele>756.0</ele><time>2010-08-29T11:33:21Z</time></trkpt>
<trkpt lat="55.434140000" lon="-3.333379000"><ele>756.0</ele><time>2010-08-29T11:33:29Z</time></trkpt>
<trkpt lat="55.434109000" lon="-3.333373000"><ele>756.0</ele><time>2010-08-29T11:33:32Z</time></trkpt>
<trkpt lat="55.434063000" lon="-3.333385000"><ele>756.0</ele><time>2010-08-29T11:33:36Z</time></trkpt>
<trkpt lat="55.433989000" lon="-3.333393000"><ele>756.0</ele><time>2010-08-29T11:33:42Z</time></trkpt>
<trkpt lat="55.433941000" lon="-3.333410000"><ele>756.0</ele><time>2010-08-29T11:33:46Z</time></trkpt>
<trkpt lat="55.433930000" lon="-3.333418000"><ele>756.0</ele><time>2010-08-29T11:33:47Z</time></trkpt>
<trkpt lat="55.433883000" lon="-3.333446000"><ele>756.5</ele><time>2010-08-29T11:33:52Z</time></trkpt>
<trkpt lat="55.433812000" lon="-3.333550000"><ele>757.1</ele><time>2010-08-29T11:34:01Z</time></trkpt>
<trkpt lat="55.433796000" lon="-3.333579000"><ele>757.6</ele><time>2010-08-29T11:34:03Z</time></trkpt>
<trkpt lat="55.433761000" lon="-3.333653000"><ele>758.2</ele><time>2010-08-29T11:34:08Z</time></trkpt>
<trkpt lat="55.433729000" lon="-3.333713000"><ele>758.7</ele><time>2010-08-29T11:34:12Z</time></trkpt>
<trkpt lat="55.433686000" lon="-3.333760000"><ele>759.3</ele><time>2010-08-29T11:34:16Z</time></trkpt>
<trkpt lat="55.433640000" lon="-3.333834000"><ele>759.8</ele><time>2010-08-29T11:34:21Z</time></trkpt>
<trkpt lat="55.433607000" lon="-3.333907000"><ele>760.4</ele><time>2010-08-29T11:34:26Z</time></trkpt>
<trkpt lat="55.433599000" lon="-3.333920000"><ele>760.9</ele><time>2010-08-29T11:34:27Z</time></trkpt>
<trkpt lat="55.433566000" lon="-3.333988000"><ele>761.5</ele><time>2010-08-29T11:34:31Z</time></trkpt>
<trkpt lat="55.433537000" lon="-3.334023000"><ele>762.0</ele><time>2010-08-29T11:34:34Z</time></trkpt>
<trkpt lat="55.433489000" lon="-3.334053000"><ele>762.0</ele><time>2010-08-29T11:34:38Z</time></trkpt>
<trkpt lat="55.433406000" lon="-3.334138000"><ele>762.5</ele><time>2010-08-29T11:34:45Z</time></trkpt>
<trkpt lat="55.433330000" lon="-3.334237000"><ele>763.1</ele><time>2010-08-29T11:34:53Z</time></trkpt>
<trkpt lat="55.433278000" lon="-3.334378000"><ele>763.6</ele><time>2010-08-29T11:35:00Z</time></trkpt>
<trkpt lat="55.433256000" lon="-3.334472000"><ele>764.2</ele><time>2010-08-29T11:35:05Z</time></trkpt>
<trkpt lat="55.433253000" lon="-3.334552000"><ele>764.7</ele><time>2010-08-29T11:35:09Z</time></trkpt>
<trkpt lat="55.433251000" lon="-3.334613000"><ele>765.3</ele><time>2010-08-29T11:35:13Z</time></trkpt>
<trkpt lat="55.433257000" lon="-3.334698000"><ele>765.8</ele><time>2010-08-29T11:35:23Z</time></trkpt>
<trkpt lat="55.433213000" lon="-3.334743000"><ele>766.4</ele><time>2010-08-29T11:35:28Z</time></trkpt>
<trkpt lat="55.433170000" lon="-3.334803000"><ele>766.9</ele><time>2010-08-29T11:35:33Z</time></trkpt>
<trkpt lat="55.433136000" lon="-3.334859000"><ele>767.5</ele><time>2010-08-29T11:35:37Z</time></trkpt>
<trkpt lat="55.433104000" lon="-3.334920000"><ele>768.0</ele><time>2010-08-29T11:35:41Z</time></trkpt>
<trkpt lat="55.433091000" lon="-3.334951000"><ele>768.0</ele><time>2010-08-29T11:35:43Z</time></trkpt>
<trkpt lat="55.433055000" lon="-3.335029000"><ele>768.0</ele><time>2010-08-29T11:35:48Z</time></trkpt>
<trkpt lat="55.433043000" lon="-3.335063000"><ele>768.0</ele><time>2010-08-29T11:35:50Z</time></trkpt>
<trkpt lat="55.433017000" lon="-3.335130000"><ele>768.1</ele><time>2010-08-29T11:35:54Z</time></trkpt>
<trkpt lat="55.432986000" lon="-3.335195000"><ele>767.8</ele><time>2010-08-29T11:35:58Z</time></trkpt>
<trkpt lat="55.432958000" lon="-3.335263000"><ele>767.5</ele><time>2010-08-29T11:36:02Z</time></trkpt>
<trkpt lat="55.432951000" lon="-3.335282000"><ele>767.6</ele><time>2010-08-29T11:36:03Z</time></trkpt>
<trkpt lat="55.432924000" lon="-3.335365000"><ele>767.7</ele><time>2010-08-29T11:36:08Z</time></trkpt>
<trkpt lat="55.432931000" lon="-3.335456000"><ele>767.8</ele><time>2010-08-29T11:36:14Z</time></trkpt>
<trkpt lat="55.432941000" lon="-3.335535000"><ele>767.9</ele><time>2010-08-29T11:36:20Z</time></trkpt>
<trkpt lat="55.432940000" lon="-3.335543000"><ele>768.0</ele><time>2010-08-29T11:36:23Z</time></trkpt>
<trkpt lat="55.432897000" lon="-3.335585000"><ele>768.1</ele><time>2010-08-29T11:36:41Z</time></trkpt>
<trkpt lat="55.432807000" lon="-3.335648000"><ele>768.2</ele><time>2010-08-29T11:36:49Z</time></trkpt>
<trkpt lat="55.432757000" lon="-3.335673000"><ele>768.3</ele><time>2010-08-29T11:36:53Z</time></trkpt>
<trkpt lat="55.432709000" lon="-3.335712000"><ele>768.3</ele><time>2010-08-29T11:36:57Z</time></trkpt>
<trkpt lat="55.432686000" lon="-3.335736000"><ele>768.6</ele><time>2010-08-29T11:36:59Z</time></trkpt>
<trkpt lat="55.432638000" lon="-3.335794000"><ele>769.0</ele><time>2010-08-29T11:37:03Z</time></trkpt>
<trkpt lat="55.432626000" lon="-3.335808000"><ele>769.0</ele><time>2010-08-29T11:37:04Z</time></trkpt>
<trkpt lat="55.432574000" lon="-3.335844000"><ele>769.0</ele><time>2010-08-29T11:37:08Z</time></trkpt>
<trkpt lat="55.432534000" lon="-3.335857000"><ele>769.0</ele><time>2010-08-29T11:37:11Z</time></trkpt>
<trkpt lat="55.432484000" lon="-3.335884000"><ele>769.0</ele><time>2010-08-29T11:37:15Z</time></trkpt>
<trkpt lat="55.432394000" lon="-3.335969000"><ele>769.0</ele><time>2010-08-29T11:37:22Z</time></trkpt>
<trkpt lat="55.432367000" lon="-3.335986000"><ele>769.0</ele><time>2010-08-29T11:37:24Z</time></trkpt>
<trkpt lat="55.432318000" lon="-3.336023000"><ele>769.0</ele><time>2010-08-29T11:37:28Z</time></trkpt>
<trkpt lat="55.432274000" lon="-3.336078000"><ele>768.8</ele><time>2010-08-29T11:37:32Z</time></trkpt>
<trkpt lat="55.432227000" lon="-3.336117000"><ele>768.9</ele><time>2010-08-29T11:37:36Z</time></trkpt>
<trkpt lat="55.432204000" lon="-3.336135000"><ele>769.0</ele><time>2010-08-29T11:37:38Z</time></trkpt>
<trkpt lat="55.432157000" lon="-3.336171000"><ele>769.1</ele><time>2010-08-29T11:37:42Z</time></trkpt>
<trkpt lat="55.432146000" lon="-3.336179000"><ele>769.2</ele><time>2010-08-29T11:37:43Z</time></trkpt>
<trkpt lat="55.432101000" lon="-3.336208000"><ele>769.3</ele><time>2010-08-29T11:37:47Z</time></trkpt>
<trkpt lat="55.432011000" lon="-3.336245000"><ele>769.4</ele><time>2010-08-29T11:37:54Z</time></trkpt>
<trkpt lat="55.431971000" lon="-3.336265000"><ele>769.5</ele><time>2010-08-29T11:37:57Z</time></trkpt>
<trkpt lat="55.431916000" lon="-3.336291000"><ele>769.5</ele><time>2010-08-29T11:38:01Z</time></trkpt>
<trkpt lat="55.431835000" lon="-3.336342000"><ele>769.6</ele><time>2010-08-29T11:38:07Z</time></trkpt>
<trkpt lat="55.431780000" lon="-3.336349000"><ele>769.7</ele><time>2010-08-29T11:38:11Z</time></trkpt>
<trkpt lat="55.431768000" lon="-3.336352000"><ele>770.0</ele><time>2010-08-29T11:38:12Z</time></trkpt>
<trkpt lat="55.431725000" lon="-3.336396000"><ele>770.0</ele><time>2010-08-29T11:38:16Z</time></trkpt>
<trkpt lat="55.431676000" lon="-3.336437000"><ele>770.0</ele><time>2010-08-29T11:38:20Z</time></trkpt>
<trkpt lat="55.431626000" lon="-3.336469000"><ele>770.0</ele><time>2010-08-29T11:38:24Z</time></trkpt>
<trkpt lat="55.431584000" lon="-3.336504000"><ele>770.0</ele><time>2010-08-29T11:38:28Z</time></trkpt>
<trkpt lat="55.431499000" lon="-3.336592000"><ele>769.9</ele><time>2010-08-29T11:38:36Z</time></trkpt>
<trkpt lat="55.431443000" lon="-3.336642000"><ele>769.8</ele><time>2010-08-29T11:38:41Z</time></trkpt>
<trkpt lat="55.431397000" lon="-3.336686000"><ele>769.7</ele><time>2010-08-29T11:38:44Z</time></trkpt>
<trkpt lat="55.431356000" lon="-3.336723000"><ele>769.6</ele><time>2010-08-29T11:38:47Z</time></trkpt>
<trkpt lat="55.431306000" lon="-3.336765000"><ele>769.5</ele><time>2010-08-29T11:38:51Z</time></trkpt>
<trkpt lat="55.431215000" lon="-3.336811000"><ele>769.5</ele><time>2010-08-29T11:38:58Z</time></trkpt>
<trkpt lat="55.431120000" lon="-3.336846000"><ele>769.4</ele><time>2010-08-29T11:39:05Z</time></trkpt>
<trkpt lat="55.431039000" lon="-3.336913000"><ele>769.3</ele><time>2010-08-29T11:39:13Z</time></trkpt>
<trkpt lat="55.430995000" lon="-3.336960000"><ele>769.2</ele><time>2010-08-29T11:39:17Z</time></trkpt>
<trkpt lat="55.430983000" lon="-3.336967000"><ele>769.4</ele><time>2010-08-29T11:39:18Z</time></trkpt>
<trkpt lat="55.430935000" lon="-3.336989000"><ele>769.5</ele><time>2010-08-29T11:39:22Z</time></trkpt>
<trkpt lat="55.430888000" lon="-3.337005000"><ele>769.8</ele><time>2010-08-29T11:39:26Z</time></trkpt>
<trkpt lat="55.430860000" lon="-3.337013000"><ele>770.1</ele><time>2010-08-29T11:39:28Z</time></trkpt>
<trkpt lat="55.430816000" lon="-3.337030000"><ele>770.4</ele><time>2010-08-29T11:39:32Z</time></trkpt>
<trkpt lat="55.430770000" lon="-3.337071000"><ele>770.6</ele><time>2010-08-29T11:39:36Z</time></trkpt>
<trkpt lat="55.430707000" lon="-3.337153000"><ele>770.7</ele><time>2010-08-29T11:39:42Z</time></trkpt>
<trkpt lat="55.430667000" lon="-3.337194000"><ele>770.8</ele><time>2010-08-29T11:39:46Z</time></trkpt>
<trkpt lat="55.430622000" lon="-3.337228000"><ele>770.9</ele><time>2010-08-29T11:39:50Z</time></trkpt>
<trkpt lat="55.430529000" lon="-3.337285000"><ele>771.0</ele><time>2010-08-29T11:39:57Z</time></trkpt>
<trkpt lat="55.430515000" lon="-3.337291000"><ele>771.1</ele><time>2010-08-29T11:39:58Z</time></trkpt>
<trkpt lat="55.430465000" lon="-3.337312000"><ele>770.9</ele><time>2010-08-29T11:40:02Z</time></trkpt>
<trkpt lat="55.430413000" lon="-3.337343000"><ele>770.7</ele><time>2010-08-29T11:40:06Z</time></trkpt>
<trkpt lat="55.430362000" lon="-3.337379000"><ele>770.5</ele><time>2010-08-29T11:40:10Z</time></trkpt>
<trkpt lat="55.430272000" lon="-3.337463000"><ele>770.4</ele><time>2010-08-29T11:40:17Z</time></trkpt>
<trkpt lat="55.430259000" lon="-3.337472000"><ele>770.2</ele><time>2010-08-29T11:40:18Z</time></trkpt>
<trkpt lat="55.430205000" lon="-3.337506000"><ele>770.0</ele><time>2010-08-29T11:40:22Z</time></trkpt>
<trkpt lat="55.430129000" lon="-3.337551000"><ele>770.0</ele><time>2010-08-29T11:40:27Z</time></trkpt>
<trkpt lat="55.430082000" lon="-3.337571000"><ele>770.0</ele><time>2010-08-29T11:40:30Z</time></trkpt>
<trkpt lat="55.430039000" lon="-3.337598000"><ele>770.0</ele><time>2010-08-29T11:40:33Z</time></trkpt>
<trkpt lat="55.429987000" lon="-3.337651000"><ele>770.0</ele><time>2010-08-29T11:40:37Z</time></trkpt>
<trkpt lat="55.429937000" lon="-3.337686000"><ele>770.0</ele><time>2010-08-29T11:40:41Z</time></trkpt>
<trkpt lat="55.429884000" lon="-3.337698000"><ele>769.9</ele><time>2010-08-29T11:40:45Z</time></trkpt>
<trkpt lat="55.429792000" lon="-3.337728000"><ele>769.8</ele><time>2010-08-29T11:40:52Z</time></trkpt>
<trkpt lat="55.429717000" lon="-3.337757000"><ele>769.7</ele><time>2010-08-29T11:40:59Z</time></trkpt>
<trkpt lat="55.429672000" lon="-3.337812000"><ele>769.6</ele><time>2010-08-29T11:41:03Z</time></trkpt>
<trkpt lat="55.429660000" lon="-3.337824000"><ele>769.5</ele><time>2010-08-29T11:41:04Z</time></trkpt>
<trkpt lat="55.429621000" lon="-3.337873000"><ele>769.5</ele><time>2010-08-29T11:41:07Z</time></trkpt>
<trkpt lat="55.429580000" lon="-3.337911000"><ele>769.4</ele><time>2010-08-29T11:41:10Z</time></trkpt>
<trkpt lat="55.429484000" lon="-3.337997000"><ele>769.3</ele><time>2010-08-29T11:41:16Z</time></trkpt>
<trkpt lat="55.429399000" lon="-3.338065000"><ele>769.2</ele><time>2010-08-29T11:41:22Z</time></trkpt>
<trkpt lat="55.429344000" lon="-3.338099000"><ele>769.1</ele><time>2010-08-29T11:41:26Z</time></trkpt>
<trkpt lat="55.429296000" lon="-3.338141000"><ele>769.0</ele><time>2010-08-29T11:41:30Z</time></trkpt>
<trkpt lat="55.429247000" lon="-3.338181000"><ele>769.0</ele><time>2010-08-29T11:41:34Z</time></trkpt>
<trkpt lat="55.429168000" lon="-3.338272000"><ele>769.0</ele><time>2010-08-29T11:41:41Z</time></trkpt>
<trkpt lat="55.429155000" lon="-3.338282000"><ele>769.0</ele><time>2010-08-29T11:41:42Z</time></trkpt>
<trkpt lat="55.429105000" lon="-3.338306000"><ele>769.0</ele><time>2010-08-29T11:41:46Z</time></trkpt>
<trkpt lat="55.429054000" lon="-3.338350000"><ele>769.0</ele><time>2010-08-29T11:41:51Z</time></trkpt>
<trkpt lat="55.429007000" lon="-3.338375000"><ele>769.0</ele><time>2010-08-29T11:41:55Z</time></trkpt>
<trkpt lat="55.428961000" lon="-3.338400000"><ele>769.0</ele><time>2010-08-29T11:41:59Z</time></trkpt>
<trkpt lat="55.428914000" lon="-3.338435000"><ele>768.9</ele><time>2010-08-29T11:42:03Z</time></trkpt>
<trkpt lat="55.428869000" lon="-3.338468000"><ele>768.8</ele><time>2010-08-29T11:42:07Z</time></trkpt>
<trkpt lat="55.428827000" lon="-3.338508000"><ele>768.6</ele><time>2010-08-29T11:42:11Z</time></trkpt>
<trkpt lat="55.428809000" lon="-3.338522000"><ele>768.5</ele><time>2010-08-29T11:42:13Z</time></trkpt>
<trkpt lat="55.428757000" lon="-3.338570000"><ele>768.3</ele><time>2010-08-29T11:42:44Z</time></trkpt>
<trkpt lat="55.428709000" lon="-3.338597000"><ele>768.1</ele><time>2010-08-29T11:42:48Z</time></trkpt>
<trkpt lat="55.428665000" lon="-3.338654000"><ele>767.9</ele><time>2010-08-29T11:42:53Z</time></trkpt>
<trkpt lat="55.428621000" lon="-3.338709000"><ele>767.7</ele><time>2010-08-29T11:42:57Z</time></trkpt>
<trkpt lat="55.428582000" lon="-3.338748000"><ele>767.5</ele><time>2010-08-29T11:43:01Z</time></trkpt>
<trkpt lat="55.428544000" lon="-3.338768000"><ele>767.4</ele><time>2010-08-29T11:43:04Z</time></trkpt>
<trkpt lat="55.428489000" lon="-3.338785000"><ele>767.2</ele><time>2010-08-29T11:43:08Z</time></trkpt>
<trkpt lat="55.428421000" lon="-3.338827000"><ele>767.1</ele><time>2010-08-29T11:43:14Z</time></trkpt>
<trkpt lat="55.428368000" lon="-3.338822000"><ele>767.0</ele><time>2010-08-29T11:43:19Z</time></trkpt>
<trkpt lat="55.428319000" lon="-3.338833000"><ele>767.0</ele><time>2010-08-29T11:43:23Z</time></trkpt>
<trkpt lat="55.428267000" lon="-3.338801000"><ele>767.0</ele><time>2010-08-29T11:43:27Z</time></trkpt>
<trkpt lat="55.428209000" lon="-3.338786000"><ele>767.0</ele><time>2010-08-29T11:43:31Z</time></trkpt>
<trkpt lat="55.428157000" lon="-3.338766000"><ele>767.5</ele><time>2010-08-29T11:43:35Z</time></trkpt>
<trkpt lat="55.428110000" lon="-3.338769000"><ele>768.1</ele><time>2010-08-29T11:43:39Z</time></trkpt>
<trkpt lat="55.428064000" lon="-3.338779000"><ele>768.6</ele><time>2010-08-29T11:43:43Z</time></trkpt>
<trkpt lat="55.428017000" lon="-3.338787000"><ele>769.2</ele><time>2010-08-29T11:43:47Z</time></trkpt>
<trkpt lat="55.427970000" lon="-3.338775000"><ele>769.7</ele><time>2010-08-29T11:43:51Z</time></trkpt>
<trkpt lat="55.427925000" lon="-3.338760000"><ele>770.3</ele><time>2010-08-29T11:43:56Z</time></trkpt>
<trkpt lat="55.427872000" lon="-3.338755000"><ele>770.8</ele><time>2010-08-29T11:44:00Z</time></trkpt>
<trkpt lat="55.427818000" lon="-3.338743000"><ele>771.4</ele><time>2010-08-29T11:44:04Z</time></trkpt>
<trkpt lat="55.427766000" lon="-3.338735000"><ele>771.9</ele><time>2010-08-29T11:44:08Z</time></trkpt>
<trkpt lat="55.427714000" lon="-3.338731000"><ele>772.5</ele><time>2010-08-29T11:44:12Z</time></trkpt>
<trkpt lat="55.427664000" lon="-3.338730000"><ele>773.0</ele><time>2010-08-29T11:44:16Z</time></trkpt>
<trkpt lat="55.427613000" lon="-3.338726000"><ele>773.0</ele><time>2010-08-29T11:44:20Z</time></trkpt>
<trkpt lat="55.427565000" lon="-3.338729000"><ele>773.0</ele><time>2010-08-29T11:44:24Z</time></trkpt>
<trkpt lat="55.427517000" lon="-3.338733000"><ele>773.0</ele><time>2010-08-29T11:44:28Z</time></trkpt>
<trkpt lat="55.427461000" lon="-3.338742000"><ele>773.0</ele><time>2010-08-29T11:44:33Z</time></trkpt>
<trkpt lat="55.427449000" lon="-3.338743000"><ele>773.0</ele><time>2010-08-29T11:44:34Z</time></trkpt>
<trkpt lat="55.427393000" lon="-3.338729000"><ele>773.0</ele><time>2010-08-29T11:44:39Z</time></trkpt>
<trkpt lat="55.427342000" lon="-3.338713000"><ele>773.0</ele><time>2010-08-29T11:44:43Z</time></trkpt>
<trkpt lat="55.427275000" lon="-3.338724000"><ele>773.0</ele><time>2010-08-29T11:44:49Z</time></trkpt>
<trkpt lat="55.427227000" lon="-3.338707000"><ele>774.0</ele><time>2010-08-29T11:44:53Z</time></trkpt>
<trkpt lat="55.427216000" lon="-3.338708000"><ele>775.0</ele><time>2010-08-29T11:44:54Z</time></trkpt>
<trkpt lat="55.427170000" lon="-3.338701000"><ele>776.0</ele><time>2010-08-29T11:45:00Z</time></trkpt>
<trkpt lat="55.427161000" lon="-3.338699000"><ele>777.0</ele><time>2010-08-29T11:45:01Z</time></trkpt>
<trkpt lat="55.427112000" lon="-3.338697000"><ele>778.0</ele><time>2010-08-29T11:45:06Z</time></trkpt>
<trkpt lat="55.427091000" lon="-3.338694000"><ele>779.0</ele><time>2010-08-29T11:45:08Z</time></trkpt>
<trkpt lat="55.427037000" lon="-3.338695000"><ele>780.0</ele><time>2010-08-29T11:45:13Z</time></trkpt>
<trkpt lat="55.426943000" lon="-3.338707000"><ele>781.0</ele><time>2010-08-29T11:45:23Z</time></trkpt>
<trkpt lat="55.426899000" lon="-3.338737000"><ele>782.0</ele><time>2010-08-29T11:45:28Z</time></trkpt>
<trkpt lat="55.426845000" lon="-3.338754000"><ele>783.0</ele><time>2010-08-29T11:45:33Z</time></trkpt>
<trkpt lat="55.426795000" lon="-3.338747000"><ele>784.0</ele><time>2010-08-29T11:45:38Z</time></trkpt>
<trkpt lat="55.426755000" lon="-3.338736000"><ele>784.0</ele><time>2010-08-29T11:45:42Z</time></trkpt>
<trkpt lat="55.426702000" lon="-3.338743000"><ele>784.0</ele><time>2010-08-29T11:45:47Z</time></trkpt>
<trkpt lat="55.426652000" lon="-3.338756000"><ele>784.0</ele><time>2010-08-29T11:45:52Z</time></trkpt>
<trkpt lat="55.426598000" lon="-3.338771000"><ele>784.0</ele><time>2010-08-29T11:45:57Z</time></trkpt>
<trkpt lat="55.426550000" lon="-3.338765000"><ele>784.0</ele><time>2010-08-29T11:46:02Z</time></trkpt>
<trkpt lat="55.426539000" lon="-3.338763000"><ele>784.0</ele><time>2010-08-29T11:46:03Z</time></trkpt>
<trkpt lat="55.426490000" lon="-3.338774000"><ele>784.8</ele><time>2010-08-29T11:46:08Z</time></trkpt>
<trkpt lat="55.426446000" lon="-3.338780000"><ele>785.6</ele><time>2010-08-29T11:46:12Z</time></trkpt>
<trkpt lat="55.426394000" lon="-3.338781000"><ele>786.5</ele><time>2010-08-29T11:46:17Z</time></trkpt>
<trkpt lat="55.426373000" lon="-3.338779000"><ele>787.3</ele><time>2010-08-29T11:46:19Z</time></trkpt>
<trkpt lat="55.426326000" lon="-3.338769000"><ele>788.1</ele><time>2010-08-29T11:46:23Z</time></trkpt>
<trkpt lat="55.426273000" lon="-3.338780000"><ele>788.9</ele><time>2010-08-29T11:46:28Z</time></trkpt>
<trkpt lat="55.426254000" lon="-3.338776000"><ele>789.7</ele><time>2010-08-29T11:46:30Z</time></trkpt>
<trkpt lat="55.426198000" lon="-3.338788000"><ele>790.5</ele><time>2010-08-29T11:46:35Z</time></trkpt>
<trkpt lat="55.426190000" lon="-3.338787000"><ele>791.4</ele><time>2010-08-29T11:46:36Z</time></trkpt>
<trkpt lat="55.426145000" lon="-3.338762000"><ele>792.2</ele><time>2010-08-29T11:46:41Z</time></trkpt>
<trkpt lat="55.426055000" lon="-3.338751000"><ele>793.0</ele><time>2010-08-29T11:46:49Z</time></trkpt>
<trkpt lat="55.426003000" lon="-3.338757000"><ele>793.0</ele><time>2010-08-29T11:46:53Z</time></trkpt>
<trkpt lat="55.425978000" lon="-3.338757000"><ele>793.0</ele><time>2010-08-29T11:46:55Z</time></trkpt>
<trkpt lat="55.425927000" lon="-3.338757000"><ele>793.3</ele><time>2010-08-29T11:46:59Z</time></trkpt>
<trkpt lat="55.425865000" lon="-3.338769000"><ele>793.5</ele><time>2010-08-29T11:47:04Z</time></trkpt>
<trkpt lat="55.425817000" lon="-3.338763000"><ele>793.8</ele><time>2010-08-29T11:47:08Z</time></trkpt>
<trkpt lat="55.425728000" lon="-3.338784000"><ele>794.1</ele><time>2010-08-29T11:47:23Z</time></trkpt>
<trkpt lat="55.425697000" lon="-3.338724000"><ele>794.4</ele><time>2010-08-29T11:47:28Z</time></trkpt>
<trkpt lat="55.425659000" lon="-3.338625000"><ele>794.6</ele><time>2010-08-29T11:47:35Z</time></trkpt>
<trkpt lat="55.425624000" lon="-3.338565000"><ele>794.9</ele><time>2010-08-29T11:47:39Z</time></trkpt>
<trkpt lat="55.425588000" lon="-3.338408000"><ele>795.2</ele><time>2010-08-29T11:47:46Z</time></trkpt>
<trkpt lat="55.425586000" lon="-3.338383000"><ele>795.5</ele><time>2010-08-29T11:47:47Z</time></trkpt>
<trkpt lat="55.425572000" lon="-3.338280000"><ele>795.5</ele><time>2010-08-29T11:47:51Z</time></trkpt>
<trkpt lat="55.425546000" lon="-3.338126000"><ele>795.5</ele><time>2010-08-29T11:47:57Z</time></trkpt>
<trkpt lat="55.425531000" lon="-3.338050000"><ele>795.2</ele><time>2010-08-29T11:48:00Z</time></trkpt>
<trkpt lat="55.425522000" lon="-3.338001000"><ele>795.1</ele><time>2010-08-29T11:48:02Z</time></trkpt>
<trkpt lat="55.425510000" lon="-3.337923000"><ele>795.0</ele><time>2010-08-29T11:48:05Z</time></trkpt>
<trkpt lat="55.425493000" lon="-3.337828000"><ele>794.9</ele><time>2010-08-29T11:48:09Z</time></trkpt>
<trkpt lat="55.425479000" lon="-3.337744000"><ele>794.8</ele><time>2010-08-29T11:48:13Z</time></trkpt>
<trkpt lat="55.425468000" lon="-3.337652000"><ele>794.3</ele><time>2010-08-29T11:48:17Z</time></trkpt>
<trkpt lat="55.425448000" lon="-3.337475000"><ele>793.7</ele><time>2010-08-29T11:48:24Z</time></trkpt>
<trkpt lat="55.425433000" lon="-3.337304000"><ele>793.2</ele><time>2010-08-29T11:48:30Z</time></trkpt>
<trkpt lat="55.425414000" lon="-3.337172000"><ele>792.6</ele><time>2010-08-29T11:48:35Z</time></trkpt>
<trkpt lat="55.425403000" lon="-3.337092000"><ele>792.4</ele><time>2010-08-29T11:48:38Z</time></trkpt>
<trkpt lat="55.425395000" lon="-3.336972000"><ele>792.1</ele><time>2010-08-29T11:48:43Z</time></trkpt>
<trkpt lat="55.425383000" lon="-3.336890000"><ele>791.8</ele><time>2010-08-29T11:48:47Z</time></trkpt>
<trkpt lat="55.425360000" lon="-3.336731000"><ele>791.4</ele><time>2010-08-29T11:48:54Z</time></trkpt>
<trkpt lat="55.425355000" lon="-3.336682000"><ele>790.9</ele><time>2010-08-29T11:48:56Z</time></trkpt>
<trkpt lat="55.425343000" lon="-3.336597000"><ele>789.8</ele><time>2010-08-29T11:48:59Z</time></trkpt>
<trkpt lat="55.425327000" lon="-3.336471000"><ele>788.7</ele><time>2010-08-29T11:49:06Z</time></trkpt>
<trkpt lat="55.425316000" lon="-3.336386000"><ele>788.1</ele><time>2010-08-29T11:49:07Z</time></trkpt>
<trkpt lat="55.425310000" lon="-3.336357000"><ele>787.5</ele><time>2010-08-29T11:49:08Z</time></trkpt>
<trkpt lat="55.425296000" lon="-3.336281000"><ele>786.8</ele><time>2010-08-29T11:49:11Z</time></trkpt>
<trkpt lat="55.425291000" lon="-3.336192000"><ele>786.2</ele><time>2010-08-29T11:49:15Z</time></trkpt>
<trkpt lat="55.425297000" lon="-3.336107000"><ele>785.5</ele><time>2010-08-29T11:49:19Z</time></trkpt>
<trkpt lat="55.425288000" lon="-3.336021000"><ele>784.9</ele><time>2010-08-29T11:49:23Z</time></trkpt>
<trkpt lat="55.425274000" lon="-3.335938000"><ele>784.3</ele><time>2010-08-29T11:49:27Z</time></trkpt>
<trkpt lat="55.425251000" lon="-3.335779000"><ele>782.9</ele><time>2010-08-29T11:49:34Z</time></trkpt>
<trkpt lat="55.425234000" lon="-3.335694000"><ele>781.5</ele><time>2010-08-29T11:49:38Z</time></trkpt>
<trkpt lat="55.425213000" lon="-3.335606000"><ele>780.8</ele><time>2010-08-29T11:49:42Z</time></trkpt>
<trkpt lat="55.425202000" lon="-3.335515000"><ele>780.1</ele><time>2010-08-29T11:49:46Z</time></trkpt>
<trkpt lat="55.425192000" lon="-3.335425000"><ele>779.4</ele><time>2010-08-29T11:49:50Z</time></trkpt>
<trkpt lat="55.425178000" lon="-3.335341000"><ele>778.6</ele><time>2010-08-29T11:49:54Z</time></trkpt>
<trkpt lat="55.425160000" lon="-3.335171000"><ele>777.9</ele><time>2010-08-29T11:50:02Z</time></trkpt>
<trkpt lat="55.425149000" lon="-3.335093000"><ele>777.2</ele><time>2010-08-29T11:50:06Z</time></trkpt>
<trkpt lat="55.425138000" lon="-3.335008000"><ele>776.4</ele><time>2010-08-29T11:50:10Z</time></trkpt>
<trkpt lat="55.425127000" lon="-3.334919000"><ele>775.5</ele><time>2010-08-29T11:50:14Z</time></trkpt>
<trkpt lat="55.425120000" lon="-3.334830000"><ele>774.7</ele><time>2010-08-29T11:50:18Z</time></trkpt>
<trkpt lat="55.425117000" lon="-3.334743000"><ele>774.6</ele><time>2010-08-29T11:50:22Z</time></trkpt>
<trkpt lat="55.425111000" lon="-3.334650000"><ele>774.5</ele><time>2010-08-29T11:50:26Z</time></trkpt>
<trkpt lat="55.425113000" lon="-3.334487000"><ele>774.5</ele><time>2010-08-29T11:50:34Z</time></trkpt>
<trkpt lat="55.425115000" lon="-3.334312000"><ele>774.3</ele><time>2010-08-29T11:50:42Z</time></trkpt>
<trkpt lat="55.425086000" lon="-3.334153000"><ele>774.1</ele><time>2010-08-29T11:50:51Z</time></trkpt>
<trkpt lat="55.425034000" lon="-3.334015000"><ele>773.9</ele><time>2010-08-29T11:51:12Z</time></trkpt>
<trkpt lat="55.425011000" lon="-3.333922000"><ele>773.7</ele><time>2010-08-29T11:51:16Z</time></trkpt>
<trkpt lat="55.424991000" lon="-3.333773000"><ele>773.5</ele><time>2010-08-29T11:51:21Z</time></trkpt>
<trkpt lat="55.424980000" lon="-3.333684000"><ele>773.5</ele><time>2010-08-29T11:51:25Z</time></trkpt>
<trkpt lat="55.424979000" lon="-3.333654000"><ele>773.4</ele><time>2010-08-29T11:51:28Z</time></trkpt>
<trkpt lat="55.424957000" lon="-3.333577000"><ele>773.3</ele><time>2010-08-29T11:51:34Z</time></trkpt>
<trkpt lat="55.424942000" lon="-3.333500000"><ele>773.2</ele><time>2010-08-29T11:51:38Z</time></trkpt>
<trkpt lat="55.424933000" lon="-3.333403000"><ele>773.1</ele><time>2010-08-29T11:51:42Z</time></trkpt>
<trkpt lat="55.424903000" lon="-3.333245000"><ele>773.0</ele><time>2010-08-29T11:51:50Z</time></trkpt>
<trkpt lat="55.424879000" lon="-3.333157000"><ele>773.4</ele><time>2010-08-29T11:51:54Z</time></trkpt>
<trkpt lat="55.424872000" lon="-3.333112000"><ele>773.7</ele><time>2010-08-29T11:51:56Z</time></trkpt>
<trkpt lat="55.424853000" lon="-3.333027000"><ele>774.1</ele><time>2010-08-29T11:52:00Z</time></trkpt>
<trkpt lat="55.424814000" lon="-3.332876000"><ele>774.5</ele><time>2010-08-29T11:52:09Z</time></trkpt>
<trkpt lat="55.424815000" lon="-3.332840000"><ele>774.8</ele><time>2010-08-29T11:52:11Z</time></trkpt>
<trkpt lat="55.424794000" lon="-3.332762000"><ele>775.2</ele><time>2010-08-29T11:52:16Z</time></trkpt>
<trkpt lat="55.424784000" lon="-3.332720000"><ele>775.5</ele><time>2010-08-29T11:52:18Z</time></trkpt>
<trkpt lat="55.424771000" lon="-3.332635000"><ele>775.9</ele><time>2010-08-29T11:52:22Z</time></trkpt>
<trkpt lat="55.424752000" lon="-3.332538000"><ele>776.3</ele><time>2010-08-29T11:52:27Z</time></trkpt>
<trkpt lat="55.424741000" lon="-3.332460000"><ele>776.6</ele><time>2010-08-29T11:52:31Z</time></trkpt>
<trkpt lat="55.424731000" lon="-3.332364000"><ele>777.0</ele><time>2010-08-29T11:52:36Z</time></trkpt>
<trkpt lat="55.424721000" lon="-3.332273000"><ele>777.4</ele><time>2010-08-29T11:52:41Z</time></trkpt>
<trkpt lat="55.424709000" lon="-3.332192000"><ele>777.7</ele><time>2010-08-29T11:52:45Z</time></trkpt>
<trkpt lat="55.424706000" lon="-3.332170000"><ele>777.9</ele><time>2010-08-29T11:52:46Z</time></trkpt>
<trkpt lat="55.424690000" lon="-3.332089000"><ele>778.1</ele><time>2010-08-29T11:52:50Z</time></trkpt>
<trkpt lat="55.424674000" lon="-3.331990000"><ele>778.3</ele><time>2010-08-29T11:52:55Z</time></trkpt>
<trkpt lat="55.424658000" lon="-3.331908000"><ele>778.5</ele><time>2010-08-29T11:52:59Z</time></trkpt>
<trkpt lat="55.424654000" lon="-3.331886000"><ele>778.6</ele><time>2010-08-29T11:53:00Z</time></trkpt>
<trkpt lat="55.424635000" lon="-3.331791000"><ele>778.8</ele><time>2010-08-29T11:53:04Z</time></trkpt>
<trkpt lat="55.424627000" lon="-3.331743000"><ele>779.0</ele><time>2010-08-29T11:53:06Z</time></trkpt>
<trkpt lat="55.424611000" lon="-3.331656000"><ele>779.5</ele><time>2010-08-29T11:53:10Z</time></trkpt>
<trkpt lat="55.424597000" lon="-3.331541000"><ele>780.1</ele><time>2010-08-29T11:53:15Z</time></trkpt>
<trkpt lat="55.424590000" lon="-3.331446000"><ele>780.3</ele><time>2010-08-29T11:53:19Z</time></trkpt>
<trkpt lat="55.424580000" lon="-3.331385000"><ele>780.5</ele><time>2010-08-29T11:53:22Z</time></trkpt>
<trkpt lat="55.424564000" lon="-3.331297000"><ele>780.8</ele><time>2010-08-29T11:53:26Z</time></trkpt>
<trkpt lat="55.424547000" lon="-3.331140000"><ele>781.2</ele><time>2010-08-29T11:53:32Z</time></trkpt>
<trkpt lat="55.424544000" lon="-3.331047000"><ele>781.5</ele><time>2010-08-29T11:53:35Z</time></trkpt>
<trkpt lat="55.424537000" lon="-3.330956000"><ele>781.9</ele><time>2010-08-29T11:53:38Z</time></trkpt>
<trkpt lat="55.424532000" lon="-3.330929000"><ele>782.3</ele><time>2010-08-29T11:53:39Z</time></trkpt>
<trkpt lat="55.424518000" lon="-3.330833000"><ele>782.6</ele><time>2010-08-29T11:53:43Z</time></trkpt>
<trkpt lat="55.424519000" lon="-3.330751000"><ele>783.0</ele><time>2010-08-29T11:53:49Z</time></trkpt>
<trkpt lat="55.424506000" lon="-3.330672000"><ele>783.5</ele><time>2010-08-29T11:53:53Z</time></trkpt>
<trkpt lat="55.424493000" lon="-3.330590000"><ele>783.9</ele><time>2010-08-29T11:53:57Z</time></trkpt>
<trkpt lat="55.424476000" lon="-3.330505000"><ele>784.4</ele><time>2010-08-29T11:54:03Z</time></trkpt>
<trkpt lat="55.424460000" lon="-3.330430000"><ele>784.8</ele><time>2010-08-29T11:54:07Z</time></trkpt>
<trkpt lat="55.424441000" lon="-3.330346000"><ele>785.3</ele><time>2010-08-29T11:54:11Z</time></trkpt>
<trkpt lat="55.424422000" lon="-3.330266000"><ele>785.7</ele><time>2010-08-29T11:54:15Z</time></trkpt>
<trkpt lat="55.424414000" lon="-3.330229000"><ele>786.2</ele><time>2010-08-29T11:54:17Z</time></trkpt>
<trkpt lat="55.424399000" lon="-3.330142000"><ele>786.6</ele><time>2010-08-29T11:54:21Z</time></trkpt>
<trkpt lat="55.424384000" lon="-3.330058000"><ele>787.1</ele><time>2010-08-29T11:54:25Z</time></trkpt>
<trkpt lat="55.424380000" lon="-3.330038000"><ele>787.5</ele><time>2010-08-29T11:54:26Z</time></trkpt>
<trkpt lat="55.424366000" lon="-3.329959000"><ele>788.0</ele><time>2010-08-29T11:54:30Z</time></trkpt>
<trkpt lat="55.424356000" lon="-3.329854000"><ele>788.2</ele><time>2010-08-29T11:54:35Z</time></trkpt>
<trkpt lat="55.424343000" lon="-3.329770000"><ele>788.4</ele><time>2010-08-29T11:54:39Z</time></trkpt>
<trkpt lat="55.424337000" lon="-3.329726000"><ele>788.5</ele><time>2010-08-29T11:54:41Z</time></trkpt>
<trkpt lat="55.424324000" lon="-3.329641000"><ele>788.7</ele><time>2010-08-29T11:54:45Z</time></trkpt>
<trkpt lat="55.424311000" lon="-3.329544000"><ele>788.9</ele><time>2010-08-29T11:54:49Z</time></trkpt>
<trkpt lat="55.424302000" lon="-3.329448000"><ele>789.1</ele><time>2010-08-29T11:54:53Z</time></trkpt>
<trkpt lat="55.424277000" lon="-3.329288000"><ele>789.3</ele><time>2010-08-29T11:55:00Z</time></trkpt>
<trkpt lat="55.424248000" lon="-3.329114000"><ele>789.5</ele><time>2010-08-29T11:55:07Z</time></trkpt>
<trkpt lat="55.424240000" lon="-3.329016000"><ele>789.9</ele><time>2010-08-29T11:55:11Z</time></trkpt>
<trkpt lat="55.424234000" lon="-3.328926000"><ele>790.4</ele><time>2010-08-29T11:55:15Z</time></trkpt>
<trkpt lat="55.424221000" lon="-3.328832000"><ele>790.8</ele><time>2010-08-29T11:55:19Z</time></trkpt>
<trkpt lat="55.424218000" lon="-3.328810000"><ele>791.1</ele><time>2010-08-29T11:55:20Z</time></trkpt>
<trkpt lat="55.424200000" lon="-3.328719000"><ele>791.4</ele><time>2010-08-29T11:55:24Z</time></trkpt>
<trkpt lat="55.424178000" lon="-3.328628000"><ele>791.6</ele><time>2010-08-29T11:55:28Z</time></trkpt>
<trkpt lat="55.424149000" lon="-3.328465000"><ele>791.9</ele><time>2010-08-29T11:55:35Z</time></trkpt>
<trkpt lat="55.424135000" lon="-3.328370000"><ele>792.2</ele><time>2010-08-29T11:55:39Z</time></trkpt>
<trkpt lat="55.424116000" lon="-3.328214000"><ele>792.5</ele><time>2010-08-29T11:55:45Z</time></trkpt>
<trkpt lat="55.424111000" lon="-3.328163000"><ele>792.8</ele><time>2010-08-29T11:55:47Z</time></trkpt>
<trkpt lat="55.424100000" lon="-3.328069000"><ele>793.2</ele><time>2010-08-29T11:55:51Z</time></trkpt>
<trkpt lat="55.424097000" lon="-3.328046000"><ele>793.3</ele><time>2010-08-29T11:55:52Z</time></trkpt>
<trkpt lat="55.424081000" lon="-3.327953000"><ele>793.4</ele><time>2010-08-29T11:55:56Z</time></trkpt>
<trkpt lat="55.424063000" lon="-3.327859000"><ele>793.5</ele><time>2010-08-29T11:56:00Z</time></trkpt>
<trkpt lat="55.424045000" lon="-3.327740000"><ele>793.5</ele><time>2010-08-29T11:56:05Z</time></trkpt>
<trkpt lat="55.424026000" lon="-3.327641000"><ele>793.8</ele><time>2010-08-29T11:56:09Z</time></trkpt>
<trkpt lat="55.424021000" lon="-3.327616000"><ele>794.1</ele><time>2010-08-29T11:56:10Z</time></trkpt>
<trkpt lat="55.424009000" lon="-3.327514000"><ele>794.4</ele><time>2010-08-29T11:56:14Z</time></trkpt>
<trkpt lat="55.423985000" lon="-3.327353000"><ele>794.6</ele><time>2010-08-29T11:56:21Z</time></trkpt>
<trkpt lat="55.423979000" lon="-3.327177000"><ele>794.9</ele><time>2010-08-29T11:56:28Z</time></trkpt>
<trkpt lat="55.423953000" lon="-3.327001000"><ele>795.1</ele><time>2010-08-29T11:56:36Z</time></trkpt>
<trkpt lat="55.423921000" lon="-3.326829000"><ele>795.3</ele><time>2010-08-29T11:56:43Z</time></trkpt>
<trkpt lat="55.423890000" lon="-3.326660000"><ele>795.5</ele><time>2010-08-29T11:56:51Z</time></trkpt>
<trkpt lat="55.423887000" lon="-3.326638000"><ele>795.6</ele><time>2010-08-29T11:56:52Z</time></trkpt>
<trkpt lat="55.423876000" lon="-3.326552000"><ele>795.8</ele><time>2010-08-29T11:56:56Z</time></trkpt>
<trkpt lat="55.423874000" lon="-3.326531000"><ele>796.1</ele><time>2010-08-29T11:56:57Z</time></trkpt>
<trkpt lat="55.423866000" lon="-3.326444000"><ele>796.2</ele><time>2010-08-29T11:57:01Z</time></trkpt>
<trkpt lat="55.423864000" lon="-3.326422000"><ele>796.3</ele><time>2010-08-29T11:57:02Z</time></trkpt>
<trkpt lat="55.423854000" lon="-3.326328000"><ele>796.4</ele><time>2010-08-29T11:57:06Z</time></trkpt>
<trkpt lat="55.423842000" lon="-3.326246000"><ele>796.5</ele><time>2010-08-29T11:57:08Z</time></trkpt>
<trkpt lat="55.423826000" lon="-3.326152000"><ele>797.5</ele><time>2010-08-29T11:57:11Z</time></trkpt>
<trkpt lat="55.423811000" lon="-3.326077000"><ele>798.5</ele><time>2010-08-29T11:57:14Z</time></trkpt>
<trkpt lat="55.423805000" lon="-3.326053000"><ele>799.5</ele><time>2010-08-29T11:57:15Z</time></trkpt>
<trkpt lat="55.423780000" lon="-3.325963000"><ele>800.5</ele><time>2010-08-29T11:57:19Z</time></trkpt>
<trkpt lat="55.423761000" lon="-3.325873000"><ele>801.8</ele><time>2010-08-29T11:57:23Z</time></trkpt>
<trkpt lat="55.423742000" lon="-3.325705000"><ele>803.2</ele><time>2010-08-29T11:57:31Z</time></trkpt>
<trkpt lat="55.423745000" lon="-3.325543000"><ele>804.5</ele><time>2010-08-29T11:57:40Z</time></trkpt>
<trkpt lat="55.423735000" lon="-3.325504000"><ele>805.7</ele><time>2010-08-29T11:57:42Z</time></trkpt>
<trkpt lat="55.423713000" lon="-3.325422000"><ele>807.0</ele><time>2010-08-29T11:57:46Z</time></trkpt>
<trkpt lat="55.423704000" lon="-3.325386000"><ele>808.3</ele><time>2010-08-29T11:57:48Z</time></trkpt>
<trkpt lat="55.423690000" lon="-3.325311000"><ele>809.5</ele><time>2010-08-29T11:57:52Z</time></trkpt>
<trkpt lat="55.423661000" lon="-3.325144000"><ele>810.0</ele><time>2010-08-29T11:58:01Z</time></trkpt>
<trkpt lat="55.423640000" lon="-3.324985000"><ele>810.5</ele><time>2010-08-29T11:58:09Z</time></trkpt>
<trkpt lat="55.423627000" lon="-3.324832000"><ele>810.9</ele><time>2010-08-29T11:58:16Z</time></trkpt>
<trkpt lat="55.423606000" lon="-3.324759000"><ele>811.4</ele><time>2010-08-29T11:58:20Z</time></trkpt>
<trkpt lat="55.423572000" lon="-3.324624000"><ele>811.5</ele><time>2010-08-29T11:58:27Z</time></trkpt>
<trkpt lat="55.423555000" lon="-3.324529000"><ele>811.5</ele><time>2010-08-29T11:58:31Z</time></trkpt>
<trkpt lat="55.423541000" lon="-3.324451000"><ele>811.6</ele><time>2010-08-29T11:58:35Z</time></trkpt>
<trkpt lat="55.423520000" lon="-3.324295000"><ele>811.7</ele><time>2010-08-29T11:58:43Z</time></trkpt>
<trkpt lat="55.423510000" lon="-3.324237000"><ele>812.0</ele><time>2010-08-29T11:58:46Z</time></trkpt>
<trkpt lat="55.423492000" lon="-3.324152000"><ele>812.3</ele><time>2010-08-29T11:58:50Z</time></trkpt>
<trkpt lat="55.423476000" lon="-3.323995000"><ele>812.5</ele><time>2010-08-29T11:58:59Z</time></trkpt>
<trkpt lat="55.423464000" lon="-3.323916000"><ele>812.7</ele><time>2010-08-29T11:59:03Z</time></trkpt>
<trkpt lat="55.423460000" lon="-3.323817000"><ele>812.9</ele><time>2010-08-29T11:59:07Z</time></trkpt>
<trkpt lat="55.423457000" lon="-3.323695000"><ele>813.1</ele><time>2010-08-29T11:59:12Z</time></trkpt>
<trkpt lat="55.423450000" lon="-3.323606000"><ele>813.3</ele><time>2010-08-29T11:59:16Z</time></trkpt>
<trkpt lat="55.423444000" lon="-3.323517000"><ele>813.5</ele><time>2010-08-29T11:59:20Z</time></trkpt>
<trkpt lat="55.423437000" lon="-3.323424000"><ele>813.6</ele><time>2010-08-29T11:59:24Z</time></trkpt>
<trkpt lat="55.423427000" lon="-3.323336000"><ele>813.8</ele><time>2010-08-29T11:59:28Z</time></trkpt>
<trkpt lat="55.423391000" lon="-3.323274000"><ele>814.0</ele><time>2010-08-29T11:59:33Z</time></trkpt>
<trkpt lat="55.423340000" lon="-3.323239000"><ele>814.0</ele><time>2010-08-29T11:59:37Z</time></trkpt>
<trkpt lat="55.423294000" lon="-3.323217000"><ele>814.0</ele><time>2010-08-29T11:59:41Z</time></trkpt>
<trkpt lat="55.423240000" lon="-3.323230000"><ele>814.0</ele><time>2010-08-29T11:59:46Z</time></trkpt>
<trkpt lat="55.423184000" lon="-3.323237000"><ele>814.0</ele><time>2010-08-29T11:59:51Z</time></trkpt>
<trkpt lat="55.423135000" lon="-3.323253000"><ele>814.3</ele><time>2010-08-29T11:59:55Z</time></trkpt>
<trkpt lat="55.423085000" lon="-3.323289000"><ele>814.5</ele><time>2010-08-29T11:59:59Z</time></trkpt>
<trkpt lat="55.423034000" lon="-3.323330000"><ele>814.8</ele><time>2010-08-29T12:00:03Z</time></trkpt>
<trkpt lat="55.422988000" lon="-3.323371000"><ele>815.1</ele><time>2010-08-29T12:00:07Z</time></trkpt>
<trkpt lat="55.422945000" lon="-3.323417000"><ele>815.4</ele><time>2010-08-29T12:00:11Z</time></trkpt>
<trkpt lat="55.422898000" lon="-3.323449000"><ele>815.6</ele><time>2010-08-29T12:00:15Z</time></trkpt>
<trkpt lat="55.422855000" lon="-3.323495000"><ele>815.9</ele><time>2010-08-29T12:00:19Z</time></trkpt>
<trkpt lat="55.422812000" lon="-3.323548000"><ele>816.2</ele><time>2010-08-29T12:00:23Z</time></trkpt>
<trkpt lat="55.422766000" lon="-3.323595000"><ele>816.5</ele><time>2010-08-29T12:00:27Z</time></trkpt>
<trkpt lat="55.422755000" lon="-3.323610000"><ele>816.7</ele><time>2010-08-29T12:00:28Z</time></trkpt>
<trkpt lat="55.422705000" lon="-3.323636000"><ele>817.0</ele><time>2010-08-29T12:00:32Z</time></trkpt>
<trkpt lat="55.422694000" lon="-3.323646000"><ele>817.0</ele><time>2010-08-29T12:00:33Z</time></trkpt>
<trkpt lat="55.422664000" lon="-3.323705000"><ele>817.0</ele><time>2010-08-29T12:00:37Z</time></trkpt>
<trkpt lat="55.422613000" lon="-3.323712000"><ele>817.0</ele><time>2010-08-29T12:01:56Z</time></trkpt>
<trkpt lat="55.422589000" lon="-3.323693000"><ele>817.0</ele><time>2010-08-29T12:01:58Z</time></trkpt>
<trkpt lat="55.422547000" lon="-3.323649000"><ele>817.0</ele><time>2010-08-29T12:02:04Z</time></trkpt>
<trkpt lat="55.422582000" lon="-3.323596000"><ele>817.0</ele><time>2010-08-29T12:05:05Z</time></trkpt>
<trkpt lat="55.422631000" lon="-3.323586000"><ele>817.0</ele><time>2010-08-29T12:06:21Z</time></trkpt>
<trkpt lat="55.422648000" lon="-3.323581000"><ele>817.0</ele><time>2010-08-29T12:06:23Z</time></trkpt>
<trkpt lat="55.422702000" lon="-3.323574000"><ele>817.0</ele><time>2010-08-29T12:06:32Z</time></trkpt>
<trkpt lat="55.422728000" lon="-3.323545000"><ele>816.7</ele><time>2010-08-29T12:06:34Z</time></trkpt>
<trkpt lat="55.422772000" lon="-3.323509000"><ele>816.5</ele><time>2010-08-29T12:06:37Z</time></trkpt>
<trkpt lat="55.422817000" lon="-3.323480000"><ele>816.2</ele><time>2010-08-29T12:06:40Z</time></trkpt>
<trkpt lat="55.422871000" lon="-3.323440000"><ele>815.9</ele><time>2010-08-29T12:06:44Z</time></trkpt>
<trkpt lat="55.422921000" lon="-3.323406000"><ele>815.6</ele><time>2010-08-29T12:06:48Z</time></trkpt>
<trkpt lat="55.422969000" lon="-3.323366000"><ele>815.4</ele><time>2010-08-29T12:06:52Z</time></trkpt>
<trkpt lat="55.423021000" lon="-3.323333000"><ele>815.1</ele><time>2010-08-29T12:06:56Z</time></trkpt>
<trkpt lat="55.423072000" lon="-3.323290000"><ele>814.8</ele><time>2010-08-29T12:07:00Z</time></trkpt>
<trkpt lat="55.423124000" lon="-3.323249000"><ele>814.5</ele><time>2010-08-29T12:07:04Z</time></trkpt>
<trkpt lat="55.423178000" lon="-3.323207000"><ele>814.3</ele><time>2010-08-29T12:07:08Z</time></trkpt>
<trkpt lat="55.423276000" lon="-3.323160000"><ele>814.0</ele><time>2010-08-29T12:07:15Z</time></trkpt>
<trkpt lat="55.423316000" lon="-3.323133000"><ele>814.0</ele><time>2010-08-29T12:07:18Z</time></trkpt>
<trkpt lat="55.423367000" lon="-3.323092000"><ele>813.5</ele><time>2010-08-29T12:07:22Z</time></trkpt>
<trkpt lat="55.423420000" lon="-3.323047000"><ele>813.1</ele><time>2010-08-29T12:07:26Z</time></trkpt>
<trkpt lat="55.423499000" lon="-3.322960000"><ele>812.6</ele><time>2010-08-29T12:07:34Z</time></trkpt>
<trkpt lat="55.423533000" lon="-3.322877000"><ele>812.2</ele><time>2010-08-29T12:07:39Z</time></trkpt>
<trkpt lat="55.423549000" lon="-3.322832000"><ele>811.7</ele><time>2010-08-29T12:07:41Z</time></trkpt>
<trkpt lat="55.423559000" lon="-3.322748000"><ele>811.3</ele><time>2010-08-29T12:07:45Z</time></trkpt>
<trkpt lat="55.423546000" lon="-3.322656000"><ele>810.8</ele><time>2010-08-29T12:07:50Z</time></trkpt>
<trkpt lat="55.423563000" lon="-3.322564000"><ele>810.4</ele><time>2010-08-29T12:07:59Z</time></trkpt>
<trkpt lat="55.423584000" lon="-3.322476000"><ele>809.9</ele><time>2010-08-29T12:08:03Z</time></trkpt>
<trkpt lat="55.423597000" lon="-3.322383000"><ele>809.5</ele><time>2010-08-29T12:08:07Z</time></trkpt>
<trkpt lat="55.423606000" lon="-3.322310000"><ele>808.5</ele><time>2010-08-29T12:08:10Z</time></trkpt>
<trkpt lat="55.423625000" lon="-3.322238000"><ele>807.6</ele><time>2010-08-29T12:08:14Z</time></trkpt>
<trkpt lat="55.423654000" lon="-3.322161000"><ele>806.7</ele><time>2010-08-29T12:08:18Z</time></trkpt>
<trkpt lat="55.423680000" lon="-3.322080000"><ele>805.8</ele><time>2010-08-29T12:08:22Z</time></trkpt>
<trkpt lat="55.423713000" lon="-3.321994000"><ele>804.9</ele><time>2010-08-29T12:08:26Z</time></trkpt>
<trkpt lat="55.423740000" lon="-3.321902000"><ele>804.0</ele><time>2010-08-29T12:08:30Z</time></trkpt>
<trkpt lat="55.423765000" lon="-3.321808000"><ele>803.1</ele><time>2010-08-29T12:08:34Z</time></trkpt>
<trkpt lat="55.423783000" lon="-3.321734000"><ele>802.2</ele><time>2010-08-29T12:08:37Z</time></trkpt>
<trkpt lat="55.423828000" lon="-3.321577000"><ele>800.7</ele><time>2010-08-29T12:08:44Z</time></trkpt>
<trkpt lat="55.423811000" lon="-3.321402000"><ele>799.3</ele><time>2010-08-29T12:08:51Z</time></trkpt>
<trkpt lat="55.423804000" lon="-3.321340000"><ele>797.8</ele><time>2010-08-29T12:08:54Z</time></trkpt>
<trkpt lat="55.423792000" lon="-3.321251000"><ele>796.8</ele><time>2010-08-29T12:08:58Z</time></trkpt>
<trkpt lat="55.423781000" lon="-3.321162000"><ele>796.5</ele><time>2010-08-29T12:09:02Z</time></trkpt>
<trkpt lat="55.423779000" lon="-3.321091000"><ele>796.3</ele><time>2010-08-29T12:09:05Z</time></trkpt>
<trkpt lat="55.423774000" lon="-3.321000000"><ele>796.0</ele><time>2010-08-29T12:09:09Z</time></trkpt>
<trkpt lat="55.423771000" lon="-3.320907000"><ele>795.7</ele><time>2010-08-29T12:09:13Z</time></trkpt>
<trkpt lat="55.423759000" lon="-3.320812000"><ele>795.5</ele><time>2010-08-29T12:09:17Z</time></trkpt>
<trkpt lat="55.423755000" lon="-3.320765000"><ele>794.4</ele><time>2010-08-29T12:09:19Z</time></trkpt>
<trkpt lat="55.423754000" lon="-3.320680000"><ele>793.3</ele><time>2010-08-29T12:09:23Z</time></trkpt>
<trkpt lat="55.423747000" lon="-3.320564000"><ele>792.7</ele><time>2010-08-29T12:09:29Z</time></trkpt>
<trkpt lat="55.423738000" lon="-3.320483000"><ele>792.2</ele><time>2010-08-29T12:09:33Z</time></trkpt>
<trkpt lat="55.423732000" lon="-3.320396000"><ele>791.6</ele><time>2010-08-29T12:09:37Z</time></trkpt>
<trkpt lat="55.423723000" lon="-3.320225000"><ele>791.1</ele><time>2010-08-29T12:09:45Z</time></trkpt>
<trkpt lat="55.423721000" lon="-3.320203000"><ele>790.3</ele><time>2010-08-29T12:09:46Z</time></trkpt>
<trkpt lat="55.423707000" lon="-3.320122000"><ele>789.5</ele><time>2010-08-29T12:09:51Z</time></trkpt>
<trkpt lat="55.423701000" lon="-3.320112000"><ele>788.6</ele><time>2010-08-29T12:09:52Z</time></trkpt>
<trkpt lat="55.423662000" lon="-3.320063000"><ele>787.8</ele><time>2010-08-29T12:09:56Z</time></trkpt>
<trkpt lat="55.423631000" lon="-3.320000000"><ele>787.0</ele><time>2010-08-29T12:10:00Z</time></trkpt>
<trkpt lat="55.423608000" lon="-3.319913000"><ele>787.0</ele><time>2010-08-29T12:10:05Z</time></trkpt>
<trkpt lat="55.423585000" lon="-3.319833000"><ele>787.0</ele><time>2010-08-29T12:10:09Z</time></trkpt>
<trkpt lat="55.423563000" lon="-3.319762000"><ele>785.9</ele><time>2010-08-29T12:10:13Z</time></trkpt>
<trkpt lat="55.423557000" lon="-3.319743000"><ele>784.8</ele><time>2010-08-29T12:10:14Z</time></trkpt>
<trkpt lat="55.423541000" lon="-3.319660000"><ele>783.7</ele><time>2010-08-29T12:10:18Z</time></trkpt>
<trkpt lat="55.423529000" lon="-3.319594000"><ele>782.6</ele><time>2010-08-29T12:10:23Z</time></trkpt>
<trkpt lat="55.423530000" lon="-3.319508000"><ele>781.5</ele><time>2010-08-29T12:10:27Z</time></trkpt>
<trkpt lat="55.423524000" lon="-3.319415000"><ele>780.5</ele><time>2010-08-29T12:10:31Z</time></trkpt>
<trkpt lat="55.423511000" lon="-3.319341000"><ele>779.4</ele><time>2010-08-29T12:10:34Z</time></trkpt>
<trkpt lat="55.423496000" lon="-3.319243000"><ele>778.3</ele><time>2010-08-29T12:10:38Z</time></trkpt>
<trkpt lat="55.423470000" lon="-3.319105000"><ele>777.2</ele><time>2010-08-29T12:10:44Z</time></trkpt>
<trkpt lat="55.423446000" lon="-3.319021000"><ele>774.9</ele><time>2010-08-29T12:10:49Z</time></trkpt>
<trkpt lat="55.423442000" lon="-3.319006000"><ele>772.6</ele><time>2010-08-29T12:10:50Z</time></trkpt>
<trkpt lat="55.423425000" lon="-3.318926000"><ele>771.5</ele><time>2010-08-29T12:10:53Z</time></trkpt>
<trkpt lat="55.423383000" lon="-3.318770000"><ele>770.3</ele><time>2010-08-29T12:11:00Z</time></trkpt>
<trkpt lat="55.423371000" lon="-3.318689000"><ele>769.1</ele><time>2010-08-29T12:11:04Z</time></trkpt>
<trkpt lat="55.423346000" lon="-3.318607000"><ele>767.9</ele><time>2010-08-29T12:11:09Z</time></trkpt>
<trkpt lat="55.423291000" lon="-3.318478000"><ele>766.7</ele><time>2010-08-29T12:11:21Z</time></trkpt>
<trkpt lat="55.423248000" lon="-3.318330000"><ele>765.5</ele><time>2010-08-29T12:11:34Z</time></trkpt>
<trkpt lat="55.423238000" lon="-3.318290000"><ele>763.0</ele><time>2010-08-29T12:11:37Z</time></trkpt>
<trkpt lat="55.423231000" lon="-3.318206000"><ele>760.5</ele><time>2010-08-29T12:11:44Z</time></trkpt>
<trkpt lat="55.423198000" lon="-3.318054000"><ele>757.9</ele><time>2010-08-29T12:12:00Z</time></trkpt>
<trkpt lat="55.423154000" lon="-3.317911000"><ele>756.5</ele><time>2010-08-29T12:12:21Z</time></trkpt>
<trkpt lat="55.423166000" lon="-3.317889000"><ele>755.2</ele><time>2010-08-29T12:12:25Z</time></trkpt>
<trkpt lat="55.423196000" lon="-3.317829000"><ele>753.8</ele><time>2010-08-29T12:12:31Z</time></trkpt>
<trkpt lat="55.423190000" lon="-3.317748000"><ele>752.5</ele><time>2010-08-29T12:12:38Z</time></trkpt>
<trkpt lat="55.423179000" lon="-3.317654000"><ele>751.1</ele><time>2010-08-29T12:12:44Z</time></trkpt>
<trkpt lat="55.423173000" lon="-3.317573000"><ele>749.7</ele><time>2010-08-29T12:12:48Z</time></trkpt>
<trkpt lat="55.423170000" lon="-3.317552000"><ele>748.4</ele><time>2010-08-29T12:12:49Z</time></trkpt>
<trkpt lat="55.423168000" lon="-3.317531000"><ele>747.0</ele><time>2010-08-29T12:12:50Z</time></trkpt>
<trkpt lat="55.423161000" lon="-3.317441000"><ele>747.0</ele><time>2010-08-29T12:12:56Z</time></trkpt>
<trkpt lat="55.423156000" lon="-3.317401000"><ele>747.0</ele><time>2010-08-29T12:12:59Z</time></trkpt>
<trkpt lat="55.423114000" lon="-3.317346000"><ele>745.5</ele><time>2010-08-29T12:13:05Z</time></trkpt>
<trkpt lat="55.423095000" lon="-3.317310000"><ele>744.1</ele><time>2010-08-29T12:13:08Z</time></trkpt>
<trkpt lat="55.423068000" lon="-3.317234000"><ele>742.6</ele><time>2010-08-29T12:13:13Z</time></trkpt>
<trkpt lat="55.423062000" lon="-3.317217000"><ele>739.9</ele><time>2010-08-29T12:13:14Z</time></trkpt>
<trkpt lat="55.423040000" lon="-3.317142000"><ele>737.2</ele><time>2010-08-29T12:13:18Z</time></trkpt>
<trkpt lat="55.423006000" lon="-3.316976000"><ele>734.5</ele><time>2010-08-29T12:13:26Z</time></trkpt>
<trkpt lat="55.422988000" lon="-3.316811000"><ele>730.6</ele><time>2010-08-29T12:13:34Z</time></trkpt>
<trkpt lat="55.422948000" lon="-3.316654000"><ele>726.8</ele><time>2010-08-29T12:13:43Z</time></trkpt>
<trkpt lat="55.422925000" lon="-3.316498000"><ele>723.0</ele><time>2010-08-29T12:13:59Z</time></trkpt>
<trkpt lat="55.422903000" lon="-3.316341000"><ele>719.2</ele><time>2010-08-29T12:14:14Z</time></trkpt>
<trkpt lat="55.422922000" lon="-3.316290000"><ele>715.4</ele><time>2010-08-29T12:14:17Z</time></trkpt>
<trkpt lat="55.422905000" lon="-3.316205000"><ele>713.0</ele><time>2010-08-29T12:14:24Z</time></trkpt>
<trkpt lat="55.422873000" lon="-3.316140000"><ele>710.6</ele><time>2010-08-29T12:14:30Z</time></trkpt>
<trkpt lat="55.422866000" lon="-3.316054000"><ele>708.3</ele><time>2010-08-29T12:14:35Z</time></trkpt>
<trkpt lat="55.422847000" lon="-3.315964000"><ele>707.2</ele><time>2010-08-29T12:14:39Z</time></trkpt>
<trkpt lat="55.422824000" lon="-3.315908000"><ele>706.1</ele><time>2010-08-29T12:14:43Z</time></trkpt>
<trkpt lat="55.422840000" lon="-3.315829000"><ele>703.8</ele><time>2010-08-29T12:14:54Z</time></trkpt>
<trkpt lat="55.422835000" lon="-3.315744000"><ele>702.6</ele><time>2010-08-29T12:15:03Z</time></trkpt>
<trkpt lat="55.422833000" lon="-3.315732000"><ele>701.5</ele><time>2010-08-29T12:15:04Z</time></trkpt>
<trkpt lat="55.422820000" lon="-3.315655000"><ele>700.3</ele><time>2010-08-29T12:15:09Z</time></trkpt>
<trkpt lat="55.422800000" lon="-3.315493000"><ele>699.1</ele><time>2010-08-29T12:15:17Z</time></trkpt>
<trkpt lat="55.422778000" lon="-3.315324000"><ele>697.9</ele><time>2010-08-29T12:15:26Z</time></trkpt>
<trkpt lat="55.422756000" lon="-3.315164000"><ele>696.7</ele><time>2010-08-29T12:15:39Z</time></trkpt>
<trkpt lat="55.422750000" lon="-3.315010000"><ele>694.3</ele><time>2010-08-29T12:15:50Z</time></trkpt>
<trkpt lat="55.422743000" lon="-3.314928000"><ele>691.8</ele><time>2010-08-29T12:15:55Z</time></trkpt>
<trkpt lat="55.422702000" lon="-3.314763000"><ele>689.4</ele><time>2010-08-29T12:16:04Z</time></trkpt>
<trkpt lat="55.422697000" lon="-3.314739000"><ele>686.9</ele><time>2010-08-29T12:16:05Z</time></trkpt>
<trkpt lat="55.422683000" lon="-3.314646000"><ele>685.6</ele><time>2010-08-29T12:16:09Z</time></trkpt>
<trkpt lat="55.422661000" lon="-3.314478000"><ele>684.4</ele><time>2010-08-29T12:16:16Z</time></trkpt>
<trkpt lat="55.422643000" lon="-3.314366000"><ele>683.1</ele><time>2010-08-29T12:16:23Z</time></trkpt>
<trkpt lat="55.422670000" lon="-3.314301000"><ele>681.8</ele><time>2010-08-29T12:16:30Z</time></trkpt>
<trkpt lat="55.422677000" lon="-3.314296000"><ele>680.5</ele><time>2010-08-29T12:16:31Z</time></trkpt>
<trkpt lat="55.422723000" lon="-3.314217000"><ele>677.9</ele><time>2010-08-29T12:16:44Z</time></trkpt>
<trkpt lat="55.422754000" lon="-3.314068000"><ele>675.3</ele><time>2010-08-29T12:16:58Z</time></trkpt>
<trkpt lat="55.422775000" lon="-3.313936000"><ele>673.9</ele><time>2010-08-29T12:17:09Z</time></trkpt>
<trkpt lat="55.422770000" lon="-3.313851000"><ele>672.5</ele><time>2010-08-29T12:17:14Z</time></trkpt>
<trkpt lat="55.422767000" lon="-3.313767000"><ele>671.2</ele><time>2010-08-29T12:17:22Z</time></trkpt>
<trkpt lat="55.422790000" lon="-3.313607000"><ele>669.8</ele><time>2010-08-29T12:17:33Z</time></trkpt>
<trkpt lat="55.422784000" lon="-3.313454000"><ele>668.5</ele><time>2010-08-29T12:17:43Z</time></trkpt>
<trkpt lat="55.422773000" lon="-3.313368000"><ele>667.1</ele><time>2010-08-29T12:17:51Z</time></trkpt>
<trkpt lat="55.422772000" lon="-3.313350000"><ele>665.0</ele><time>2010-08-29T12:17:56Z</time></trkpt>
<trkpt lat="55.422760000" lon="-3.313271000"><ele>662.9</ele><time>2010-08-29T12:18:09Z</time></trkpt>
<trkpt lat="55.422800000" lon="-3.313157000"><ele>660.8</ele><time>2010-08-29T12:18:21Z</time></trkpt>
<trkpt lat="55.422846000" lon="-3.313122000"><ele>660.1</ele><time>2010-08-29T12:18:25Z</time></trkpt>
<trkpt lat="55.422904000" lon="-3.313102000"><ele>659.4</ele><time>2010-08-29T12:18:28Z</time></trkpt>
<trkpt lat="55.422955000" lon="-3.313082000"><ele>658.6</ele><time>2010-08-29T12:18:33Z</time></trkpt>
<trkpt lat="55.423004000" lon="-3.313080000"><ele>657.9</ele><time>2010-08-29T12:18:40Z</time></trkpt>
<trkpt lat="55.423020000" lon="-3.313068000"><ele>657.2</ele><time>2010-08-29T12:18:43Z</time></trkpt>
<trkpt lat="55.423069000" lon="-3.313048000"><ele>656.5</ele><time>2010-08-29T12:18:57Z</time></trkpt>
<trkpt lat="55.423069000" lon="-3.313048000"><ele>655.7</ele><time>2010-08-29T12:19:01Z</time></trkpt>
<trkpt lat="55.423103000" lon="-3.312988000"><ele>655.0</ele><time>2010-08-29T12:20:34Z</time></trkpt>
<trkpt lat="55.423104000" lon="-3.312988000"><ele>655.0</ele><time>2010-08-29T12:20:35Z</time></trkpt>
<trkpt lat="55.423151000" lon="-3.312976000"><ele>655.0</ele><time>2010-08-29T12:20:56Z</time></trkpt>
<trkpt lat="55.423156000" lon="-3.312974000"><ele>655.0</ele><time>2010-08-29T12:20:57Z</time></trkpt>
<trkpt lat="55.423185000" lon="-3.312902000"><ele>655.0</ele><time>2010-08-29T12:21:53Z</time></trkpt>
<trkpt lat="55.423185000" lon="-3.312902000"><ele>655.0</ele><time>2010-08-29T12:21:54Z</time></trkpt>
<trkpt lat="55.423227000" lon="-3.312874000"><ele>655.0</ele><time>2010-08-29T12:22:08Z</time></trkpt>
<trkpt lat="55.423227000" lon="-3.312874000"><ele>655.0</ele><time>2010-08-29T12:22:24Z</time></trkpt>
<trkpt lat="55.423178000" lon="-3.312883000"><ele>653.1</ele><time>2010-08-29T12:22:43Z</time></trkpt>
<trkpt lat="55.423214000" lon="-3.312831000"><ele>651.2</ele><time>2010-08-29T12:23:27Z</time></trkpt>
<trkpt lat="55.423214000" lon="-3.312831000"><ele>649.3</ele><time>2010-08-29T12:23:31Z</time></trkpt>
<trkpt lat="55.423254000" lon="-3.312787000"><ele>647.4</ele><time>2010-08-29T12:23:42Z</time></trkpt>
<trkpt lat="55.423254000" lon="-3.312787000"><ele>645.5</ele><time>2010-08-29T12:23:54Z</time></trkpt>
<trkpt lat="55.423291000" lon="-3.312741000"><ele>643.5</ele><time>2010-08-29T12:24:08Z</time></trkpt>
<trkpt lat="55.423291000" lon="-3.312741000"><ele>641.6</ele><time>2010-08-29T12:24:12Z</time></trkpt>
<trkpt lat="55.423328000" lon="-3.312690000"><ele>639.7</ele><time>2010-08-29T12:24:30Z</time></trkpt>
<trkpt lat="55.423328000" lon="-3.312690000"><ele>637.8</ele><time>2010-08-29T12:24:33Z</time></trkpt>
<trkpt lat="55.423335000" lon="-3.312608000"><ele>635.9</ele><time>2010-08-29T12:25:05Z</time></trkpt>
<trkpt lat="55.423335000" lon="-3.312521000"><ele>634.0</ele><time>2010-08-29T12:25:12Z</time></trkpt>
<trkpt lat="55.423327000" lon="-3.312427000"><ele>634.0</ele><time>2010-08-29T12:25:17Z</time></trkpt>
<trkpt lat="55.423279000" lon="-3.312376000"><ele>634.0</ele><time>2010-08-29T12:25:36Z</time></trkpt>
<trkpt lat="55.423242000" lon="-3.312356000"><ele>634.0</ele><time>2010-08-29T12:25:40Z</time></trkpt>
<trkpt lat="55.423211000" lon="-3.312293000"><ele>632.1</ele><time>2010-08-29T12:25:46Z</time></trkpt>
<trkpt lat="55.423169000" lon="-3.312267000"><ele>630.2</ele><time>2010-08-29T12:25:53Z</time></trkpt>
<trkpt lat="55.423143000" lon="-3.312195000"><ele>628.3</ele><time>2010-08-29T12:26:00Z</time></trkpt>
<trkpt lat="55.423127000" lon="-3.312113000"><ele>626.4</ele><time>2010-08-29T12:26:08Z</time></trkpt>
<trkpt lat="55.423137000" lon="-3.312034000"><ele>624.5</ele><time>2010-08-29T12:26:14Z</time></trkpt>
<trkpt lat="55.423154000" lon="-3.311948000"><ele>622.5</ele><time>2010-08-29T12:26:35Z</time></trkpt>
<trkpt lat="55.423157000" lon="-3.311872000"><ele>620.6</ele><time>2010-08-29T12:26:40Z</time></trkpt>
<trkpt lat="55.423186000" lon="-3.311806000"><ele>618.7</ele><time>2010-08-29T12:26:52Z</time></trkpt>
<trkpt lat="55.423212000" lon="-3.311714000"><ele>616.8</ele><time>2010-08-29T12:27:01Z</time></trkpt>
<trkpt lat="55.423209000" lon="-3.311634000"><ele>614.9</ele><time>2010-08-29T12:27:10Z</time></trkpt>
<trkpt lat="55.423203000" lon="-3.311557000"><ele>613.0</ele><time>2010-08-29T12:27:18Z</time></trkpt>
<trkpt lat="55.423202000" lon="-3.311466000"><ele>613.0</ele><time>2010-08-29T12:27:52Z</time></trkpt>
<trkpt lat="55.423202000" lon="-3.311421000"><ele>611.6</ele><time>2010-08-29T12:27:55Z</time></trkpt>
<trkpt lat="55.423225000" lon="-3.311351000"><ele>610.3</ele><time>2010-08-29T12:28:02Z</time></trkpt>
<trkpt lat="55.423228000" lon="-3.311329000"><ele>608.9</ele><time>2010-08-29T12:28:05Z</time></trkpt>
<trkpt lat="55.423246000" lon="-3.311252000"><ele>607.5</ele><time>2010-08-29T12:28:15Z</time></trkpt>
<trkpt lat="55.423257000" lon="-3.311191000"><ele>606.2</ele><time>2010-08-29T12:28:28Z</time></trkpt>
<trkpt lat="55.423285000" lon="-3.311120000"><ele>604.8</ele><time>2010-08-29T12:28:33Z</time></trkpt>
<trkpt lat="55.423291000" lon="-3.310961000"><ele>603.5</ele><time>2010-08-29T12:28:54Z</time></trkpt>
<trkpt lat="55.423301000" lon="-3.310911000"><ele>600.6</ele><time>2010-08-29T12:29:00Z</time></trkpt>
<trkpt lat="55.423335000" lon="-3.310852000"><ele>597.8</ele><time>2010-08-29T12:29:07Z</time></trkpt>
<trkpt lat="55.423378000" lon="-3.310708000"><ele>595.0</ele><time>2010-08-29T12:29:21Z</time></trkpt>
<trkpt lat="55.423412000" lon="-3.310551000"><ele>592.2</ele><time>2010-08-29T12:29:31Z</time></trkpt>
<trkpt lat="55.423475000" lon="-3.310408000"><ele>590.7</ele><time>2010-08-29T12:29:40Z</time></trkpt>
<trkpt lat="55.423529000" lon="-3.310274000"><ele>589.3</ele><time>2010-08-29T12:29:50Z</time></trkpt>
<trkpt lat="55.423574000" lon="-3.310132000"><ele>587.8</ele><time>2010-08-29T12:30:03Z</time></trkpt>
<trkpt lat="55.423591000" lon="-3.309966000"><ele>585.2</ele><time>2010-08-29T12:30:16Z</time></trkpt>
<trkpt lat="55.423624000" lon="-3.309818000"><ele>582.5</ele><time>2010-08-29T12:30:27Z</time></trkpt>
<trkpt lat="55.423629000" lon="-3.309800000"><ele>579.9</ele><time>2010-08-29T12:30:28Z</time></trkpt>
<trkpt lat="55.423641000" lon="-3.309721000"><ele>577.3</ele><time>2010-08-29T12:30:32Z</time></trkpt>
<trkpt lat="55.423657000" lon="-3.309583000"><ele>576.1</ele><time>2010-08-29T12:30:40Z</time></trkpt>
<trkpt lat="55.423648000" lon="-3.309494000"><ele>574.9</ele><time>2010-08-29T12:30:45Z</time></trkpt>
<trkpt lat="55.423646000" lon="-3.309481000"><ele>573.7</ele><time>2010-08-29T12:30:46Z</time></trkpt>
<trkpt lat="55.423653000" lon="-3.309389000"><ele>572.5</ele><time>2010-08-29T12:30:52Z</time></trkpt>
<trkpt lat="55.423654000" lon="-3.309345000"><ele>571.4</ele><time>2010-08-29T12:30:57Z</time></trkpt>
<trkpt lat="55.423674000" lon="-3.309268000"><ele>570.2</ele><time>2010-08-29T12:31:04Z</time></trkpt>
<trkpt lat="55.423650000" lon="-3.309157000"><ele>567.7</ele><time>2010-08-29T12:31:30Z</time></trkpt>
<trkpt lat="55.423658000" lon="-3.309073000"><ele>566.5</ele><time>2010-08-29T12:31:37Z</time></trkpt>
<trkpt lat="55.423651000" lon="-3.308990000"><ele>565.2</ele><time>2010-08-29T12:32:55Z</time></trkpt>
<trkpt lat="55.423647000" lon="-3.308910000"><ele>563.9</ele><time>2010-08-29T12:33:01Z</time></trkpt>
<trkpt lat="55.423633000" lon="-3.308817000"><ele>562.6</ele><time>2010-08-29T12:33:08Z</time></trkpt>
<trkpt lat="55.423593000" lon="-3.308650000"><ele>561.4</ele><time>2010-08-29T12:33:20Z</time></trkpt>
<trkpt lat="55.423559000" lon="-3.308491000"><ele>560.1</ele><time>2010-08-29T12:33:26Z</time></trkpt>
<trkpt lat="55.423492000" lon="-3.308363000"><ele>558.8</ele><time>2010-08-29T12:33:33Z</time></trkpt>
<trkpt lat="55.423485000" lon="-3.308350000"><ele>557.5</ele><time>2010-08-29T12:33:34Z</time></trkpt>
<trkpt lat="55.423515000" lon="-3.308314000"><ele>556.3</ele><time>2010-08-29T12:33:36Z</time></trkpt>
<trkpt lat="55.423560000" lon="-3.308267000"><ele>555.0</ele><time>2010-08-29T12:33:38Z</time></trkpt>
<trkpt lat="55.423590000" lon="-3.308203000"><ele>554.2</ele><time>2010-08-29T12:33:41Z</time></trkpt>
<trkpt lat="55.423582000" lon="-3.308124000"><ele>553.4</ele><time>2010-08-29T12:33:46Z</time></trkpt>
<trkpt lat="55.423561000" lon="-3.308066000"><ele>552.5</ele><time>2010-08-29T12:33:52Z</time></trkpt>
<trkpt lat="55.423552000" lon="-3.307982000"><ele>551.7</ele><time>2010-08-29T12:33:57Z</time></trkpt>
<trkpt lat="55.423526000" lon="-3.307919000"><ele>550.9</ele><time>2010-08-29T12:34:02Z</time></trkpt>
<trkpt lat="55.423499000" lon="-3.307850000"><ele>550.1</ele><time>2010-08-29T12:34:08Z</time></trkpt>
<trkpt lat="55.423505000" lon="-3.307785000"><ele>549.3</ele><time>2010-08-29T12:34:13Z</time></trkpt>
<trkpt lat="55.423486000" lon="-3.307713000"><ele>548.5</ele><time>2010-08-29T12:34:20Z</time></trkpt>
<trkpt lat="55.423456000" lon="-3.307641000"><ele>547.6</ele><time>2010-08-29T12:34:29Z</time></trkpt>
<trkpt lat="55.423442000" lon="-3.307558000"><ele>546.8</ele><time>2010-08-29T12:34:36Z</time></trkpt>
<trkpt lat="55.423423000" lon="-3.307522000"><ele>546.0</ele><time>2010-08-29T12:34:39Z</time></trkpt>
<trkpt lat="55.423392000" lon="-3.307463000"><ele>546.0</ele><time>2010-08-29T12:34:43Z</time></trkpt>
<trkpt lat="55.423380000" lon="-3.307368000"><ele>546.0</ele><time>2010-08-29T12:34:51Z</time></trkpt>
<trkpt lat="55.423350000" lon="-3.307307000"><ele>546.0</ele><time>2010-08-29T12:35:03Z</time></trkpt>
<trkpt lat="55.423345000" lon="-3.307297000"><ele>546.0</ele><time>2010-08-29T12:35:04Z</time></trkpt>
<trkpt lat="55.423295000" lon="-3.307294000"><ele>546.0</ele><time>2010-08-29T12:35:18Z</time></trkpt>
<trkpt lat="55.423256000" lon="-3.307255000"><ele>546.0</ele><time>2010-08-29T12:35:42Z</time></trkpt>
<trkpt lat="55.423256000" lon="-3.307255000"><ele>546.0</ele><time>2010-08-29T12:35:45Z</time></trkpt>
<trkpt lat="55.423230000" lon="-3.307187000"><ele>546.0</ele><time>2010-08-29T12:36:57Z</time></trkpt>
<trkpt lat="55.423230000" lon="-3.307187000"><ele>546.0</ele><time>2010-08-29T12:36:58Z</time></trkpt>
<trkpt lat="55.423247000" lon="-3.307260000"><ele>546.0</ele><time>2010-08-29T12:37:14Z</time></trkpt>
<trkpt lat="55.423247000" lon="-3.307260000"><ele>546.0</ele><time>2010-08-29T12:37:15Z</time></trkpt>
<trkpt lat="55.423223000" lon="-3.307192000"><ele>545.2</ele><time>2010-08-29T12:38:50Z</time></trkpt>
<trkpt lat="55.423243000" lon="-3.307264000"><ele>544.4</ele><time>2010-08-29T12:42:10Z</time></trkpt>
<trkpt lat="55.423250000" lon="-3.307179000"><ele>543.5</ele><time>2010-08-29T12:42:45Z</time></trkpt>
<trkpt lat="55.423209000" lon="-3.307122000"><ele>542.7</ele><time>2010-08-29T12:42:50Z</time></trkpt>
<trkpt lat="55.423173000" lon="-3.307047000"><ele>541.9</ele><time>2010-08-29T12:42:56Z</time></trkpt>
<trkpt lat="55.423139000" lon="-3.306992000"><ele>541.1</ele><time>2010-08-29T12:43:00Z</time></trkpt>
<trkpt lat="55.423119000" lon="-3.306902000"><ele>540.3</ele><time>2010-08-29T12:43:05Z</time></trkpt>
<trkpt lat="55.423105000" lon="-3.306816000"><ele>539.5</ele><time>2010-08-29T12:43:10Z</time></trkpt>
<trkpt lat="55.423096000" lon="-3.306726000"><ele>538.6</ele><time>2010-08-29T12:43:15Z</time></trkpt>
<trkpt lat="55.423092000" lon="-3.306685000"><ele>537.8</ele><time>2010-08-29T12:43:17Z</time></trkpt>
<trkpt lat="55.423076000" lon="-3.306602000"><ele>537.0</ele><time>2010-08-29T12:43:21Z</time></trkpt>
<trkpt lat="55.423042000" lon="-3.306463000"><ele>537.0</ele><time>2010-08-29T12:43:28Z</time></trkpt>
<trkpt lat="55.423035000" lon="-3.306381000"><ele>536.8</ele><time>2010-08-29T12:43:33Z</time></trkpt>
<trkpt lat="55.423018000" lon="-3.306303000"><ele>536.6</ele><time>2010-08-29T12:43:38Z</time></trkpt>
<trkpt lat="55.423001000" lon="-3.306260000"><ele>536.5</ele><time>2010-08-29T12:43:42Z</time></trkpt>
<trkpt lat="55.422956000" lon="-3.306235000"><ele>536.3</ele><time>2010-08-29T12:43:56Z</time></trkpt>
<trkpt lat="55.422947000" lon="-3.306222000"><ele>536.1</ele><time>2010-08-29T12:43:58Z</time></trkpt>
<trkpt lat="55.422923000" lon="-3.306147000"><ele>535.9</ele><time>2010-08-29T12:44:03Z</time></trkpt>
<trkpt lat="55.422922000" lon="-3.306134000"><ele>535.7</ele><time>2010-08-29T12:44:04Z</time></trkpt>
<trkpt lat="55.422918000" lon="-3.306039000"><ele>535.5</ele><time>2010-08-29T12:44:12Z</time></trkpt>
<trkpt lat="55.422913000" lon="-3.306019000"><ele>535.4</ele><time>2010-08-29T12:44:13Z</time></trkpt>
<trkpt lat="55.422889000" lon="-3.305938000"><ele>535.2</ele><time>2010-08-29T12:44:17Z</time></trkpt>
<trkpt lat="55.422880000" lon="-3.305870000"><ele>535.0</ele><time>2010-08-29T12:44:21Z</time></trkpt>
<trkpt lat="55.422877000" lon="-3.305778000"><ele>535.0</ele><time>2010-08-29T12:44:26Z</time></trkpt>
<trkpt lat="55.422860000" lon="-3.305696000"><ele>535.4</ele><time>2010-08-29T12:44:31Z</time></trkpt>
<trkpt lat="55.422855000" lon="-3.305673000"><ele>535.7</ele><time>2010-08-29T12:44:32Z</time></trkpt>
<trkpt lat="55.422835000" lon="-3.305590000"><ele>536.1</ele><time>2010-08-29T12:44:36Z</time></trkpt>
<trkpt lat="55.422818000" lon="-3.305510000"><ele>536.5</ele><time>2010-08-29T12:44:40Z</time></trkpt>
<trkpt lat="55.422790000" lon="-3.305430000"><ele>536.8</ele><time>2010-08-29T12:44:45Z</time></trkpt>
<trkpt lat="55.422768000" lon="-3.305359000"><ele>537.2</ele><time>2010-08-29T12:44:51Z</time></trkpt>
<trkpt lat="55.422762000" lon="-3.305331000"><ele>537.5</ele><time>2010-08-29T12:44:53Z</time></trkpt>
<trkpt lat="55.422757000" lon="-3.305237000"><ele>537.9</ele><time>2010-08-29T12:44:58Z</time></trkpt>
<trkpt lat="55.422756000" lon="-3.305219000"><ele>538.3</ele><time>2010-08-29T12:44:59Z</time></trkpt>
<trkpt lat="55.422746000" lon="-3.305138000"><ele>538.6</ele><time>2010-08-29T12:45:04Z</time></trkpt>
<trkpt lat="55.422745000" lon="-3.305126000"><ele>539.0</ele><time>2010-08-29T12:45:05Z</time></trkpt>
<trkpt lat="55.422724000" lon="-3.305046000"><ele>539.0</ele><time>2010-08-29T12:45:10Z</time></trkpt>
<trkpt lat="55.422719000" lon="-3.305030000"><ele>539.0</ele><time>2010-08-29T12:45:11Z</time></trkpt>
<trkpt lat="55.422690000" lon="-3.304970000"><ele>539.2</ele><time>2010-08-29T12:45:16Z</time></trkpt>
<trkpt lat="55.422680000" lon="-3.304810000"><ele>539.4</ele><time>2010-08-29T12:45:26Z</time></trkpt>
<trkpt lat="55.422678000" lon="-3.304768000"><ele>539.5</ele><time>2010-08-29T12:45:29Z</time></trkpt>
<trkpt lat="55.422668000" lon="-3.304676000"><ele>539.7</ele><time>2010-08-29T12:45:35Z</time></trkpt>
<trkpt lat="55.422654000" lon="-3.304596000"><ele>539.9</ele><time>2010-08-29T12:45:40Z</time></trkpt>
<trkpt lat="55.422626000" lon="-3.304473000"><ele>540.1</ele><time>2010-08-29T12:45:47Z</time></trkpt>
<trkpt lat="55.422632000" lon="-3.304383000"><ele>540.3</ele><time>2010-08-29T12:45:51Z</time></trkpt>
<trkpt lat="55.422630000" lon="-3.304291000"><ele>540.5</ele><time>2010-08-29T12:45:55Z</time></trkpt>
<trkpt lat="55.422616000" lon="-3.304202000"><ele>540.6</ele><time>2010-08-29T12:45:59Z</time></trkpt>
<trkpt lat="55.422607000" lon="-3.304116000"><ele>540.8</ele><time>2010-08-29T12:46:04Z</time></trkpt>
<trkpt lat="55.422606000" lon="-3.304101000"><ele>541.3</ele><time>2010-08-29T12:46:05Z</time></trkpt>
<trkpt lat="55.422607000" lon="-3.304018000"><ele>541.5</ele><time>2010-08-29T12:46:09Z</time></trkpt>
<trkpt lat="55.422606000" lon="-3.303992000"><ele>541.8</ele><time>2010-08-29T12:46:10Z</time></trkpt>
<trkpt lat="55.422608000" lon="-3.303901000"><ele>542.1</ele><time>2010-08-29T12:46:15Z</time></trkpt>
<trkpt lat="55.422613000" lon="-3.303807000"><ele>542.4</ele><time>2010-08-29T12:46:20Z</time></trkpt>
<trkpt lat="55.422628000" lon="-3.303726000"><ele>542.6</ele><time>2010-08-29T12:46:27Z</time></trkpt>
<trkpt lat="55.422630000" lon="-3.303717000"><ele>542.9</ele><time>2010-08-29T12:46:28Z</time></trkpt>
<trkpt lat="55.422645000" lon="-3.303632000"><ele>543.2</ele><time>2010-08-29T12:46:34Z</time></trkpt>
<trkpt lat="55.422669000" lon="-3.303464000"><ele>543.5</ele><time>2010-08-29T12:46:43Z</time></trkpt>
<trkpt lat="55.422674000" lon="-3.303405000"><ele>543.7</ele><time>2010-08-29T12:46:50Z</time></trkpt>
<trkpt lat="55.422700000" lon="-3.303319000"><ele>544.0</ele><time>2010-08-29T12:46:55Z</time></trkpt>
<trkpt lat="55.422709000" lon="-3.303224000"><ele>544.0</ele><time>2010-08-29T12:47:00Z</time></trkpt>
<trkpt lat="55.422726000" lon="-3.303132000"><ele>544.0</ele><time>2010-08-29T12:47:05Z</time></trkpt>
<trkpt lat="55.422746000" lon="-3.303094000"><ele>544.0</ele><time>2010-08-29T12:47:08Z</time></trkpt>
<trkpt lat="55.422788000" lon="-3.303041000"><ele>543.2</ele><time>2010-08-29T12:47:14Z</time></trkpt>
<trkpt lat="55.422825000" lon="-3.302980000"><ele>541.2</ele><time>2010-08-29T12:47:20Z</time></trkpt>
<trkpt lat="55.422849000" lon="-3.302908000"><ele>539.2</ele><time>2010-08-29T12:47:25Z</time></trkpt>
<trkpt lat="55.422858000" lon="-3.302882000"><ele>537.2</ele><time>2010-08-29T12:47:27Z</time></trkpt>
<trkpt lat="55.422894000" lon="-3.302813000"><ele>535.2</ele><time>2010-08-29T12:47:33Z</time></trkpt>
<trkpt lat="55.422933000" lon="-3.302756000"><ele>533.2</ele><time>2010-08-29T12:47:40Z</time></trkpt>
<trkpt lat="55.422937000" lon="-3.302747000"><ele>531.2</ele><time>2010-08-29T12:47:41Z</time></trkpt>
<trkpt lat="55.422971000" lon="-3.302681000"><ele>529.2</ele><time>2010-08-29T12:47:49Z</time></trkpt>
<trkpt lat="55.423005000" lon="-3.302595000"><ele>527.2</ele><time>2010-08-29T12:47:54Z</time></trkpt>
<trkpt lat="55.423016000" lon="-3.302575000"><ele>525.2</ele><time>2010-08-29T12:47:55Z</time></trkpt>
<trkpt lat="55.423044000" lon="-3.302506000"><ele>523.2</ele><time>2010-08-29T12:48:00Z</time></trkpt>
<trkpt lat="55.423056000" lon="-3.302482000"><ele>522.0</ele><time>2010-08-29T12:48:02Z</time></trkpt>
<trkpt lat="55.423089000" lon="-3.302428000"><ele>522.0</ele><time>2010-08-29T12:48:09Z</time></trkpt>
<trkpt lat="55.423120000" lon="-3.302358000"><ele>522.0</ele><time>2010-08-29T12:48:16Z</time></trkpt>
<trkpt lat="55.423120000" lon="-3.302358000"><ele>522.0</ele><time>2010-08-29T12:48:18Z</time></trkpt>
<trkpt lat="55.423169000" lon="-3.302323000"><ele>522.0</ele><time>2010-08-29T12:48:31Z</time></trkpt>
<trkpt lat="55.423191000" lon="-3.302298000"><ele>522.0</ele><time>2010-08-29T12:48:34Z</time></trkpt>
<trkpt lat="55.423227000" lon="-3.302228000"><ele>521.2</ele><time>2010-08-29T12:48:39Z</time></trkpt>
<trkpt lat="55.423231000" lon="-3.302211000"><ele>520.4</ele><time>2010-08-29T12:48:40Z</time></trkpt>
<trkpt lat="55.423247000" lon="-3.302125000"><ele>519.5</ele><time>2010-08-29T12:48:45Z</time></trkpt>
<trkpt lat="55.423249000" lon="-3.302106000"><ele>518.7</ele><time>2010-08-29T12:48:46Z</time></trkpt>
<trkpt lat="55.423235000" lon="-3.302017000"><ele>517.9</ele><time>2010-08-29T12:48:52Z</time></trkpt>
<trkpt lat="55.423240000" lon="-3.301932000"><ele>517.1</ele><time>2010-08-29T12:48:58Z</time></trkpt>
<trkpt lat="55.423257000" lon="-3.301909000"><ele>516.3</ele><time>2010-08-29T12:49:01Z</time></trkpt>
<trkpt lat="55.423300000" lon="-3.301859000"><ele>515.5</ele><time>2010-08-29T12:49:07Z</time></trkpt>
<trkpt lat="55.423327000" lon="-3.301789000"><ele>514.6</ele><time>2010-08-29T12:49:13Z</time></trkpt>
<trkpt lat="55.423341000" lon="-3.301667000"><ele>513.8</ele><time>2010-08-29T12:49:25Z</time></trkpt>
<trkpt lat="55.423342000" lon="-3.301655000"><ele>513.0</ele><time>2010-08-29T12:49:26Z</time></trkpt>
<trkpt lat="55.423367000" lon="-3.301573000"><ele>513.0</ele><time>2010-08-29T12:49:33Z</time></trkpt>
<trkpt lat="55.423377000" lon="-3.301530000"><ele>512.2</ele><time>2010-08-29T12:49:36Z</time></trkpt>
<trkpt lat="55.423405000" lon="-3.301425000"><ele>511.4</ele><time>2010-08-29T12:49:49Z</time></trkpt>
<trkpt lat="55.423429000" lon="-3.301348000"><ele>510.5</ele><time>2010-08-29T12:49:53Z</time></trkpt>
<trkpt lat="55.423454000" lon="-3.301266000"><ele>509.7</ele><time>2010-08-29T12:49:57Z</time></trkpt>
<trkpt lat="55.423466000" lon="-3.301158000"><ele>508.9</ele><time>2010-08-29T12:50:02Z</time></trkpt>
<trkpt lat="55.423472000" lon="-3.301069000"><ele>508.1</ele><time>2010-08-29T12:50:08Z</time></trkpt>
<trkpt lat="55.423482000" lon="-3.301022000"><ele>507.3</ele><time>2010-08-29T12:50:12Z</time></trkpt>
<trkpt lat="55.423508000" lon="-3.300942000"><ele>506.5</ele><time>2010-08-29T12:50:17Z</time></trkpt>
<trkpt lat="55.423525000" lon="-3.300866000"><ele>505.6</ele><time>2010-08-29T12:50:22Z</time></trkpt>
<trkpt lat="55.423551000" lon="-3.300749000"><ele>503.9</ele><time>2010-08-29T12:50:32Z</time></trkpt>
<trkpt lat="55.423578000" lon="-3.300682000"><ele>502.2</ele><time>2010-08-29T12:50:37Z</time></trkpt>
<trkpt lat="55.423590000" lon="-3.300589000"><ele>501.3</ele><time>2010-08-29T12:50:43Z</time></trkpt>
<trkpt lat="55.423602000" lon="-3.300510000"><ele>500.4</ele><time>2010-08-29T12:50:48Z</time></trkpt>
<trkpt lat="55.423606000" lon="-3.300419000"><ele>499.5</ele><time>2010-08-29T12:50:54Z</time></trkpt>
<trkpt lat="55.423617000" lon="-3.300316000"><ele>498.5</ele><time>2010-08-29T12:50:59Z</time></trkpt>
<trkpt lat="55.423624000" lon="-3.300234000"><ele>497.6</ele><time>2010-08-29T12:51:03Z</time></trkpt>
<trkpt lat="55.423637000" lon="-3.300150000"><ele>496.7</ele><time>2010-08-29T12:51:08Z</time></trkpt>
<trkpt lat="55.423647000" lon="-3.300060000"><ele>495.8</ele><time>2010-08-29T12:51:15Z</time></trkpt>
<trkpt lat="55.423668000" lon="-3.299977000"><ele>494.9</ele><time>2010-08-29T12:51:22Z</time></trkpt>
<trkpt lat="55.423682000" lon="-3.299896000"><ele>493.3</ele><time>2010-08-29T12:51:30Z</time></trkpt>
<trkpt lat="55.423694000" lon="-3.299807000"><ele>491.6</ele><time>2010-08-29T12:51:36Z</time></trkpt>
<trkpt lat="55.423715000" lon="-3.299730000"><ele>490.0</ele><time>2010-08-29T12:51:42Z</time></trkpt>
<trkpt lat="55.423726000" lon="-3.299645000"><ele>488.4</ele><time>2010-08-29T12:51:47Z</time></trkpt>
<trkpt lat="55.423741000" lon="-3.299568000"><ele>486.7</ele><time>2010-08-29T12:51:52Z</time></trkpt>
<trkpt lat="55.423752000" lon="-3.299490000"><ele>485.1</ele><time>2010-08-29T12:51:58Z</time></trkpt>
<trkpt lat="55.423779000" lon="-3.299420000"><ele>483.5</ele><time>2010-08-29T12:52:03Z</time></trkpt>
<trkpt lat="55.423817000" lon="-3.299376000"><ele>481.8</ele><time>2010-08-29T12:52:11Z</time></trkpt>
<trkpt lat="55.423817000" lon="-3.299376000"><ele>480.2</ele><time>2010-08-29T12:52:12Z</time></trkpt>
<trkpt lat="55.423828000" lon="-3.299267000"><ele>478.5</ele><time>2010-08-29T12:52:19Z</time></trkpt>
<trkpt lat="55.423831000" lon="-3.299232000"><ele>476.9</ele><time>2010-08-29T12:52:20Z</time></trkpt>
<trkpt lat="55.423840000" lon="-3.299151000"><ele>476.0</ele><time>2010-08-29T12:52:23Z</time></trkpt>
<trkpt lat="55.423829000" lon="-3.299056000"><ele>475.3</ele><time>2010-08-29T12:52:27Z</time></trkpt>
<trkpt lat="55.423837000" lon="-3.298878000"><ele>474.5</ele><time>2010-08-29T12:52:36Z</time></trkpt>
<trkpt lat="55.423846000" lon="-3.298817000"><ele>473.8</ele><time>2010-08-29T12:52:39Z</time></trkpt>
<trkpt lat="55.423867000" lon="-3.298746000"><ele>473.1</ele><time>2010-08-29T12:52:43Z</time></trkpt>
<trkpt lat="55.423871000" lon="-3.298731000"><ele>472.4</ele><time>2010-08-29T12:52:44Z</time></trkpt>
<trkpt lat="55.423872000" lon="-3.298645000"><ele>471.6</ele><time>2010-08-29T12:52:49Z</time></trkpt>
<trkpt lat="55.423873000" lon="-3.298560000"><ele>470.9</ele><time>2010-08-29T12:52:53Z</time></trkpt>
<trkpt lat="55.423893000" lon="-3.298470000"><ele>470.2</ele><time>2010-08-29T12:52:58Z</time></trkpt>
<trkpt lat="55.423923000" lon="-3.298380000"><ele>469.5</ele><time>2010-08-29T12:53:03Z</time></trkpt>
<trkpt lat="55.423940000" lon="-3.298297000"><ele>468.7</ele><time>2010-08-29T12:53:07Z</time></trkpt>
<trkpt lat="55.423962000" lon="-3.298209000"><ele>468.0</ele><time>2010-08-29T12:53:12Z</time></trkpt>
<trkpt lat="55.423972000" lon="-3.298130000"><ele>467.8</ele><time>2010-08-29T12:53:16Z</time></trkpt>
<trkpt lat="55.423976000" lon="-3.298115000"><ele>467.6</ele><time>2010-08-29T12:53:17Z</time></trkpt>
<trkpt lat="55.423995000" lon="-3.298035000"><ele>467.5</ele><time>2010-08-29T12:53:23Z</time></trkpt>
<trkpt lat="55.423996000" lon="-3.297973000"><ele>467.3</ele><time>2010-08-29T12:53:27Z</time></trkpt>
<trkpt lat="55.424009000" lon="-3.297893000"><ele>467.1</ele><time>2010-08-29T12:53:32Z</time></trkpt>
<trkpt lat="55.424017000" lon="-3.297844000"><ele>466.9</ele><time>2010-08-29T12:53:35Z</time></trkpt>
<trkpt lat="55.424035000" lon="-3.297751000"><ele>466.7</ele><time>2010-08-29T12:53:40Z</time></trkpt>
<trkpt lat="55.424045000" lon="-3.297713000"><ele>466.5</ele><time>2010-08-29T12:53:42Z</time></trkpt>
<trkpt lat="55.424063000" lon="-3.297639000"><ele>466.4</ele><time>2010-08-29T12:53:46Z</time></trkpt>
<trkpt lat="55.424076000" lon="-3.297562000"><ele>466.2</ele><time>2010-08-29T12:53:50Z</time></trkpt>
<trkpt lat="55.424118000" lon="-3.297518000"><ele>466.0</ele><time>2010-08-29T12:53:57Z</time></trkpt>
<trkpt lat="55.424152000" lon="-3.297571000"><ele>466.0</ele><time>2010-08-29T12:54:01Z</time></trkpt>
<trkpt lat="55.424167000" lon="-3.297599000"><ele>466.2</ele><time>2010-08-29T12:54:03Z</time></trkpt>
<trkpt lat="55.424201000" lon="-3.297681000"><ele>466.4</ele><time>2010-08-29T12:54:07Z</time></trkpt>
<trkpt lat="55.424238000" lon="-3.297737000"><ele>466.4</ele><time>2010-08-29T12:54:11Z</time></trkpt>
<trkpt lat="55.424272000" lon="-3.297802000"><ele>466.4</ele><time>2010-08-29T12:54:17Z</time></trkpt>
<trkpt lat="55.424278000" lon="-3.297816000"><ele>466.4</ele><time>2010-08-29T12:54:18Z</time></trkpt>
<trkpt lat="55.424319000" lon="-3.297864000"><ele>466.4</ele><time>2010-08-29T12:54:24Z</time></trkpt>
<trkpt lat="55.424324000" lon="-3.297869000"><ele>466.4</ele><time>2010-08-29T12:54:28Z</time></trkpt>
<trkpt lat="55.424366000" lon="-3.297772000"><ele>466.4</ele><time>2010-08-29T12:55:50Z</time></trkpt>
<trkpt lat="55.424412000" lon="-3.297743000"><ele>466.4</ele><time>2010-08-29T12:57:15Z</time></trkpt>
<trkpt lat="55.424420000" lon="-3.297729000"><ele>466.4</ele><time>2010-08-29T12:57:21Z</time></trkpt>
<trkpt lat="55.424431000" lon="-3.297645000"><ele>466.4</ele><time>2010-08-29T12:57:35Z</time></trkpt>
<trkpt lat="55.424441000" lon="-3.297562000"><ele>466.2</ele><time>2010-08-29T12:57:41Z</time></trkpt>
<trkpt lat="55.424457000" lon="-3.297485000"><ele>466.0</ele><time>2010-08-29T12:57:49Z</time></trkpt>
<trkpt lat="55.424474000" lon="-3.297407000"><ele>466.0</ele><time>2010-08-29T12:57:57Z</time></trkpt>
<trkpt lat="55.424482000" lon="-3.297373000"><ele>466.0</ele><time>2010-08-29T12:58:04Z</time></trkpt>
<trkpt lat="55.424462000" lon="-3.297289000"><ele>466.0</ele><time>2010-08-29T12:58:40Z</time></trkpt>
<trkpt lat="55.424444000" lon="-3.297260000"><ele>466.0</ele><time>2010-08-29T12:58:42Z</time></trkpt>
<trkpt lat="55.424416000" lon="-3.297181000"><ele>465.8</ele><time>2010-08-29T12:58:46Z</time></trkpt>
<trkpt lat="55.424384000" lon="-3.297118000"><ele>465.6</ele><time>2010-08-29T12:58:51Z</time></trkpt>
<trkpt lat="55.424343000" lon="-3.297079000"><ele>465.5</ele><time>2010-08-29T12:58:57Z</time></trkpt>
<trkpt lat="55.424337000" lon="-3.297078000"><ele>465.3</ele><time>2010-08-29T12:58:58Z</time></trkpt>
<trkpt lat="55.424286000" lon="-3.297068000"><ele>465.1</ele><time>2010-08-29T12:59:05Z</time></trkpt>
<trkpt lat="55.424242000" lon="-3.297012000"><ele>464.9</ele><time>2010-08-29T12:59:16Z</time></trkpt>
<trkpt lat="55.424194000" lon="-3.296968000"><ele>464.7</ele><time>2010-08-29T12:59:25Z</time></trkpt>
<trkpt lat="55.424123000" lon="-3.296902000"><ele>464.5</ele><time>2010-08-29T12:59:30Z</time></trkpt>
<trkpt lat="55.424072000" lon="-3.296865000"><ele>464.4</ele><time>2010-08-29T12:59:34Z</time></trkpt>
<trkpt lat="55.424045000" lon="-3.296854000"><ele>464.2</ele><time>2010-08-29T12:59:39Z</time></trkpt>
<trkpt lat="55.424002000" lon="-3.296794000"><ele>464.0</ele><time>2010-08-29T12:59:45Z</time></trkpt>
<trkpt lat="55.423961000" lon="-3.296741000"><ele>464.0</ele><time>2010-08-29T12:59:50Z</time></trkpt>
<trkpt lat="55.423911000" lon="-3.296713000"><ele>463.0</ele><time>2010-08-29T12:59:56Z</time></trkpt>
<trkpt lat="55.423904000" lon="-3.296705000"><ele>462.0</ele><time>2010-08-29T12:59:57Z</time></trkpt>
<trkpt lat="55.423859000" lon="-3.296654000"><ele>461.0</ele><time>2010-08-29T13:00:03Z</time></trkpt>
<trkpt lat="55.423831000" lon="-3.296632000"><ele>460.0</ele><time>2010-08-29T13:00:09Z</time></trkpt>
<trkpt lat="55.423786000" lon="-3.296610000"><ele>459.0</ele><time>2010-08-29T13:00:13Z</time></trkpt>
<trkpt lat="55.423740000" lon="-3.296568000"><ele>458.0</ele><time>2010-08-29T13:00:17Z</time></trkpt>
<trkpt lat="55.423706000" lon="-3.296528000"><ele>456.9</ele><time>2010-08-29T13:00:20Z</time></trkpt>
<trkpt lat="55.423669000" lon="-3.296466000"><ele>455.8</ele><time>2010-08-29T13:00:24Z</time></trkpt>
<trkpt lat="55.423644000" lon="-3.296391000"><ele>454.7</ele><time>2010-08-29T13:00:28Z</time></trkpt>
<trkpt lat="55.423623000" lon="-3.296304000"><ele>453.6</ele><time>2010-08-29T13:00:33Z</time></trkpt>
<trkpt lat="55.423603000" lon="-3.296255000"><ele>452.5</ele><time>2010-08-29T13:00:36Z</time></trkpt>
<trkpt lat="55.423573000" lon="-3.296181000"><ele>452.5</ele><time>2010-08-29T13:00:40Z</time></trkpt>
<trkpt lat="55.423553000" lon="-3.296139000"><ele>452.4</ele><time>2010-08-29T13:00:43Z</time></trkpt>
<trkpt lat="55.423503000" lon="-3.296088000"><ele>452.3</ele><time>2010-08-29T13:00:49Z</time></trkpt>
<trkpt lat="55.423491000" lon="-3.296075000"><ele>452.2</ele><time>2010-08-29T13:00:50Z</time></trkpt>
<trkpt lat="55.423447000" lon="-3.296007000"><ele>452.1</ele><time>2010-08-29T13:00:54Z</time></trkpt>
<trkpt lat="55.423429000" lon="-3.295934000"><ele>452.0</ele><time>2010-08-29T13:00:59Z</time></trkpt>
<trkpt lat="55.423406000" lon="-3.295864000"><ele>452.0</ele><time>2010-08-29T13:01:04Z</time></trkpt>
<trkpt lat="55.423370000" lon="-3.295790000"><ele>452.0</ele><time>2010-08-29T13:01:09Z</time></trkpt>
<trkpt lat="55.423323000" lon="-3.295771000"><ele>452.0</ele><time>2010-08-29T13:01:14Z</time></trkpt>
<trkpt lat="55.423317000" lon="-3.295766000"><ele>452.0</ele><time>2010-08-29T13:01:15Z</time></trkpt>
<trkpt lat="55.423277000" lon="-3.295722000"><ele>452.0</ele><time>2010-08-29T13:01:21Z</time></trkpt>
<trkpt lat="55.423273000" lon="-3.295713000"><ele>452.0</ele><time>2010-08-29T13:01:22Z</time></trkpt>
<trkpt lat="55.423231000" lon="-3.295679000"><ele>451.8</ele><time>2010-08-29T13:01:28Z</time></trkpt>
<trkpt lat="55.423186000" lon="-3.295629000"><ele>451.6</ele><time>2010-08-29T13:01:34Z</time></trkpt>
<trkpt lat="55.423168000" lon="-3.295556000"><ele>451.5</ele><time>2010-08-29T13:01:38Z</time></trkpt>
<trkpt lat="55.423171000" lon="-3.295474000"><ele>451.3</ele><time>2010-08-29T13:01:41Z</time></trkpt>
<trkpt lat="55.423168000" lon="-3.295393000"><ele>451.1</ele><time>2010-08-29T13:01:46Z</time></trkpt>
<trkpt lat="55.423162000" lon="-3.295301000"><ele>450.9</ele><time>2010-08-29T13:01:52Z</time></trkpt>
<trkpt lat="55.423153000" lon="-3.295220000"><ele>450.7</ele><time>2010-08-29T13:01:57Z</time></trkpt>
<trkpt lat="55.423152000" lon="-3.295205000"><ele>450.5</ele><time>2010-08-29T13:01:58Z</time></trkpt>
<trkpt lat="55.423109000" lon="-3.295166000"><ele>450.4</ele><time>2010-08-29T13:02:04Z</time></trkpt>
<trkpt lat="55.423109000" lon="-3.295166000"><ele>448.5</ele><time>2010-08-29T13:02:06Z</time></trkpt>
<trkpt lat="55.423063000" lon="-3.295181000"><ele>446.5</ele><time>2010-08-29T13:02:18Z</time></trkpt>
<trkpt lat="55.423052000" lon="-3.295182000"><ele>444.8</ele><time>2010-08-29T13:02:19Z</time></trkpt>
<trkpt lat="55.423002000" lon="-3.295188000"><ele>443.1</ele><time>2010-08-29T13:02:24Z</time></trkpt>
<trkpt lat="55.422960000" lon="-3.295148000"><ele>441.4</ele><time>2010-08-29T13:02:32Z</time></trkpt>
<trkpt lat="55.422897000" lon="-3.295012000"><ele>439.6</ele><time>2010-08-29T13:02:43Z</time></trkpt>
<trkpt lat="55.422899000" lon="-3.295000000"><ele>437.9</ele><time>2010-08-29T13:02:44Z</time></trkpt>
<trkpt lat="55.422902000" lon="-3.294919000"><ele>436.2</ele><time>2010-08-29T13:02:48Z</time></trkpt>
<trkpt lat="55.422879000" lon="-3.294840000"><ele>434.5</ele><time>2010-08-29T13:02:55Z</time></trkpt>
<trkpt lat="55.422840000" lon="-3.294782000"><ele>432.7</ele><time>2010-08-29T13:03:01Z</time></trkpt>
<trkpt lat="55.422811000" lon="-3.294730000"><ele>431.0</ele><time>2010-08-29T13:03:05Z</time></trkpt>
<trkpt lat="55.422776000" lon="-3.294678000"><ele>431.0</ele><time>2010-08-29T13:03:10Z</time></trkpt>
<trkpt lat="55.422731000" lon="-3.294671000"><ele>431.0</ele><time>2010-08-29T13:03:19Z</time></trkpt>
<trkpt lat="55.422701000" lon="-3.294618000"><ele>431.0</ele><time>2010-08-29T13:03:25Z</time></trkpt>
<trkpt lat="55.422679000" lon="-3.294537000"><ele>431.0</ele><time>2010-08-29T13:03:31Z</time></trkpt>
<trkpt lat="55.422676000" lon="-3.294522000"><ele>431.0</ele><time>2010-08-29T13:03:32Z</time></trkpt>
<trkpt lat="55.422630000" lon="-3.294493000"><ele>431.0</ele><time>2010-08-29T13:03:39Z</time></trkpt>
<trkpt lat="55.422610000" lon="-3.294467000"><ele>431.0</ele><time>2010-08-29T13:03:42Z</time></trkpt>
<trkpt lat="55.422578000" lon="-3.294411000"><ele>431.0</ele><time>2010-08-29T13:03:46Z</time></trkpt>
<trkpt lat="55.422531000" lon="-3.294356000"><ele>431.0</ele><time>2010-08-29T13:03:51Z</time></trkpt>
<trkpt lat="55.422489000" lon="-3.294308000"><ele>431.0</ele><time>2010-08-29T13:03:58Z</time></trkpt>
<trkpt lat="55.422448000" lon="-3.294266000"><ele>431.0</ele><time>2010-08-29T13:04:05Z</time></trkpt>
<trkpt lat="55.422404000" lon="-3.294138000"><ele>431.0</ele><time>2010-08-29T13:04:14Z</time></trkpt>
<trkpt lat="55.422363000" lon="-3.294082000"><ele>431.0</ele><time>2010-08-29T13:04:19Z</time></trkpt>
<trkpt lat="55.422340000" lon="-3.294047000"><ele>430.9</ele><time>2010-08-29T13:04:22Z</time></trkpt>
<trkpt lat="55.422296000" lon="-3.293991000"><ele>430.8</ele><time>2010-08-29T13:04:27Z</time></trkpt>
<trkpt lat="55.422271000" lon="-3.293948000"><ele>430.7</ele><time>2010-08-29T13:04:31Z</time></trkpt>
<trkpt lat="55.422266000" lon="-3.293860000"><ele>430.6</ele><time>2010-08-29T13:04:40Z</time></trkpt>
<trkpt lat="55.422254000" lon="-3.293748000"><ele>430.5</ele><time>2010-08-29T13:04:46Z</time></trkpt>
<trkpt lat="55.422230000" lon="-3.293657000"><ele>430.5</ele><time>2010-08-29T13:05:03Z</time></trkpt>
<trkpt lat="55.422204000" lon="-3.293619000"><ele>430.4</ele><time>2010-08-29T13:05:07Z</time></trkpt>
<trkpt lat="55.422199000" lon="-3.293540000"><ele>430.3</ele><time>2010-08-29T13:05:14Z</time></trkpt>
<trkpt lat="55.422198000" lon="-3.293490000"><ele>430.2</ele><time>2010-08-29T13:05:18Z</time></trkpt>
<trkpt lat="55.422202000" lon="-3.293407000"><ele>430.1</ele><time>2010-08-29T13:05:26Z</time></trkpt>
<trkpt lat="55.422230000" lon="-3.293266000"><ele>430.0</ele><time>2010-08-29T13:05:36Z</time></trkpt>
<trkpt lat="55.422247000" lon="-3.293185000"><ele>430.0</ele><time>2010-08-29T13:05:41Z</time></trkpt>
<trkpt lat="55.422258000" lon="-3.293153000"><ele>430.0</ele><time>2010-08-29T13:05:43Z</time></trkpt>
<trkpt lat="55.422285000" lon="-3.293067000"><ele>430.0</ele><time>2010-08-29T13:05:48Z</time></trkpt>
<trkpt lat="55.422289000" lon="-3.292985000"><ele>430.0</ele><time>2010-08-29T13:05:53Z</time></trkpt>
<trkpt lat="55.422288000" lon="-3.292954000"><ele>430.0</ele><time>2010-08-29T13:05:55Z</time></trkpt>
<trkpt lat="55.422287000" lon="-3.292872000"><ele>430.0</ele><time>2010-08-29T13:06:00Z</time></trkpt>
<trkpt lat="55.422283000" lon="-3.292826000"><ele>430.0</ele><time>2010-08-29T13:06:02Z</time></trkpt>
<trkpt lat="55.422267000" lon="-3.292744000"><ele>430.0</ele><time>2010-08-29T13:06:06Z</time></trkpt>
<trkpt lat="55.422247000" lon="-3.292643000"><ele>430.0</ele><time>2010-08-29T13:06:11Z</time></trkpt>
<trkpt lat="55.422241000" lon="-3.292551000"><ele>430.0</ele><time>2010-08-29T13:06:16Z</time></trkpt>
<trkpt lat="55.422242000" lon="-3.292533000"><ele>430.0</ele><time>2010-08-29T13:06:17Z</time></trkpt>
<trkpt lat="55.422253000" lon="-3.292455000"><ele>430.0</ele><time>2010-08-29T13:06:21Z</time></trkpt>
<trkpt lat="55.422280000" lon="-3.292385000"><ele>430.0</ele><time>2010-08-29T13:06:25Z</time></trkpt>
<trkpt lat="55.422300000" lon="-3.292309000"><ele>431.9</ele><time>2010-08-29T13:06:29Z</time></trkpt>
<trkpt lat="55.422290000" lon="-3.292215000"><ele>433.8</ele><time>2010-08-29T13:06:33Z</time></trkpt>
<trkpt lat="55.422275000" lon="-3.292125000"><ele>435.7</ele><time>2010-08-29T13:06:37Z</time></trkpt>
<trkpt lat="55.422257000" lon="-3.292055000"><ele>437.6</ele><time>2010-08-29T13:06:40Z</time></trkpt>
<trkpt lat="55.422251000" lon="-3.291966000"><ele>439.5</ele><time>2010-08-29T13:06:44Z</time></trkpt>
<trkpt lat="55.422243000" lon="-3.291866000"><ele>433.1</ele><time>2010-08-29T13:06:49Z</time></trkpt>
<trkpt lat="55.422241000" lon="-3.291781000"><ele>426.6</ele><time>2010-08-29T13:06:53Z</time></trkpt>
<trkpt lat="55.422247000" lon="-3.291702000"><ele>420.2</ele><time>2010-08-29T13:06:59Z</time></trkpt>
<trkpt lat="55.422249000" lon="-3.291673000"><ele>413.7</ele><time>2010-08-29T13:07:03Z</time></trkpt>
<trkpt lat="55.422211000" lon="-3.291626000"><ele>407.3</ele><time>2010-08-29T13:07:14Z</time></trkpt>
<trkpt lat="55.422204000" lon="-3.291546000"><ele>400.8</ele><time>2010-08-29T13:07:20Z</time></trkpt>
<trkpt lat="55.422227000" lon="-3.291469000"><ele>392.5</ele><time>2010-08-29T13:07:24Z</time></trkpt>
<trkpt lat="55.422256000" lon="-3.291407000"><ele>384.1</ele><time>2010-08-29T13:07:28Z</time></trkpt>
<trkpt lat="55.422278000" lon="-3.291330000"><ele>375.7</ele><time>2010-08-29T13:07:33Z</time></trkpt>
<trkpt lat="55.422291000" lon="-3.291250000"><ele>367.4</ele><time>2010-08-29T13:07:46Z</time></trkpt>
<trkpt lat="55.422273000" lon="-3.291147000"><ele>359.0</ele><time>2010-08-29T13:07:56Z</time></trkpt>
<trkpt lat="55.422251000" lon="-3.291073000"><ele>359.0</ele><time>2010-08-29T13:08:00Z</time></trkpt>
<trkpt lat="55.422221000" lon="-3.291002000"><ele>359.0</ele><time>2010-08-29T13:08:04Z</time></trkpt>
<trkpt lat="55.422198000" lon="-3.290924000"><ele>357.9</ele><time>2010-08-29T13:08:08Z</time></trkpt>
<trkpt lat="55.422188000" lon="-3.290881000"><ele>356.8</ele><time>2010-08-29T13:08:10Z</time></trkpt>
<trkpt lat="55.422179000" lon="-3.290800000"><ele>355.7</ele><time>2010-08-29T13:08:16Z</time></trkpt>
<trkpt lat="55.422153000" lon="-3.290723000"><ele>354.6</ele><time>2010-08-29T13:08:28Z</time></trkpt>
<trkpt lat="55.422115000" lon="-3.290588000"><ele>351.8</ele><time>2010-08-29T13:08:38Z</time></trkpt>
<trkpt lat="55.422088000" lon="-3.290518000"><ele>349.0</ele><time>2010-08-29T13:08:47Z</time></trkpt>
<trkpt lat="55.422080000" lon="-3.290496000"><ele>346.2</ele><time>2010-08-29T13:08:50Z</time></trkpt>
<trkpt lat="55.422060000" lon="-3.290414000"><ele>343.4</ele><time>2010-08-29T13:08:58Z</time></trkpt>
<trkpt lat="55.422045000" lon="-3.290366000"><ele>340.5</ele><time>2010-08-29T13:09:02Z</time></trkpt>
<trkpt lat="55.422028000" lon="-3.290276000"><ele>337.7</ele><time>2010-08-29T13:09:08Z</time></trkpt>
<trkpt lat="55.422013000" lon="-3.290228000"><ele>334.9</ele><time>2010-08-29T13:09:11Z</time></trkpt>
<trkpt lat="55.421977000" lon="-3.290166000"><ele>333.2</ele><time>2010-08-29T13:09:18Z</time></trkpt>
<trkpt lat="55.421940000" lon="-3.290099000"><ele>331.5</ele><time>2010-08-29T13:09:22Z</time></trkpt>
<trkpt lat="55.421922000" lon="-3.290025000"><ele>329.7</ele><time>2010-08-29T13:09:26Z</time></trkpt>
<trkpt lat="55.421908000" lon="-3.289944000"><ele>328.0</ele><time>2010-08-29T13:09:30Z</time></trkpt>
<trkpt lat="55.421895000" lon="-3.289866000"><ele>328.0</ele><time>2010-08-29T13:09:35Z</time></trkpt>
<trkpt lat="55.421889000" lon="-3.289776000"><ele>329.2</ele><time>2010-08-29T13:09:50Z</time></trkpt>
<trkpt lat="55.421845000" lon="-3.289733000"><ele>330.4</ele><time>2010-08-29T13:09:56Z</time></trkpt>
<trkpt lat="55.421790000" lon="-3.289645000"><ele>331.5</ele><time>2010-08-29T13:10:04Z</time></trkpt>
<trkpt lat="55.421753000" lon="-3.289594000"><ele>332.7</ele><time>2010-08-29T13:10:09Z</time></trkpt>
<trkpt lat="55.421729000" lon="-3.289568000"><ele>333.9</ele><time>2010-08-29T13:10:33Z</time></trkpt>
<trkpt lat="55.421717000" lon="-3.289488000"><ele>335.1</ele><time>2010-08-29T13:10:38Z</time></trkpt>
<trkpt lat="55.421706000" lon="-3.289452000"><ele>336.3</ele><time>2010-08-29T13:10:43Z</time></trkpt>
<trkpt lat="55.421673000" lon="-3.289389000"><ele>337.5</ele><time>2010-08-29T13:10:54Z</time></trkpt>
<trkpt lat="55.421670000" lon="-3.289385000"><ele>338.6</ele><time>2010-08-29T13:10:55Z</time></trkpt>
<trkpt lat="55.421629000" lon="-3.289336000"><ele>339.8</ele><time>2010-08-29T13:11:02Z</time></trkpt>
<trkpt lat="55.421600000" lon="-3.289308000"><ele>341.0</ele><time>2010-08-29T13:11:07Z</time></trkpt>
<trkpt lat="55.421570000" lon="-3.289244000"><ele>341.0</ele><time>2010-08-29T13:11:14Z</time></trkpt>
<trkpt lat="55.421566000" lon="-3.289237000"><ele>341.0</ele><time>2010-08-29T13:11:15Z</time></trkpt>
<trkpt lat="55.421523000" lon="-3.289195000"><ele>341.0</ele><time>2010-08-29T13:11:22Z</time></trkpt>
<trkpt lat="55.421450000" lon="-3.289099000"><ele>341.0</ele><time>2010-08-29T13:11:45Z</time></trkpt>
<trkpt lat="55.421418000" lon="-3.289063000"><ele>337.4</ele><time>2010-08-29T13:11:58Z</time></trkpt>
<trkpt lat="55.421400000" lon="-3.288976000"><ele>333.7</ele><time>2010-08-29T13:12:04Z</time></trkpt>
<trkpt lat="55.421365000" lon="-3.288923000"><ele>330.1</ele><time>2010-08-29T13:12:10Z</time></trkpt>
<trkpt lat="55.421323000" lon="-3.288879000"><ele>327.7</ele><time>2010-08-29T13:12:17Z</time></trkpt>
<trkpt lat="55.421311000" lon="-3.288858000"><ele>325.4</ele><time>2010-08-29T13:12:22Z</time></trkpt>
<trkpt lat="55.421282000" lon="-3.288790000"><ele>323.0</ele><time>2010-08-29T13:12:28Z</time></trkpt>
<trkpt lat="55.421253000" lon="-3.288721000"><ele>320.6</ele><time>2010-08-29T13:12:40Z</time></trkpt>
<trkpt lat="55.421214000" lon="-3.288681000"><ele>318.3</ele><time>2010-08-29T13:12:48Z</time></trkpt>
<trkpt lat="55.421155000" lon="-3.288555000"><ele>315.9</ele><time>2010-08-29T13:12:59Z</time></trkpt>
<trkpt lat="55.421150000" lon="-3.288547000"><ele>313.5</ele><time>2010-08-29T13:13:05Z</time></trkpt>
<trkpt lat="55.421106000" lon="-3.288527000"><ele>311.2</ele><time>2010-08-29T13:13:20Z</time></trkpt>
<trkpt lat="55.421061000" lon="-3.288502000"><ele>312.5</ele><time>2010-08-29T13:13:28Z</time></trkpt>
<trkpt lat="55.420941000" lon="-3.288420000"><ele>313.7</ele><time>2010-08-29T13:13:47Z</time></trkpt>
<trkpt lat="55.420941000" lon="-3.288420000"><ele>315.0</ele><time>2010-08-29T13:13:54Z</time></trkpt>
<trkpt lat="55.420906000" lon="-3.288368000"><ele>315.0</ele><time>2010-08-29T13:13:59Z</time></trkpt>
<trkpt lat="55.420866000" lon="-3.288320000"><ele>315.0</ele><time>2010-08-29T13:14:05Z</time></trkpt>
<trkpt lat="55.420818000" lon="-3.288278000"><ele>315.0</ele><time>2010-08-29T13:14:10Z</time></trkpt>
<trkpt lat="55.420794000" lon="-3.288115000"><ele>315.9</ele><time>2010-08-29T13:14:17Z</time></trkpt>
<trkpt lat="55.420780000" lon="-3.288034000"><ele>316.8</ele><time>2010-08-29T13:14:21Z</time></trkpt>
<trkpt lat="55.420744000" lon="-3.287984000"><ele>317.7</ele><time>2010-08-29T13:14:27Z</time></trkpt>
<trkpt lat="55.420707000" lon="-3.287921000"><ele>318.6</ele><time>2010-08-29T13:14:34Z</time></trkpt>
<trkpt lat="55.420666000" lon="-3.287873000"><ele>315.0</ele><time>2010-08-29T13:14:41Z</time></trkpt>
<trkpt lat="55.420621000" lon="-3.287826000"><ele>311.4</ele><time>2010-08-29T13:14:48Z</time></trkpt>
<trkpt lat="55.420583000" lon="-3.287771000"><ele>307.7</ele><time>2010-08-29T13:14:53Z</time></trkpt>
<trkpt lat="55.420512000" lon="-3.287660000"><ele>304.1</ele><time>2010-08-29T13:15:13Z</time></trkpt>
<trkpt lat="55.420496000" lon="-3.287616000"><ele>300.5</ele><time>2010-08-29T13:15:17Z</time></trkpt>
<trkpt lat="55.420454000" lon="-3.287563000"><ele>296.8</ele><time>2010-08-29T13:15:26Z</time></trkpt>
<trkpt lat="55.420404000" lon="-3.287556000"><ele>293.2</ele><time>2010-08-29T13:15:33Z</time></trkpt>
<trkpt lat="55.420353000" lon="-3.287538000"><ele>288.6</ele><time>2010-08-29T13:15:38Z</time></trkpt>
<trkpt lat="55.420309000" lon="-3.287509000"><ele>284.1</ele><time>2010-08-29T13:15:43Z</time></trkpt>
<trkpt lat="55.420299000" lon="-3.287429000"><ele>279.5</ele><time>2010-08-29T13:15:49Z</time></trkpt>
<trkpt lat="55.420299000" lon="-3.287429000"><ele>275.0</ele><time>2010-08-29T13:15:52Z</time></trkpt>
<trkpt lat="55.420286000" lon="-3.287346000"><ele>275.0</ele><time>2010-08-29T13:16:22Z</time></trkpt>
<trkpt lat="55.420276000" lon="-3.287327000"><ele>275.0</ele><time>2010-08-29T13:16:24Z</time></trkpt>
<trkpt lat="55.420233000" lon="-3.287292000"><ele>275.0</ele><time>2010-08-29T13:16:32Z</time></trkpt>
<trkpt lat="55.420185000" lon="-3.287275000"><ele>275.0</ele><time>2010-08-29T13:16:39Z</time></trkpt>
<trkpt lat="55.420178000" lon="-3.287272000"><ele>275.8</ele><time>2010-08-29T13:16:40Z</time></trkpt>
<trkpt lat="55.420132000" lon="-3.287239000"><ele>276.6</ele><time>2010-08-29T13:16:44Z</time></trkpt>
<trkpt lat="55.420059000" lon="-3.287123000"><ele>277.5</ele><time>2010-08-29T13:16:53Z</time></trkpt>
<trkpt lat="55.420031000" lon="-3.287045000"><ele>278.3</ele><time>2010-08-29T13:16:59Z</time></trkpt>
<trkpt lat="55.420028000" lon="-3.287034000"><ele>279.1</ele><time>2010-08-29T13:17:00Z</time></trkpt>
<trkpt lat="55.419999000" lon="-3.286963000"><ele>279.9</ele><time>2010-08-29T13:17:06Z</time></trkpt>
<trkpt lat="55.419992000" lon="-3.286937000"><ele>280.7</ele><time>2010-08-29T13:17:08Z</time></trkpt>
<trkpt lat="55.419961000" lon="-3.286873000"><ele>281.5</ele><time>2010-08-29T13:17:14Z</time></trkpt>
<trkpt lat="55.419917000" lon="-3.286766000"><ele>282.4</ele><time>2010-08-29T13:17:24Z</time></trkpt>
<trkpt lat="55.419894000" lon="-3.286686000"><ele>283.2</ele><time>2010-08-29T13:17:29Z</time></trkpt>
<trkpt lat="55.419862000" lon="-3.286527000"><ele>284.0</ele><time>2010-08-29T13:17:38Z</time></trkpt>
<trkpt lat="55.419851000" lon="-3.286463000"><ele>283.7</ele><time>2010-08-29T13:17:43Z</time></trkpt>
<trkpt lat="55.419841000" lon="-3.286382000"><ele>283.5</ele><time>2010-08-29T13:17:52Z</time></trkpt>
<trkpt lat="55.419799000" lon="-3.286344000"><ele>280.4</ele><time>2010-08-29T13:18:02Z</time></trkpt>
<trkpt lat="55.419785000" lon="-3.286318000"><ele>277.3</ele><time>2010-08-29T13:18:05Z</time></trkpt>
<trkpt lat="55.419759000" lon="-3.286244000"><ele>274.2</ele><time>2010-08-29T13:18:10Z</time></trkpt>
<trkpt lat="55.419699000" lon="-3.286185000"><ele>271.1</ele><time>2010-08-29T13:18:24Z</time></trkpt>
<trkpt lat="55.419650000" lon="-3.286203000"><ele>268.0</ele><time>2010-08-29T13:18:34Z</time></trkpt>
<trkpt lat="55.419604000" lon="-3.286237000"><ele>264.9</ele><time>2010-08-29T13:18:41Z</time></trkpt>
<trkpt lat="55.419574000" lon="-3.286254000"><ele>261.8</ele><time>2010-08-29T13:18:46Z</time></trkpt>
<trkpt lat="55.419524000" lon="-3.286286000"><ele>258.7</ele><time>2010-08-29T13:18:59Z</time></trkpt>
<trkpt lat="55.419442000" lon="-3.286370000"><ele>255.6</ele><time>2010-08-29T13:19:14Z</time></trkpt>
<trkpt lat="55.419434000" lon="-3.286368000"><ele>252.8</ele><time>2010-08-29T13:19:15Z</time></trkpt>
<trkpt lat="55.419394000" lon="-3.286413000"><ele>250.0</ele><time>2010-08-29T13:19:25Z</time></trkpt>
<trkpt lat="55.419325000" lon="-3.286467000"><ele>250.0</ele><time>2010-08-29T13:19:33Z</time></trkpt>
<trkpt lat="55.419278000" lon="-3.286506000"><ele>250.0</ele><time>2010-08-29T13:19:38Z</time></trkpt>
<trkpt lat="55.419232000" lon="-3.286530000"><ele>250.0</ele><time>2010-08-29T13:19:44Z</time></trkpt>
<trkpt lat="55.419187000" lon="-3.286540000"><ele>250.0</ele><time>2010-08-29T13:19:50Z</time></trkpt>
<trkpt lat="55.419134000" lon="-3.286552000"><ele>250.0</ele><time>2010-08-29T13:19:56Z</time></trkpt>
<trkpt lat="55.419086000" lon="-3.286569000"><ele>250.0</ele><time>2010-08-29T13:20:00Z</time></trkpt>
<trkpt lat="55.419035000" lon="-3.286602000"><ele>250.0</ele><time>2010-08-29T13:20:04Z</time></trkpt>
<trkpt lat="55.418997000" lon="-3.286657000"><ele>250.2</ele><time>2010-08-29T13:20:08Z</time></trkpt>
<trkpt lat="55.418988000" lon="-3.286736000"><ele>250.4</ele><time>2010-08-29T13:20:18Z</time></trkpt>
<trkpt lat="55.418965000" lon="-3.286815000"><ele>250.5</ele><time>2010-08-29T13:20:31Z</time></trkpt>
<trkpt lat="55.418983000" lon="-3.286904000"><ele>250.7</ele><time>2010-08-29T13:20:40Z</time></trkpt>
<trkpt lat="55.418978000" lon="-3.286994000"><ele>250.9</ele><time>2010-08-29T13:20:44Z</time></trkpt>
<trkpt lat="55.418941000" lon="-3.287060000"><ele>251.1</ele><time>2010-08-29T13:20:49Z</time></trkpt>
<trkpt lat="55.418918000" lon="-3.287145000"><ele>251.3</ele><time>2010-08-29T13:20:53Z</time></trkpt>
<trkpt lat="55.418907000" lon="-3.287223000"><ele>250.4</ele><time>2010-08-29T13:20:56Z</time></trkpt>
<trkpt lat="55.418892000" lon="-3.287322000"><ele>249.5</ele><time>2010-08-29T13:21:00Z</time></trkpt>
<trkpt lat="55.418875000" lon="-3.287416000"><ele>248.5</ele><time>2010-08-29T13:21:04Z</time></trkpt>
<trkpt lat="55.418844000" lon="-3.287452000"><ele>247.6</ele><time>2010-08-29T13:21:07Z</time></trkpt>
<trkpt lat="55.418792000" lon="-3.287472000"><ele>246.5</ele><time>2010-08-29T13:21:11Z</time></trkpt>
<trkpt lat="55.418739000" lon="-3.287454000"><ele>245.5</ele><time>2010-08-29T13:21:14Z</time></trkpt>
<trkpt lat="55.418689000" lon="-3.287458000"><ele>244.4</ele><time>2010-08-29T13:21:17Z</time></trkpt>
<trkpt lat="55.418631000" lon="-3.287463000"><ele>243.3</ele><time>2010-08-29T13:21:21Z</time></trkpt>
<trkpt lat="55.418578000" lon="-3.287472000"><ele>242.2</ele><time>2010-08-29T13:21:25Z</time></trkpt>
<trkpt lat="55.418525000" lon="-3.287480000"><ele>241.1</ele><time>2010-08-29T13:21:29Z</time></trkpt>
<trkpt lat="55.418512000" lon="-3.287480000"><ele>240.0</ele><time>2010-08-29T13:21:30Z</time></trkpt>
<trkpt lat="55.418457000" lon="-3.287478000"><ele>240.0</ele><time>2010-08-29T13:21:34Z</time></trkpt>
<trkpt lat="55.418401000" lon="-3.287478000"><ele>240.0</ele><time>2010-08-29T13:21:38Z</time></trkpt>
<trkpt lat="55.418346000" lon="-3.287468000"><ele>240.0</ele><time>2010-08-29T13:21:42Z</time></trkpt>
<trkpt lat="55.418303000" lon="-3.287466000"><ele>240.0</ele><time>2010-08-29T13:21:45Z</time></trkpt>
<trkpt lat="55.418246000" lon="-3.287455000"><ele>240.0</ele><time>2010-08-29T13:21:49Z</time></trkpt>
<trkpt lat="55.418190000" lon="-3.287456000"><ele>240.0</ele><time>2010-08-29T13:21:53Z</time></trkpt>
<trkpt lat="55.418136000" lon="-3.287466000"><ele>240.0</ele><time>2010-08-29T13:21:57Z</time></trkpt>
<trkpt lat="55.418080000" lon="-3.287475000"><ele>239.4</ele><time>2010-08-29T13:22:01Z</time></trkpt>
<trkpt lat="55.418054000" lon="-3.287477000"><ele>238.7</ele><time>2010-08-29T13:22:03Z</time></trkpt>
<trkpt lat="55.418006000" lon="-3.287500000"><ele>238.1</ele><time>2010-08-29T13:22:07Z</time></trkpt>
<trkpt lat="55.417995000" lon="-3.287510000"><ele>237.5</ele><time>2010-08-29T13:22:08Z</time></trkpt>
<trkpt lat="55.417945000" lon="-3.287541000"><ele>236.8</ele><time>2010-08-29T13:22:12Z</time></trkpt>
<trkpt lat="55.417891000" lon="-3.287532000"><ele>236.2</ele><time>2010-08-29T13:22:16Z</time></trkpt>
<trkpt lat="55.417807000" lon="-3.287465000"><ele>235.5</ele><time>2010-08-29T13:22:23Z</time></trkpt>
<trkpt lat="55.417795000" lon="-3.287457000"><ele>234.9</ele><time>2010-08-29T13:22:24Z</time></trkpt>
<trkpt lat="55.417745000" lon="-3.287426000"><ele>234.3</ele><time>2010-08-29T13:22:28Z</time></trkpt>
<trkpt lat="55.417732000" lon="-3.287422000"><ele>233.6</ele><time>2010-08-29T13:22:29Z</time></trkpt>
<trkpt lat="55.417682000" lon="-3.287404000"><ele>233.0</ele><time>2010-08-29T13:22:33Z</time></trkpt>
<trkpt lat="55.417669000" lon="-3.287396000"><ele>233.0</ele><time>2010-08-29T13:22:34Z</time></trkpt>
<trkpt lat="55.417619000" lon="-3.287369000"><ele>233.0</ele><time>2010-08-29T13:22:39Z</time></trkpt>
<trkpt lat="55.417575000" lon="-3.287413000"><ele>233.0</ele><time>2010-08-29T13:22:45Z</time></trkpt>
<trkpt lat="55.417559000" lon="-3.287433000"><ele>233.0</ele><time>2010-08-29T13:23:18Z</time></trkpt>
</trkseg>
</trk>
</gpx>
